<?xml version="1.0" encoding="UTF-8" standalone="no" ?>
<gpx xmlns="http://www.topografix.com/GPX/1/1" xmlns:xsi="http://www.w3.org/2001/XMLSchema-instance" xsi:schemaLocation="http://www.topografix.com/GPX/1/1 http://www.topografix.com/GPX/1/1/gpx.xsd" version="1.1" creator="VisuGPX - https://www.visugpx.com">
  <metadata>
    <name>Blennes 14-04-22</name>
    <desc><![CDATA[Boucle au départ de Blennes passant par Vallery, les Bergeries puis Les Chapelles.]]></desc>
  </metadata>
  <trk>
    <name><![CDATA[Blennes 14-04-22]]></name>
    <trkseg>
      <trkpt lat="48.25736" lon="3.02316">
        <ele>124</ele>
        <time>2022-04-14T12:07:22Z</time>
      </trkpt>
      <trkpt lat="48.25737" lon="3.02315">
        <ele>124.40000152588</ele>
        <time>2022-04-14T12:07:27Z</time>
      </trkpt>
      <trkpt lat="48.25738" lon="3.02317">
        <ele>124.40000152588</ele>
        <time>2022-04-14T12:07:32Z</time>
      </trkpt>
      <trkpt lat="48.25739" lon="3.0232">
        <ele>124.59999847412</ele>
        <time>2022-04-14T12:07:37Z</time>
      </trkpt>
      <trkpt lat="48.25738" lon="3.02324">
        <ele>124.59999847412</ele>
        <time>2022-04-14T12:07:42Z</time>
      </trkpt>
      <trkpt lat="48.25737" lon="3.02326">
        <ele>124.80000305176</ele>
        <time>2022-04-14T12:07:47Z</time>
      </trkpt>
      <trkpt lat="48.25735" lon="3.02331">
        <ele>124.80000305176</ele>
        <time>2022-04-14T12:07:52Z</time>
      </trkpt>
      <trkpt lat="48.25734" lon="3.02333">
        <ele>125</ele>
        <time>2022-04-14T12:07:57Z</time>
      </trkpt>
      <trkpt lat="48.25735" lon="3.02339">
        <ele>125</ele>
        <time>2022-04-14T12:08:02Z</time>
      </trkpt>
      <trkpt lat="48.25733" lon="3.02345">
        <ele>124.80000305176</ele>
        <time>2022-04-14T12:08:07Z</time>
      </trkpt>
      <trkpt lat="48.25732" lon="3.02351">
        <ele>124.40000152588</ele>
        <time>2022-04-14T12:08:12Z</time>
      </trkpt>
      <trkpt lat="48.25731" lon="3.02358">
        <ele>124.19999694824</ele>
        <time>2022-04-14T12:08:17Z</time>
      </trkpt>
      <trkpt lat="48.25731" lon="3.02364">
        <ele>124.19999694824</ele>
        <time>2022-04-14T12:08:22Z</time>
      </trkpt>
      <trkpt lat="48.2573" lon="3.02371">
        <ele>124.40000152588</ele>
        <time>2022-04-14T12:08:27Z</time>
      </trkpt>
      <trkpt lat="48.25729" lon="3.02376">
        <ele>124.59999847412</ele>
        <time>2022-04-14T12:08:32Z</time>
      </trkpt>
      <trkpt lat="48.25729" lon="3.02384">
        <ele>124.80000305176</ele>
        <time>2022-04-14T12:08:37Z</time>
      </trkpt>
      <trkpt lat="48.25729" lon="3.02389">
        <ele>125</ele>
        <time>2022-04-14T12:08:42Z</time>
      </trkpt>
      <trkpt lat="48.25728" lon="3.02397">
        <ele>125.19999694824</ele>
        <time>2022-04-14T12:08:47Z</time>
      </trkpt>
      <trkpt lat="48.25728" lon="3.02406">
        <ele>125.59999847412</ele>
        <time>2022-04-14T12:08:52Z</time>
      </trkpt>
      <trkpt lat="48.25727" lon="3.02416">
        <ele>126</ele>
        <time>2022-04-14T12:08:57Z</time>
      </trkpt>
      <trkpt lat="48.25728" lon="3.02426">
        <ele>126.40000152588</ele>
        <time>2022-04-14T12:09:02Z</time>
      </trkpt>
      <trkpt lat="48.25728" lon="3.02433">
        <ele>126.80000305176</ele>
        <time>2022-04-14T12:09:07Z</time>
      </trkpt>
      <trkpt lat="48.25727" lon="3.02441">
        <ele>127</ele>
        <time>2022-04-14T12:09:12Z</time>
      </trkpt>
      <trkpt lat="48.25726" lon="3.02448">
        <ele>127.19999694824</ele>
        <time>2022-04-14T12:09:17Z</time>
      </trkpt>
      <trkpt lat="48.25723" lon="3.02455">
        <ele>127.19999694824</ele>
        <time>2022-04-14T12:09:22Z</time>
      </trkpt>
      <trkpt lat="48.25722" lon="3.02462">
        <ele>127.19999694824</ele>
        <time>2022-04-14T12:09:27Z</time>
      </trkpt>
      <trkpt lat="48.25721" lon="3.02469">
        <ele>127.40000152588</ele>
        <time>2022-04-14T12:09:32Z</time>
      </trkpt>
      <trkpt lat="48.25718" lon="3.02476">
        <ele>127.40000152588</ele>
        <time>2022-04-14T12:09:37Z</time>
      </trkpt>
      <trkpt lat="48.25714" lon="3.02484">
        <ele>127.19999694824</ele>
        <time>2022-04-14T12:09:42Z</time>
      </trkpt>
      <trkpt lat="48.25711" lon="3.02492">
        <ele>127.19999694824</ele>
        <time>2022-04-14T12:09:47Z</time>
      </trkpt>
      <trkpt lat="48.25708" lon="3.02499">
        <ele>127</ele>
        <time>2022-04-14T12:09:52Z</time>
      </trkpt>
      <trkpt lat="48.25705" lon="3.02507">
        <ele>126.80000305176</ele>
        <time>2022-04-14T12:09:57Z</time>
      </trkpt>
      <trkpt lat="48.25703" lon="3.02514">
        <ele>126.59999847412</ele>
        <time>2022-04-14T12:10:02Z</time>
      </trkpt>
      <trkpt lat="48.25703" lon="3.02522">
        <ele>126.59999847412</ele>
        <time>2022-04-14T12:10:07Z</time>
      </trkpt>
      <trkpt lat="48.25702" lon="3.02529">
        <ele>126.59999847412</ele>
        <time>2022-04-14T12:10:12Z</time>
      </trkpt>
      <trkpt lat="48.257" lon="3.02536">
        <ele>126.59999847412</ele>
        <time>2022-04-14T12:10:17Z</time>
      </trkpt>
      <trkpt lat="48.25696" lon="3.02542">
        <ele>126.59999847412</ele>
        <time>2022-04-14T12:10:22Z</time>
      </trkpt>
      <trkpt lat="48.25693" lon="3.02549">
        <ele>126.40000152588</ele>
        <time>2022-04-14T12:10:27Z</time>
      </trkpt>
      <trkpt lat="48.2569" lon="3.02555">
        <ele>126.40000152588</ele>
        <time>2022-04-14T12:10:32Z</time>
      </trkpt>
      <trkpt lat="48.25687" lon="3.02563">
        <ele>126.40000152588</ele>
        <time>2022-04-14T12:10:37Z</time>
      </trkpt>
      <trkpt lat="48.25685" lon="3.02571">
        <ele>126.40000152588</ele>
        <time>2022-04-14T12:10:42Z</time>
      </trkpt>
      <trkpt lat="48.25681" lon="3.02578">
        <ele>126.40000152588</ele>
        <time>2022-04-14T12:10:47Z</time>
      </trkpt>
      <trkpt lat="48.25678" lon="3.02587">
        <ele>126.40000152588</ele>
        <time>2022-04-14T12:10:52Z</time>
      </trkpt>
      <trkpt lat="48.25675" lon="3.02595">
        <ele>126.40000152588</ele>
        <time>2022-04-14T12:10:57Z</time>
      </trkpt>
      <trkpt lat="48.25671" lon="3.02605">
        <ele>126.19999694824</ele>
        <time>2022-04-14T12:11:02Z</time>
      </trkpt>
      <trkpt lat="48.25668" lon="3.02612">
        <ele>126.19999694824</ele>
        <time>2022-04-14T12:11:07Z</time>
      </trkpt>
      <trkpt lat="48.25666" lon="3.0262">
        <ele>126</ele>
        <time>2022-04-14T12:11:12Z</time>
      </trkpt>
      <trkpt lat="48.25663" lon="3.02627">
        <ele>125.80000305176</ele>
        <time>2022-04-14T12:11:17Z</time>
      </trkpt>
      <trkpt lat="48.2566" lon="3.02635">
        <ele>125.80000305176</ele>
        <time>2022-04-14T12:11:22Z</time>
      </trkpt>
      <trkpt lat="48.25657" lon="3.02643">
        <ele>125.59999847412</ele>
        <time>2022-04-14T12:11:27Z</time>
      </trkpt>
      <trkpt lat="48.25655" lon="3.0265">
        <ele>125.59999847412</ele>
        <time>2022-04-14T12:11:32Z</time>
      </trkpt>
      <trkpt lat="48.25653" lon="3.02657">
        <ele>125.40000152588</ele>
        <time>2022-04-14T12:11:37Z</time>
      </trkpt>
      <trkpt lat="48.25651" lon="3.02665">
        <ele>125</ele>
        <time>2022-04-14T12:11:42Z</time>
      </trkpt>
      <trkpt lat="48.25649" lon="3.02671">
        <ele>124.80000305176</ele>
        <time>2022-04-14T12:11:47Z</time>
      </trkpt>
      <trkpt lat="48.25649" lon="3.02678">
        <ele>124.59999847412</ele>
        <time>2022-04-14T12:11:52Z</time>
      </trkpt>
      <trkpt lat="48.25647" lon="3.02686">
        <ele>124.59999847412</ele>
        <time>2022-04-14T12:11:57Z</time>
      </trkpt>
      <trkpt lat="48.25645" lon="3.02694">
        <ele>124.40000152588</ele>
        <time>2022-04-14T12:12:02Z</time>
      </trkpt>
      <trkpt lat="48.25643" lon="3.02702">
        <ele>124.59999847412</ele>
        <time>2022-04-14T12:12:07Z</time>
      </trkpt>
      <trkpt lat="48.2564" lon="3.02711">
        <ele>124.40000152588</ele>
        <time>2022-04-14T12:12:12Z</time>
      </trkpt>
      <trkpt lat="48.25638" lon="3.02718">
        <ele>124.40000152588</ele>
        <time>2022-04-14T12:12:17Z</time>
      </trkpt>
      <trkpt lat="48.25636" lon="3.02726">
        <ele>124.40000152588</ele>
        <time>2022-04-14T12:12:22Z</time>
      </trkpt>
      <trkpt lat="48.25634" lon="3.02734">
        <ele>124.40000152588</ele>
        <time>2022-04-14T12:12:27Z</time>
      </trkpt>
      <trkpt lat="48.25631" lon="3.02744">
        <ele>124.59999847412</ele>
        <time>2022-04-14T12:12:32Z</time>
      </trkpt>
      <trkpt lat="48.25628" lon="3.02753">
        <ele>124.40000152588</ele>
        <time>2022-04-14T12:12:37Z</time>
      </trkpt>
      <trkpt lat="48.25625" lon="3.02761">
        <ele>124.40000152588</ele>
        <time>2022-04-14T12:12:42Z</time>
      </trkpt>
      <trkpt lat="48.25623" lon="3.02767">
        <ele>124.40000152588</ele>
        <time>2022-04-14T12:12:47Z</time>
      </trkpt>
      <trkpt lat="48.25621" lon="3.02774">
        <ele>124.40000152588</ele>
        <time>2022-04-14T12:12:52Z</time>
      </trkpt>
      <trkpt lat="48.25619" lon="3.02782">
        <ele>124.59999847412</ele>
        <time>2022-04-14T12:12:57Z</time>
      </trkpt>
      <trkpt lat="48.25617" lon="3.02789">
        <ele>125</ele>
        <time>2022-04-14T12:13:02Z</time>
      </trkpt>
      <trkpt lat="48.25615" lon="3.02797">
        <ele>125</ele>
        <time>2022-04-14T12:13:07Z</time>
      </trkpt>
      <trkpt lat="48.25613" lon="3.02805">
        <ele>125.19999694824</ele>
        <time>2022-04-14T12:13:12Z</time>
      </trkpt>
      <trkpt lat="48.25611" lon="3.02814">
        <ele>125.19999694824</ele>
        <time>2022-04-14T12:13:17Z</time>
      </trkpt>
      <trkpt lat="48.25609" lon="3.02824">
        <ele>125.40000152588</ele>
        <time>2022-04-14T12:13:22Z</time>
      </trkpt>
      <trkpt lat="48.25608" lon="3.02833">
        <ele>125.40000152588</ele>
        <time>2022-04-14T12:13:27Z</time>
      </trkpt>
      <trkpt lat="48.25606" lon="3.02843">
        <ele>125.40000152588</ele>
        <time>2022-04-14T12:13:32Z</time>
      </trkpt>
      <trkpt lat="48.25604" lon="3.02852">
        <ele>125.59999847412</ele>
        <time>2022-04-14T12:13:37Z</time>
      </trkpt>
      <trkpt lat="48.25603" lon="3.0286">
        <ele>125.59999847412</ele>
        <time>2022-04-14T12:13:42Z</time>
      </trkpt>
      <trkpt lat="48.25602" lon="3.02868">
        <ele>125.59999847412</ele>
        <time>2022-04-14T12:13:47Z</time>
      </trkpt>
      <trkpt lat="48.25601" lon="3.02876">
        <ele>125.59999847412</ele>
        <time>2022-04-14T12:13:52Z</time>
      </trkpt>
      <trkpt lat="48.256" lon="3.02885">
        <ele>126</ele>
        <time>2022-04-14T12:13:57Z</time>
      </trkpt>
      <trkpt lat="48.25598" lon="3.02894">
        <ele>126</ele>
        <time>2022-04-14T12:14:02Z</time>
      </trkpt>
      <trkpt lat="48.25597" lon="3.02902">
        <ele>126.19999694824</ele>
        <time>2022-04-14T12:14:07Z</time>
      </trkpt>
      <trkpt lat="48.25597" lon="3.02911">
        <ele>126.19999694824</ele>
        <time>2022-04-14T12:14:12Z</time>
      </trkpt>
      <trkpt lat="48.25596" lon="3.02919">
        <ele>126.19999694824</ele>
        <time>2022-04-14T12:14:17Z</time>
      </trkpt>
      <trkpt lat="48.25595" lon="3.02928">
        <ele>126.40000152588</ele>
        <time>2022-04-14T12:14:22Z</time>
      </trkpt>
      <trkpt lat="48.25594" lon="3.02937">
        <ele>126.40000152588</ele>
        <time>2022-04-14T12:14:27Z</time>
      </trkpt>
      <trkpt lat="48.25593" lon="3.02945">
        <ele>126.40000152588</ele>
        <time>2022-04-14T12:14:32Z</time>
      </trkpt>
      <trkpt lat="48.25592" lon="3.02954">
        <ele>126.40000152588</ele>
        <time>2022-04-14T12:14:37Z</time>
      </trkpt>
      <trkpt lat="48.25592" lon="3.02963">
        <ele>126.40000152588</ele>
        <time>2022-04-14T12:14:42Z</time>
      </trkpt>
      <trkpt lat="48.25592" lon="3.02972">
        <ele>126.40000152588</ele>
        <time>2022-04-14T12:14:47Z</time>
      </trkpt>
      <trkpt lat="48.25591" lon="3.0298">
        <ele>126.40000152588</ele>
        <time>2022-04-14T12:14:52Z</time>
      </trkpt>
      <trkpt lat="48.2559" lon="3.02989">
        <ele>126.40000152588</ele>
        <time>2022-04-14T12:14:57Z</time>
      </trkpt>
      <trkpt lat="48.25589" lon="3.02996">
        <ele>126.59999847412</ele>
        <time>2022-04-14T12:15:02Z</time>
      </trkpt>
      <trkpt lat="48.25589" lon="3.03005">
        <ele>126.80000305176</ele>
        <time>2022-04-14T12:15:07Z</time>
      </trkpt>
      <trkpt lat="48.2559" lon="3.03014">
        <ele>126.80000305176</ele>
        <time>2022-04-14T12:15:12Z</time>
      </trkpt>
      <trkpt lat="48.25589" lon="3.03023">
        <ele>126.80000305176</ele>
        <time>2022-04-14T12:15:17Z</time>
      </trkpt>
      <trkpt lat="48.2559" lon="3.03032">
        <ele>127</ele>
        <time>2022-04-14T12:15:22Z</time>
      </trkpt>
      <trkpt lat="48.25589" lon="3.03041">
        <ele>127</ele>
        <time>2022-04-14T12:15:27Z</time>
      </trkpt>
      <trkpt lat="48.25589" lon="3.03049">
        <ele>127</ele>
        <time>2022-04-14T12:15:32Z</time>
      </trkpt>
      <trkpt lat="48.25588" lon="3.03058">
        <ele>127.19999694824</ele>
        <time>2022-04-14T12:15:37Z</time>
      </trkpt>
      <trkpt lat="48.25588" lon="3.03067">
        <ele>127.40000152588</ele>
        <time>2022-04-14T12:15:42Z</time>
      </trkpt>
      <trkpt lat="48.25587" lon="3.03077">
        <ele>127.40000152588</ele>
        <time>2022-04-14T12:15:47Z</time>
      </trkpt>
      <trkpt lat="48.25586" lon="3.03086">
        <ele>127.40000152588</ele>
        <time>2022-04-14T12:15:52Z</time>
      </trkpt>
      <trkpt lat="48.25584" lon="3.03095">
        <ele>127.40000152588</ele>
        <time>2022-04-14T12:15:57Z</time>
      </trkpt>
      <trkpt lat="48.25583" lon="3.03103">
        <ele>127.19999694824</ele>
        <time>2022-04-14T12:16:02Z</time>
      </trkpt>
      <trkpt lat="48.25581" lon="3.03112">
        <ele>127.19999694824</ele>
        <time>2022-04-14T12:16:07Z</time>
      </trkpt>
      <trkpt lat="48.25579" lon="3.03121">
        <ele>127.40000152588</ele>
        <time>2022-04-14T12:16:12Z</time>
      </trkpt>
      <trkpt lat="48.25578" lon="3.0313">
        <ele>127.40000152588</ele>
        <time>2022-04-14T12:16:17Z</time>
      </trkpt>
      <trkpt lat="48.25577" lon="3.03138">
        <ele>127.19999694824</ele>
        <time>2022-04-14T12:16:22Z</time>
      </trkpt>
      <trkpt lat="48.25575" lon="3.03147">
        <ele>127.19999694824</ele>
        <time>2022-04-14T12:16:27Z</time>
      </trkpt>
      <trkpt lat="48.25573" lon="3.03155">
        <ele>127.19999694824</ele>
        <time>2022-04-14T12:16:32Z</time>
      </trkpt>
      <trkpt lat="48.25572" lon="3.03162">
        <ele>127</ele>
        <time>2022-04-14T12:16:37Z</time>
      </trkpt>
      <trkpt lat="48.25572" lon="3.03167">
        <ele>127</ele>
        <time>2022-04-14T12:16:42Z</time>
      </trkpt>
      <trkpt lat="48.2557" lon="3.03173">
        <ele>127</ele>
        <time>2022-04-14T12:16:47Z</time>
      </trkpt>
      <trkpt lat="48.25568" lon="3.03179">
        <ele>127</ele>
        <time>2022-04-14T12:16:52Z</time>
      </trkpt>
      <trkpt lat="48.25566" lon="3.03186">
        <ele>126.59999847412</ele>
        <time>2022-04-14T12:16:57Z</time>
      </trkpt>
      <trkpt lat="48.25564" lon="3.03192">
        <ele>126.59999847412</ele>
        <time>2022-04-14T12:17:02Z</time>
      </trkpt>
      <trkpt lat="48.25561" lon="3.03201">
        <ele>126.40000152588</ele>
        <time>2022-04-14T12:17:07Z</time>
      </trkpt>
      <trkpt lat="48.25558" lon="3.03208">
        <ele>126.40000152588</ele>
        <time>2022-04-14T12:17:12Z</time>
      </trkpt>
      <trkpt lat="48.25555" lon="3.03215">
        <ele>126.19999694824</ele>
        <time>2022-04-14T12:17:17Z</time>
      </trkpt>
      <trkpt lat="48.25552" lon="3.03223">
        <ele>126</ele>
        <time>2022-04-14T12:17:22Z</time>
      </trkpt>
      <trkpt lat="48.25548" lon="3.03231">
        <ele>126</ele>
        <time>2022-04-14T12:17:27Z</time>
      </trkpt>
      <trkpt lat="48.25544" lon="3.03237">
        <ele>126</ele>
        <time>2022-04-14T12:17:32Z</time>
      </trkpt>
      <trkpt lat="48.2554" lon="3.03241">
        <ele>125.80000305176</ele>
        <time>2022-04-14T12:17:37Z</time>
      </trkpt>
      <trkpt lat="48.25534" lon="3.03245">
        <ele>125.59999847412</ele>
        <time>2022-04-14T12:17:42Z</time>
      </trkpt>
      <trkpt lat="48.25526" lon="3.03248">
        <ele>125.59999847412</ele>
        <time>2022-04-14T12:17:47Z</time>
      </trkpt>
      <trkpt lat="48.2552" lon="3.0325">
        <ele>125.59999847412</ele>
        <time>2022-04-14T12:17:52Z</time>
      </trkpt>
      <trkpt lat="48.25514" lon="3.03251">
        <ele>125.59999847412</ele>
        <time>2022-04-14T12:17:57Z</time>
      </trkpt>
      <trkpt lat="48.25509" lon="3.0325">
        <ele>125.59999847412</ele>
        <time>2022-04-14T12:18:02Z</time>
      </trkpt>
      <trkpt lat="48.25506" lon="3.03249">
        <ele>125.59999847412</ele>
        <time>2022-04-14T12:18:07Z</time>
      </trkpt>
      <trkpt lat="48.25502" lon="3.03249">
        <ele>125.59999847412</ele>
        <time>2022-04-14T12:18:12Z</time>
      </trkpt>
      <trkpt lat="48.25499" lon="3.03248">
        <ele>125.40000152588</ele>
        <time>2022-04-14T12:18:17Z</time>
      </trkpt>
      <trkpt lat="48.25495" lon="3.03245">
        <ele>125.40000152588</ele>
        <time>2022-04-14T12:18:22Z</time>
      </trkpt>
      <trkpt lat="48.25492" lon="3.03242">
        <ele>125.19999694824</ele>
        <time>2022-04-14T12:18:27Z</time>
      </trkpt>
      <trkpt lat="48.25488" lon="3.03238">
        <ele>125</ele>
        <time>2022-04-14T12:18:32Z</time>
      </trkpt>
      <trkpt lat="48.25486" lon="3.03237">
        <ele>124.80000305176</ele>
        <time>2022-04-14T12:18:37Z</time>
      </trkpt>
      <trkpt lat="48.2548" lon="3.03238">
        <ele>124.80000305176</ele>
        <time>2022-04-14T12:18:42Z</time>
      </trkpt>
      <trkpt lat="48.25473" lon="3.03236">
        <ele>124.80000305176</ele>
        <time>2022-04-14T12:18:47Z</time>
      </trkpt>
      <trkpt lat="48.25467" lon="3.03233">
        <ele>124.59999847412</ele>
        <time>2022-04-14T12:18:52Z</time>
      </trkpt>
      <trkpt lat="48.25458" lon="3.03231">
        <ele>124.59999847412</ele>
        <time>2022-04-14T12:18:57Z</time>
      </trkpt>
      <trkpt lat="48.2545" lon="3.03228">
        <ele>124.80000305176</ele>
        <time>2022-04-14T12:19:02Z</time>
      </trkpt>
      <trkpt lat="48.25444" lon="3.03226">
        <ele>124.80000305176</ele>
        <time>2022-04-14T12:19:07Z</time>
      </trkpt>
      <trkpt lat="48.2544" lon="3.03223">
        <ele>124.59999847412</ele>
        <time>2022-04-14T12:19:12Z</time>
      </trkpt>
      <trkpt lat="48.25433" lon="3.0322">
        <ele>124.80000305176</ele>
        <time>2022-04-14T12:19:17Z</time>
      </trkpt>
      <trkpt lat="48.25427" lon="3.03214">
        <ele>124.80000305176</ele>
        <time>2022-04-14T12:19:22Z</time>
      </trkpt>
      <trkpt lat="48.25422" lon="3.03208">
        <ele>124.80000305176</ele>
        <time>2022-04-14T12:19:27Z</time>
      </trkpt>
      <trkpt lat="48.25419" lon="3.03204">
        <ele>124.80000305176</ele>
        <time>2022-04-14T12:19:32Z</time>
      </trkpt>
      <trkpt lat="48.25413" lon="3.03199">
        <ele>124.80000305176</ele>
        <time>2022-04-14T12:19:37Z</time>
      </trkpt>
      <trkpt lat="48.25408" lon="3.03191">
        <ele>124.80000305176</ele>
        <time>2022-04-14T12:19:42Z</time>
      </trkpt>
      <trkpt lat="48.25404" lon="3.03184">
        <ele>124.80000305176</ele>
        <time>2022-04-14T12:19:47Z</time>
      </trkpt>
      <trkpt lat="48.25401" lon="3.03179">
        <ele>124.80000305176</ele>
        <time>2022-04-14T12:19:52Z</time>
      </trkpt>
      <trkpt lat="48.254" lon="3.03175">
        <ele>125</ele>
        <time>2022-04-14T12:19:57Z</time>
      </trkpt>
      <trkpt lat="48.25396" lon="3.03168">
        <ele>125</ele>
        <time>2022-04-14T12:20:02Z</time>
      </trkpt>
      <trkpt lat="48.25394" lon="3.0316">
        <ele>124.80000305176</ele>
        <time>2022-04-14T12:20:07Z</time>
      </trkpt>
      <trkpt lat="48.2539" lon="3.03153">
        <ele>124.80000305176</ele>
        <time>2022-04-14T12:20:12Z</time>
      </trkpt>
      <trkpt lat="48.25386" lon="3.03144">
        <ele>124.80000305176</ele>
        <time>2022-04-14T12:20:17Z</time>
      </trkpt>
      <trkpt lat="48.25382" lon="3.03136">
        <ele>124.80000305176</ele>
        <time>2022-04-14T12:20:22Z</time>
      </trkpt>
      <trkpt lat="48.25379" lon="3.0313">
        <ele>124.80000305176</ele>
        <time>2022-04-14T12:20:27Z</time>
      </trkpt>
      <trkpt lat="48.25375" lon="3.03121">
        <ele>124.80000305176</ele>
        <time>2022-04-14T12:20:32Z</time>
      </trkpt>
      <trkpt lat="48.25371" lon="3.03114">
        <ele>124.80000305176</ele>
        <time>2022-04-14T12:20:37Z</time>
      </trkpt>
      <trkpt lat="48.2537" lon="3.03104">
        <ele>124.80000305176</ele>
        <time>2022-04-14T12:20:42Z</time>
      </trkpt>
      <trkpt lat="48.25367" lon="3.03095">
        <ele>124.80000305176</ele>
        <time>2022-04-14T12:20:47Z</time>
      </trkpt>
      <trkpt lat="48.25365" lon="3.03086">
        <ele>124.80000305176</ele>
        <time>2022-04-14T12:20:52Z</time>
      </trkpt>
      <trkpt lat="48.25356" lon="3.0308">
        <ele>124.80000305176</ele>
        <time>2022-04-14T12:20:57Z</time>
      </trkpt>
      <trkpt lat="48.25352" lon="3.03074">
        <ele>124.80000305176</ele>
        <time>2022-04-14T12:21:02Z</time>
      </trkpt>
      <trkpt lat="48.25347" lon="3.03069">
        <ele>124.80000305176</ele>
        <time>2022-04-14T12:21:07Z</time>
      </trkpt>
      <trkpt lat="48.2534" lon="3.03063">
        <ele>124.80000305176</ele>
        <time>2022-04-14T12:21:12Z</time>
      </trkpt>
      <trkpt lat="48.25334" lon="3.03057">
        <ele>124.80000305176</ele>
        <time>2022-04-14T12:21:17Z</time>
      </trkpt>
      <trkpt lat="48.25328" lon="3.03052">
        <ele>125</ele>
        <time>2022-04-14T12:21:22Z</time>
      </trkpt>
      <trkpt lat="48.25325" lon="3.03049">
        <ele>125</ele>
        <time>2022-04-14T12:21:27Z</time>
      </trkpt>
      <trkpt lat="48.25325" lon="3.03048">
        <ele>125</ele>
        <time>2022-04-14T12:21:32Z</time>
      </trkpt>
      <trkpt lat="48.25324" lon="3.03046">
        <ele>125</ele>
        <time>2022-04-14T12:21:37Z</time>
      </trkpt>
      <trkpt lat="48.25323" lon="3.03046">
        <ele>125</ele>
        <time>2022-04-14T12:21:42Z</time>
      </trkpt>
      <trkpt lat="48.25322" lon="3.03045">
        <ele>125</ele>
        <time>2022-04-14T12:21:47Z</time>
      </trkpt>
      <trkpt lat="48.25321" lon="3.03047">
        <ele>125</ele>
        <time>2022-04-14T12:21:52Z</time>
      </trkpt>
      <trkpt lat="48.25321" lon="3.03047">
        <ele>125</ele>
        <time>2022-04-14T12:21:54Z</time>
      </trkpt>
      <trkpt lat="48.2529" lon="3.0302">
        <ele>125</ele>
        <time>2022-04-14T12:22:54Z</time>
      </trkpt>
      <trkpt lat="48.25283" lon="3.03015">
        <ele>126</ele>
        <time>2022-04-14T12:22:59Z</time>
      </trkpt>
      <trkpt lat="48.25277" lon="3.0301">
        <ele>126.59999847412</ele>
        <time>2022-04-14T12:23:04Z</time>
      </trkpt>
      <trkpt lat="48.25271" lon="3.03005">
        <ele>127</ele>
        <time>2022-04-14T12:23:09Z</time>
      </trkpt>
      <trkpt lat="48.25265" lon="3.03001">
        <ele>127.19999694824</ele>
        <time>2022-04-14T12:23:14Z</time>
      </trkpt>
      <trkpt lat="48.25259" lon="3.02996">
        <ele>127.59999847412</ele>
        <time>2022-04-14T12:23:19Z</time>
      </trkpt>
      <trkpt lat="48.25255" lon="3.02991">
        <ele>127.80000305176</ele>
        <time>2022-04-14T12:23:24Z</time>
      </trkpt>
      <trkpt lat="48.25251" lon="3.02987">
        <ele>128</ele>
        <time>2022-04-14T12:23:29Z</time>
      </trkpt>
      <trkpt lat="48.25247" lon="3.02982">
        <ele>128.39999389648</ele>
        <time>2022-04-14T12:23:34Z</time>
      </trkpt>
      <trkpt lat="48.25242" lon="3.02976">
        <ele>128.80000305176</ele>
        <time>2022-04-14T12:23:39Z</time>
      </trkpt>
      <trkpt lat="48.25237" lon="3.02972">
        <ele>128.80000305176</ele>
        <time>2022-04-14T12:23:44Z</time>
      </trkpt>
      <trkpt lat="48.25233" lon="3.02973">
        <ele>129</ele>
        <time>2022-04-14T12:23:49Z</time>
      </trkpt>
      <trkpt lat="48.25229" lon="3.02977">
        <ele>129.19999694824</ele>
        <time>2022-04-14T12:23:54Z</time>
      </trkpt>
      <trkpt lat="48.25225" lon="3.0298">
        <ele>129.19999694824</ele>
        <time>2022-04-14T12:23:59Z</time>
      </trkpt>
      <trkpt lat="48.25222" lon="3.02982">
        <ele>129.19999694824</ele>
        <time>2022-04-14T12:24:04Z</time>
      </trkpt>
      <trkpt lat="48.2522" lon="3.02986">
        <ele>129.19999694824</ele>
        <time>2022-04-14T12:24:09Z</time>
      </trkpt>
      <trkpt lat="48.25217" lon="3.02994">
        <ele>129.60000610352</ele>
        <time>2022-04-14T12:24:14Z</time>
      </trkpt>
      <trkpt lat="48.25215" lon="3.03001">
        <ele>130</ele>
        <time>2022-04-14T12:24:19Z</time>
      </trkpt>
      <trkpt lat="48.25213" lon="3.03011">
        <ele>130.39999389648</ele>
        <time>2022-04-14T12:24:24Z</time>
      </trkpt>
      <trkpt lat="48.25211" lon="3.03022">
        <ele>130.60000610352</ele>
        <time>2022-04-14T12:24:29Z</time>
      </trkpt>
      <trkpt lat="48.2521" lon="3.03032">
        <ele>130.80000305176</ele>
        <time>2022-04-14T12:24:34Z</time>
      </trkpt>
      <trkpt lat="48.25208" lon="3.03042">
        <ele>131</ele>
        <time>2022-04-14T12:24:39Z</time>
      </trkpt>
      <trkpt lat="48.25206" lon="3.03051">
        <ele>131.19999694824</ele>
        <time>2022-04-14T12:24:44Z</time>
      </trkpt>
      <trkpt lat="48.25205" lon="3.0306">
        <ele>131.60000610352</ele>
        <time>2022-04-14T12:24:49Z</time>
      </trkpt>
      <trkpt lat="48.25203" lon="3.03069">
        <ele>131.80000305176</ele>
        <time>2022-04-14T12:24:54Z</time>
      </trkpt>
      <trkpt lat="48.25203" lon="3.03078">
        <ele>132</ele>
        <time>2022-04-14T12:24:59Z</time>
      </trkpt>
      <trkpt lat="48.25201" lon="3.03087">
        <ele>132.19999694824</ele>
        <time>2022-04-14T12:25:04Z</time>
      </trkpt>
      <trkpt lat="48.252" lon="3.03097">
        <ele>132.39999389648</ele>
        <time>2022-04-14T12:25:09Z</time>
      </trkpt>
      <trkpt lat="48.25198" lon="3.03106">
        <ele>132.39999389648</ele>
        <time>2022-04-14T12:25:14Z</time>
      </trkpt>
      <trkpt lat="48.25197" lon="3.03116">
        <ele>132.60000610352</ele>
        <time>2022-04-14T12:25:19Z</time>
      </trkpt>
      <trkpt lat="48.25196" lon="3.03125">
        <ele>132.80000305176</ele>
        <time>2022-04-14T12:25:24Z</time>
      </trkpt>
      <trkpt lat="48.25194" lon="3.03133">
        <ele>132.80000305176</ele>
        <time>2022-04-14T12:25:29Z</time>
      </trkpt>
      <trkpt lat="48.25194" lon="3.0314">
        <ele>133</ele>
        <time>2022-04-14T12:25:34Z</time>
      </trkpt>
      <trkpt lat="48.25193" lon="3.03149">
        <ele>133</ele>
        <time>2022-04-14T12:25:39Z</time>
      </trkpt>
      <trkpt lat="48.25192" lon="3.03158">
        <ele>133</ele>
        <time>2022-04-14T12:25:44Z</time>
      </trkpt>
      <trkpt lat="48.25191" lon="3.03167">
        <ele>133</ele>
        <time>2022-04-14T12:25:49Z</time>
      </trkpt>
      <trkpt lat="48.2519" lon="3.03176">
        <ele>133</ele>
        <time>2022-04-14T12:25:54Z</time>
      </trkpt>
      <trkpt lat="48.25188" lon="3.03183">
        <ele>133.19999694824</ele>
        <time>2022-04-14T12:25:59Z</time>
      </trkpt>
      <trkpt lat="48.25187" lon="3.03191">
        <ele>133.19999694824</ele>
        <time>2022-04-14T12:26:04Z</time>
      </trkpt>
      <trkpt lat="48.25186" lon="3.03197">
        <ele>133</ele>
        <time>2022-04-14T12:26:09Z</time>
      </trkpt>
      <trkpt lat="48.25185" lon="3.03204">
        <ele>132.80000305176</ele>
        <time>2022-04-14T12:26:14Z</time>
      </trkpt>
      <trkpt lat="48.25184" lon="3.0321">
        <ele>132.80000305176</ele>
        <time>2022-04-14T12:26:19Z</time>
      </trkpt>
      <trkpt lat="48.25183" lon="3.03218">
        <ele>132.80000305176</ele>
        <time>2022-04-14T12:26:24Z</time>
      </trkpt>
      <trkpt lat="48.25182" lon="3.03228">
        <ele>132.60000610352</ele>
        <time>2022-04-14T12:26:29Z</time>
      </trkpt>
      <trkpt lat="48.25181" lon="3.03238">
        <ele>132.39999389648</ele>
        <time>2022-04-14T12:26:34Z</time>
      </trkpt>
      <trkpt lat="48.25179" lon="3.03247">
        <ele>132</ele>
        <time>2022-04-14T12:26:39Z</time>
      </trkpt>
      <trkpt lat="48.25179" lon="3.03255">
        <ele>132</ele>
        <time>2022-04-14T12:26:44Z</time>
      </trkpt>
      <trkpt lat="48.25177" lon="3.03264">
        <ele>131.80000305176</ele>
        <time>2022-04-14T12:26:49Z</time>
      </trkpt>
      <trkpt lat="48.25175" lon="3.03272">
        <ele>131.39999389648</ele>
        <time>2022-04-14T12:26:54Z</time>
      </trkpt>
      <trkpt lat="48.25175" lon="3.03279">
        <ele>131.19999694824</ele>
        <time>2022-04-14T12:26:59Z</time>
      </trkpt>
      <trkpt lat="48.25172" lon="3.03288">
        <ele>130.80000305176</ele>
        <time>2022-04-14T12:27:04Z</time>
      </trkpt>
      <trkpt lat="48.25169" lon="3.03295">
        <ele>130.60000610352</ele>
        <time>2022-04-14T12:27:09Z</time>
      </trkpt>
      <trkpt lat="48.25163" lon="3.03305">
        <ele>130.39999389648</ele>
        <time>2022-04-14T12:27:14Z</time>
      </trkpt>
      <trkpt lat="48.25157" lon="3.03313">
        <ele>130.19999694824</ele>
        <time>2022-04-14T12:27:19Z</time>
      </trkpt>
      <trkpt lat="48.25154" lon="3.03321">
        <ele>130.19999694824</ele>
        <time>2022-04-14T12:27:24Z</time>
      </trkpt>
      <trkpt lat="48.2515" lon="3.03328">
        <ele>130</ele>
        <time>2022-04-14T12:27:29Z</time>
      </trkpt>
      <trkpt lat="48.25147" lon="3.03336">
        <ele>130</ele>
        <time>2022-04-14T12:27:34Z</time>
      </trkpt>
      <trkpt lat="48.25146" lon="3.03343">
        <ele>130</ele>
        <time>2022-04-14T12:27:39Z</time>
      </trkpt>
      <trkpt lat="48.25142" lon="3.0335">
        <ele>130</ele>
        <time>2022-04-14T12:27:44Z</time>
      </trkpt>
      <trkpt lat="48.2514" lon="3.03357">
        <ele>129.60000610352</ele>
        <time>2022-04-14T12:27:49Z</time>
      </trkpt>
      <trkpt lat="48.25137" lon="3.03366">
        <ele>129.60000610352</ele>
        <time>2022-04-14T12:27:54Z</time>
      </trkpt>
      <trkpt lat="48.25135" lon="3.03373">
        <ele>129.39999389648</ele>
        <time>2022-04-14T12:27:59Z</time>
      </trkpt>
      <trkpt lat="48.25132" lon="3.0338">
        <ele>129.19999694824</ele>
        <time>2022-04-14T12:28:04Z</time>
      </trkpt>
      <trkpt lat="48.2513" lon="3.03386">
        <ele>129.19999694824</ele>
        <time>2022-04-14T12:28:09Z</time>
      </trkpt>
      <trkpt lat="48.25129" lon="3.03391">
        <ele>129</ele>
        <time>2022-04-14T12:28:14Z</time>
      </trkpt>
      <trkpt lat="48.25128" lon="3.03399">
        <ele>129</ele>
        <time>2022-04-14T12:28:19Z</time>
      </trkpt>
      <trkpt lat="48.25128" lon="3.03408">
        <ele>129.19999694824</ele>
        <time>2022-04-14T12:28:24Z</time>
      </trkpt>
      <trkpt lat="48.25127" lon="3.03415">
        <ele>129.19999694824</ele>
        <time>2022-04-14T12:28:29Z</time>
      </trkpt>
      <trkpt lat="48.25126" lon="3.03424">
        <ele>129.19999694824</ele>
        <time>2022-04-14T12:28:34Z</time>
      </trkpt>
      <trkpt lat="48.25125" lon="3.03429">
        <ele>129.19999694824</ele>
        <time>2022-04-14T12:28:39Z</time>
      </trkpt>
      <trkpt lat="48.25123" lon="3.03439">
        <ele>129</ele>
        <time>2022-04-14T12:28:44Z</time>
      </trkpt>
      <trkpt lat="48.25122" lon="3.03449">
        <ele>128.80000305176</ele>
        <time>2022-04-14T12:28:49Z</time>
      </trkpt>
      <trkpt lat="48.2512" lon="3.03459">
        <ele>128.80000305176</ele>
        <time>2022-04-14T12:28:54Z</time>
      </trkpt>
      <trkpt lat="48.25119" lon="3.03467">
        <ele>128.80000305176</ele>
        <time>2022-04-14T12:28:59Z</time>
      </trkpt>
      <trkpt lat="48.25118" lon="3.03476">
        <ele>128.80000305176</ele>
        <time>2022-04-14T12:29:04Z</time>
      </trkpt>
      <trkpt lat="48.25117" lon="3.03483">
        <ele>128.80000305176</ele>
        <time>2022-04-14T12:29:09Z</time>
      </trkpt>
      <trkpt lat="48.25116" lon="3.03491">
        <ele>128.19999694824</ele>
        <time>2022-04-14T12:29:14Z</time>
      </trkpt>
      <trkpt lat="48.25118" lon="3.03498">
        <ele>128</ele>
        <time>2022-04-14T12:29:19Z</time>
      </trkpt>
      <trkpt lat="48.25119" lon="3.03503">
        <ele>127.80000305176</ele>
        <time>2022-04-14T12:29:24Z</time>
      </trkpt>
      <trkpt lat="48.25119" lon="3.0351">
        <ele>127.59999847412</ele>
        <time>2022-04-14T12:29:29Z</time>
      </trkpt>
      <trkpt lat="48.25119" lon="3.03518">
        <ele>127.59999847412</ele>
        <time>2022-04-14T12:29:34Z</time>
      </trkpt>
      <trkpt lat="48.25119" lon="3.03526">
        <ele>127.40000152588</ele>
        <time>2022-04-14T12:29:39Z</time>
      </trkpt>
      <trkpt lat="48.25118" lon="3.03535">
        <ele>127.19999694824</ele>
        <time>2022-04-14T12:29:44Z</time>
      </trkpt>
      <trkpt lat="48.25117" lon="3.03543">
        <ele>127.19999694824</ele>
        <time>2022-04-14T12:29:49Z</time>
      </trkpt>
      <trkpt lat="48.25117" lon="3.03549">
        <ele>127</ele>
        <time>2022-04-14T12:29:54Z</time>
      </trkpt>
      <trkpt lat="48.25117" lon="3.03556">
        <ele>126.59999847412</ele>
        <time>2022-04-14T12:29:59Z</time>
      </trkpt>
      <trkpt lat="48.25117" lon="3.03563">
        <ele>126.40000152588</ele>
        <time>2022-04-14T12:30:04Z</time>
      </trkpt>
      <trkpt lat="48.25117" lon="3.03564">
        <ele>126.40000152588</ele>
        <time>2022-04-14T12:30:06Z</time>
      </trkpt>
      <trkpt lat="48.25113" lon="3.03593">
        <ele>126.19999694824</ele>
        <time>2022-04-14T12:31:48Z</time>
      </trkpt>
      <trkpt lat="48.2511" lon="3.036">
        <ele>125.80000305176</ele>
        <time>2022-04-14T12:31:53Z</time>
      </trkpt>
      <trkpt lat="48.25107" lon="3.03606">
        <ele>125.80000305176</ele>
        <time>2022-04-14T12:31:58Z</time>
      </trkpt>
      <trkpt lat="48.25103" lon="3.03612">
        <ele>125.80000305176</ele>
        <time>2022-04-14T12:32:03Z</time>
      </trkpt>
      <trkpt lat="48.25102" lon="3.03616">
        <ele>126</ele>
        <time>2022-04-14T12:32:08Z</time>
      </trkpt>
      <trkpt lat="48.25102" lon="3.03616">
        <ele>126</ele>
        <time>2022-04-14T12:32:10Z</time>
      </trkpt>
      <trkpt lat="48.25084" lon="3.03646">
        <ele>126.40000152588</ele>
        <time>2022-04-14T12:33:09Z</time>
      </trkpt>
      <trkpt lat="48.25079" lon="3.03647">
        <ele>126.19999694824</ele>
        <time>2022-04-14T12:33:13Z</time>
      </trkpt>
      <trkpt lat="48.25061" lon="3.03621">
        <ele>126.40000152588</ele>
        <time>2022-04-14T12:33:44Z</time>
      </trkpt>
      <trkpt lat="48.25059" lon="3.03618">
        <ele>126.80000305176</ele>
        <time>2022-04-14T12:33:48Z</time>
      </trkpt>
      <trkpt lat="48.25076" lon="3.03713">
        <ele>127</ele>
        <time>2022-04-14T12:37:52Z</time>
      </trkpt>
      <trkpt lat="48.25076" lon="3.03731">
        <ele>126.19999694824</ele>
        <time>2022-04-14T12:37:57Z</time>
      </trkpt>
      <trkpt lat="48.25072" lon="3.03745">
        <ele>125.59999847412</ele>
        <time>2022-04-14T12:38:02Z</time>
      </trkpt>
      <trkpt lat="48.2507" lon="3.03756">
        <ele>125.59999847412</ele>
        <time>2022-04-14T12:38:07Z</time>
      </trkpt>
      <trkpt lat="48.25066" lon="3.03765">
        <ele>125.80000305176</ele>
        <time>2022-04-14T12:38:12Z</time>
      </trkpt>
      <trkpt lat="48.25061" lon="3.03776">
        <ele>125.80000305176</ele>
        <time>2022-04-14T12:38:17Z</time>
      </trkpt>
      <trkpt lat="48.25057" lon="3.03783">
        <ele>126</ele>
        <time>2022-04-14T12:38:22Z</time>
      </trkpt>
      <trkpt lat="48.25055" lon="3.0379">
        <ele>126.40000152588</ele>
        <time>2022-04-14T12:38:27Z</time>
      </trkpt>
      <trkpt lat="48.25054" lon="3.03797">
        <ele>127</ele>
        <time>2022-04-14T12:38:32Z</time>
      </trkpt>
      <trkpt lat="48.25052" lon="3.03802">
        <ele>127.19999694824</ele>
        <time>2022-04-14T12:38:37Z</time>
      </trkpt>
      <trkpt lat="48.25051" lon="3.0381">
        <ele>127.19999694824</ele>
        <time>2022-04-14T12:38:42Z</time>
      </trkpt>
      <trkpt lat="48.2505" lon="3.03817">
        <ele>127.19999694824</ele>
        <time>2022-04-14T12:38:47Z</time>
      </trkpt>
      <trkpt lat="48.2505" lon="3.03818">
        <ele>127.19999694824</ele>
        <time>2022-04-14T12:38:48Z</time>
      </trkpt>
      <trkpt lat="48.25017" lon="3.03894">
        <ele>131.80000305176</ele>
        <time>2022-04-14T12:40:01Z</time>
      </trkpt>
      <trkpt lat="48.25011" lon="3.03893">
        <ele>131.80000305176</ele>
        <time>2022-04-14T12:40:06Z</time>
      </trkpt>
      <trkpt lat="48.25004" lon="3.03892">
        <ele>131.80000305176</ele>
        <time>2022-04-14T12:40:11Z</time>
      </trkpt>
      <trkpt lat="48.24998" lon="3.03892">
        <ele>132</ele>
        <time>2022-04-14T12:40:16Z</time>
      </trkpt>
      <trkpt lat="48.24994" lon="3.03891">
        <ele>132</ele>
        <time>2022-04-14T12:40:21Z</time>
      </trkpt>
      <trkpt lat="48.24989" lon="3.03892">
        <ele>132</ele>
        <time>2022-04-14T12:40:26Z</time>
      </trkpt>
      <trkpt lat="48.24986" lon="3.03892">
        <ele>132</ele>
        <time>2022-04-14T12:40:31Z</time>
      </trkpt>
      <trkpt lat="48.24942" lon="3.03894">
        <ele>132.19999694824</ele>
        <time>2022-04-14T12:41:02Z</time>
      </trkpt>
      <trkpt lat="48.24934" lon="3.03896">
        <ele>132.39999389648</ele>
        <time>2022-04-14T12:41:07Z</time>
      </trkpt>
      <trkpt lat="48.24927" lon="3.03897">
        <ele>132.39999389648</ele>
        <time>2022-04-14T12:41:12Z</time>
      </trkpt>
      <trkpt lat="48.24921" lon="3.03897">
        <ele>132.60000610352</ele>
        <time>2022-04-14T12:41:17Z</time>
      </trkpt>
      <trkpt lat="48.24914" lon="3.03898">
        <ele>132.80000305176</ele>
        <time>2022-04-14T12:41:22Z</time>
      </trkpt>
      <trkpt lat="48.24908" lon="3.03899">
        <ele>132.80000305176</ele>
        <time>2022-04-14T12:41:27Z</time>
      </trkpt>
      <trkpt lat="48.24902" lon="3.03899">
        <ele>132.60000610352</ele>
        <time>2022-04-14T12:41:32Z</time>
      </trkpt>
      <trkpt lat="48.24896" lon="3.03899">
        <ele>132.80000305176</ele>
        <time>2022-04-14T12:41:37Z</time>
      </trkpt>
      <trkpt lat="48.2489" lon="3.03899">
        <ele>133</ele>
        <time>2022-04-14T12:41:42Z</time>
      </trkpt>
      <trkpt lat="48.24885" lon="3.039">
        <ele>133</ele>
        <time>2022-04-14T12:41:47Z</time>
      </trkpt>
      <trkpt lat="48.2488" lon="3.039">
        <ele>133.19999694824</ele>
        <time>2022-04-14T12:41:52Z</time>
      </trkpt>
      <trkpt lat="48.24874" lon="3.03901">
        <ele>133.19999694824</ele>
        <time>2022-04-14T12:41:57Z</time>
      </trkpt>
      <trkpt lat="48.24869" lon="3.03901">
        <ele>133.19999694824</ele>
        <time>2022-04-14T12:42:02Z</time>
      </trkpt>
      <trkpt lat="48.24864" lon="3.03902">
        <ele>133.39999389648</ele>
        <time>2022-04-14T12:42:07Z</time>
      </trkpt>
      <trkpt lat="48.24858" lon="3.03903">
        <ele>133.39999389648</ele>
        <time>2022-04-14T12:42:12Z</time>
      </trkpt>
      <trkpt lat="48.24854" lon="3.03904">
        <ele>133.60000610352</ele>
        <time>2022-04-14T12:42:17Z</time>
      </trkpt>
      <trkpt lat="48.24848" lon="3.03905">
        <ele>134</ele>
        <time>2022-04-14T12:42:22Z</time>
      </trkpt>
      <trkpt lat="48.24843" lon="3.03906">
        <ele>134.19999694824</ele>
        <time>2022-04-14T12:42:27Z</time>
      </trkpt>
      <trkpt lat="48.24837" lon="3.03907">
        <ele>134.19999694824</ele>
        <time>2022-04-14T12:42:32Z</time>
      </trkpt>
      <trkpt lat="48.24832" lon="3.03908">
        <ele>134.39999389648</ele>
        <time>2022-04-14T12:42:37Z</time>
      </trkpt>
      <trkpt lat="48.24826" lon="3.03909">
        <ele>134.60000610352</ele>
        <time>2022-04-14T12:42:42Z</time>
      </trkpt>
      <trkpt lat="48.24821" lon="3.0391">
        <ele>134.60000610352</ele>
        <time>2022-04-14T12:42:47Z</time>
      </trkpt>
      <trkpt lat="48.24814" lon="3.03911">
        <ele>134.39999389648</ele>
        <time>2022-04-14T12:42:52Z</time>
      </trkpt>
      <trkpt lat="48.24808" lon="3.03914">
        <ele>134.19999694824</ele>
        <time>2022-04-14T12:42:57Z</time>
      </trkpt>
      <trkpt lat="48.24802" lon="3.03917">
        <ele>134.19999694824</ele>
        <time>2022-04-14T12:43:02Z</time>
      </trkpt>
      <trkpt lat="48.24795" lon="3.03918">
        <ele>134.19999694824</ele>
        <time>2022-04-14T12:43:07Z</time>
      </trkpt>
      <trkpt lat="48.24789" lon="3.0392">
        <ele>134</ele>
        <time>2022-04-14T12:43:12Z</time>
      </trkpt>
      <trkpt lat="48.24784" lon="3.03922">
        <ele>134</ele>
        <time>2022-04-14T12:43:17Z</time>
      </trkpt>
      <trkpt lat="48.24778" lon="3.03925">
        <ele>133.80000305176</ele>
        <time>2022-04-14T12:43:22Z</time>
      </trkpt>
      <trkpt lat="48.24773" lon="3.03929">
        <ele>133.60000610352</ele>
        <time>2022-04-14T12:43:27Z</time>
      </trkpt>
      <trkpt lat="48.24767" lon="3.03934">
        <ele>133.60000610352</ele>
        <time>2022-04-14T12:43:32Z</time>
      </trkpt>
      <trkpt lat="48.24763" lon="3.03938">
        <ele>133.60000610352</ele>
        <time>2022-04-14T12:43:37Z</time>
      </trkpt>
      <trkpt lat="48.24758" lon="3.03941">
        <ele>133.19999694824</ele>
        <time>2022-04-14T12:43:42Z</time>
      </trkpt>
      <trkpt lat="48.24754" lon="3.03945">
        <ele>133.19999694824</ele>
        <time>2022-04-14T12:43:47Z</time>
      </trkpt>
      <trkpt lat="48.24749" lon="3.03947">
        <ele>132.80000305176</ele>
        <time>2022-04-14T12:43:52Z</time>
      </trkpt>
      <trkpt lat="48.24743" lon="3.03951">
        <ele>132.60000610352</ele>
        <time>2022-04-14T12:43:57Z</time>
      </trkpt>
      <trkpt lat="48.24738" lon="3.03955">
        <ele>132.39999389648</ele>
        <time>2022-04-14T12:44:02Z</time>
      </trkpt>
      <trkpt lat="48.24734" lon="3.03959">
        <ele>132.39999389648</ele>
        <time>2022-04-14T12:44:07Z</time>
      </trkpt>
      <trkpt lat="48.24731" lon="3.03963">
        <ele>132.19999694824</ele>
        <time>2022-04-14T12:44:12Z</time>
      </trkpt>
      <trkpt lat="48.24728" lon="3.03966">
        <ele>132</ele>
        <time>2022-04-14T12:44:17Z</time>
      </trkpt>
      <trkpt lat="48.24723" lon="3.0397">
        <ele>131.80000305176</ele>
        <time>2022-04-14T12:44:22Z</time>
      </trkpt>
      <trkpt lat="48.24719" lon="3.03973">
        <ele>131.60000610352</ele>
        <time>2022-04-14T12:44:27Z</time>
      </trkpt>
      <trkpt lat="48.24713" lon="3.03977">
        <ele>131.60000610352</ele>
        <time>2022-04-14T12:44:32Z</time>
      </trkpt>
      <trkpt lat="48.24708" lon="3.03981">
        <ele>131.39999389648</ele>
        <time>2022-04-14T12:44:37Z</time>
      </trkpt>
      <trkpt lat="48.24703" lon="3.03984">
        <ele>131.39999389648</ele>
        <time>2022-04-14T12:44:42Z</time>
      </trkpt>
      <trkpt lat="48.24698" lon="3.03988">
        <ele>131.39999389648</ele>
        <time>2022-04-14T12:44:47Z</time>
      </trkpt>
      <trkpt lat="48.24692" lon="3.03992">
        <ele>131.19999694824</ele>
        <time>2022-04-14T12:44:52Z</time>
      </trkpt>
      <trkpt lat="48.24687" lon="3.03995">
        <ele>131.19999694824</ele>
        <time>2022-04-14T12:44:57Z</time>
      </trkpt>
      <trkpt lat="48.24683" lon="3.03998">
        <ele>131</ele>
        <time>2022-04-14T12:45:02Z</time>
      </trkpt>
      <trkpt lat="48.24677" lon="3.04001">
        <ele>130.80000305176</ele>
        <time>2022-04-14T12:45:07Z</time>
      </trkpt>
      <trkpt lat="48.24673" lon="3.04004">
        <ele>130.80000305176</ele>
        <time>2022-04-14T12:45:12Z</time>
      </trkpt>
      <trkpt lat="48.24668" lon="3.04008">
        <ele>130.80000305176</ele>
        <time>2022-04-14T12:45:17Z</time>
      </trkpt>
      <trkpt lat="48.24663" lon="3.04011">
        <ele>130.80000305176</ele>
        <time>2022-04-14T12:45:22Z</time>
      </trkpt>
      <trkpt lat="48.24657" lon="3.04014">
        <ele>130.80000305176</ele>
        <time>2022-04-14T12:45:27Z</time>
      </trkpt>
      <trkpt lat="48.24651" lon="3.04016">
        <ele>130.80000305176</ele>
        <time>2022-04-14T12:45:32Z</time>
      </trkpt>
      <trkpt lat="48.24646" lon="3.04019">
        <ele>131</ele>
        <time>2022-04-14T12:45:37Z</time>
      </trkpt>
      <trkpt lat="48.24641" lon="3.04021">
        <ele>131</ele>
        <time>2022-04-14T12:45:42Z</time>
      </trkpt>
      <trkpt lat="48.24636" lon="3.04023">
        <ele>131</ele>
        <time>2022-04-14T12:45:47Z</time>
      </trkpt>
      <trkpt lat="48.2463" lon="3.04026">
        <ele>131</ele>
        <time>2022-04-14T12:45:52Z</time>
      </trkpt>
      <trkpt lat="48.24625" lon="3.04028">
        <ele>131</ele>
        <time>2022-04-14T12:45:57Z</time>
      </trkpt>
      <trkpt lat="48.24619" lon="3.04031">
        <ele>131</ele>
        <time>2022-04-14T12:46:02Z</time>
      </trkpt>
      <trkpt lat="48.24615" lon="3.04033">
        <ele>131</ele>
        <time>2022-04-14T12:46:07Z</time>
      </trkpt>
      <trkpt lat="48.2461" lon="3.04036">
        <ele>130.80000305176</ele>
        <time>2022-04-14T12:46:12Z</time>
      </trkpt>
      <trkpt lat="48.24605" lon="3.04039">
        <ele>130.80000305176</ele>
        <time>2022-04-14T12:46:17Z</time>
      </trkpt>
      <trkpt lat="48.246" lon="3.04043">
        <ele>130.80000305176</ele>
        <time>2022-04-14T12:46:22Z</time>
      </trkpt>
      <trkpt lat="48.24595" lon="3.04046">
        <ele>130.60000610352</ele>
        <time>2022-04-14T12:46:27Z</time>
      </trkpt>
      <trkpt lat="48.24591" lon="3.0405">
        <ele>130.60000610352</ele>
        <time>2022-04-14T12:46:32Z</time>
      </trkpt>
      <trkpt lat="48.24586" lon="3.04054">
        <ele>130.60000610352</ele>
        <time>2022-04-14T12:46:37Z</time>
      </trkpt>
      <trkpt lat="48.24581" lon="3.04057">
        <ele>130.60000610352</ele>
        <time>2022-04-14T12:46:42Z</time>
      </trkpt>
      <trkpt lat="48.24575" lon="3.0406">
        <ele>130.80000305176</ele>
        <time>2022-04-14T12:46:47Z</time>
      </trkpt>
      <trkpt lat="48.24571" lon="3.04063">
        <ele>130.80000305176</ele>
        <time>2022-04-14T12:46:52Z</time>
      </trkpt>
      <trkpt lat="48.24566" lon="3.04066">
        <ele>130.80000305176</ele>
        <time>2022-04-14T12:46:57Z</time>
      </trkpt>
      <trkpt lat="48.24561" lon="3.0407">
        <ele>131</ele>
        <time>2022-04-14T12:47:02Z</time>
      </trkpt>
      <trkpt lat="48.24557" lon="3.04074">
        <ele>131</ele>
        <time>2022-04-14T12:47:07Z</time>
      </trkpt>
      <trkpt lat="48.24554" lon="3.04077">
        <ele>131</ele>
        <time>2022-04-14T12:47:12Z</time>
      </trkpt>
      <trkpt lat="48.24549" lon="3.04081">
        <ele>130.80000305176</ele>
        <time>2022-04-14T12:47:17Z</time>
      </trkpt>
      <trkpt lat="48.24545" lon="3.04085">
        <ele>131</ele>
        <time>2022-04-14T12:47:22Z</time>
      </trkpt>
      <trkpt lat="48.2454" lon="3.04089">
        <ele>131</ele>
        <time>2022-04-14T12:47:27Z</time>
      </trkpt>
      <trkpt lat="48.24536" lon="3.04093">
        <ele>131.19999694824</ele>
        <time>2022-04-14T12:47:32Z</time>
      </trkpt>
      <trkpt lat="48.24531" lon="3.04096">
        <ele>131.19999694824</ele>
        <time>2022-04-14T12:47:37Z</time>
      </trkpt>
      <trkpt lat="48.24526" lon="3.04101">
        <ele>131.19999694824</ele>
        <time>2022-04-14T12:47:42Z</time>
      </trkpt>
      <trkpt lat="48.24522" lon="3.04105">
        <ele>131.39999389648</ele>
        <time>2022-04-14T12:47:47Z</time>
      </trkpt>
      <trkpt lat="48.24518" lon="3.0411">
        <ele>131.60000610352</ele>
        <time>2022-04-14T12:47:52Z</time>
      </trkpt>
      <trkpt lat="48.24514" lon="3.04116">
        <ele>131.80000305176</ele>
        <time>2022-04-14T12:47:57Z</time>
      </trkpt>
      <trkpt lat="48.24511" lon="3.04122">
        <ele>132</ele>
        <time>2022-04-14T12:48:02Z</time>
      </trkpt>
      <trkpt lat="48.24507" lon="3.04128">
        <ele>132.39999389648</ele>
        <time>2022-04-14T12:48:07Z</time>
      </trkpt>
      <trkpt lat="48.24504" lon="3.04133">
        <ele>132.60000610352</ele>
        <time>2022-04-14T12:48:12Z</time>
      </trkpt>
      <trkpt lat="48.24499" lon="3.04139">
        <ele>132.80000305176</ele>
        <time>2022-04-14T12:48:17Z</time>
      </trkpt>
      <trkpt lat="48.24494" lon="3.04147">
        <ele>133.19999694824</ele>
        <time>2022-04-14T12:48:22Z</time>
      </trkpt>
      <trkpt lat="48.2449" lon="3.04153">
        <ele>133.39999389648</ele>
        <time>2022-04-14T12:48:27Z</time>
      </trkpt>
      <trkpt lat="48.24486" lon="3.0416">
        <ele>133.60000610352</ele>
        <time>2022-04-14T12:48:32Z</time>
      </trkpt>
      <trkpt lat="48.24482" lon="3.04165">
        <ele>133.80000305176</ele>
        <time>2022-04-14T12:48:37Z</time>
      </trkpt>
      <trkpt lat="48.24479" lon="3.04172">
        <ele>133.80000305176</ele>
        <time>2022-04-14T12:48:42Z</time>
      </trkpt>
      <trkpt lat="48.24475" lon="3.04179">
        <ele>134</ele>
        <time>2022-04-14T12:48:47Z</time>
      </trkpt>
      <trkpt lat="48.24472" lon="3.04185">
        <ele>134</ele>
        <time>2022-04-14T12:48:52Z</time>
      </trkpt>
      <trkpt lat="48.24469" lon="3.04192">
        <ele>134.19999694824</ele>
        <time>2022-04-14T12:48:57Z</time>
      </trkpt>
      <trkpt lat="48.24466" lon="3.04198">
        <ele>134.19999694824</ele>
        <time>2022-04-14T12:49:02Z</time>
      </trkpt>
      <trkpt lat="48.24463" lon="3.04205">
        <ele>134.39999389648</ele>
        <time>2022-04-14T12:49:07Z</time>
      </trkpt>
      <trkpt lat="48.24461" lon="3.04213">
        <ele>134.60000610352</ele>
        <time>2022-04-14T12:49:12Z</time>
      </trkpt>
      <trkpt lat="48.24459" lon="3.0422">
        <ele>134.60000610352</ele>
        <time>2022-04-14T12:49:17Z</time>
      </trkpt>
      <trkpt lat="48.24456" lon="3.04226">
        <ele>134.80000305176</ele>
        <time>2022-04-14T12:49:22Z</time>
      </trkpt>
      <trkpt lat="48.24454" lon="3.04233">
        <ele>134.80000305176</ele>
        <time>2022-04-14T12:49:27Z</time>
      </trkpt>
      <trkpt lat="48.24452" lon="3.04241">
        <ele>134.80000305176</ele>
        <time>2022-04-14T12:49:32Z</time>
      </trkpt>
      <trkpt lat="48.24449" lon="3.0425">
        <ele>134.80000305176</ele>
        <time>2022-04-14T12:49:37Z</time>
      </trkpt>
      <trkpt lat="48.24447" lon="3.04257">
        <ele>134.80000305176</ele>
        <time>2022-04-14T12:49:42Z</time>
      </trkpt>
      <trkpt lat="48.24444" lon="3.04262">
        <ele>134.80000305176</ele>
        <time>2022-04-14T12:49:47Z</time>
      </trkpt>
      <trkpt lat="48.2444" lon="3.04269">
        <ele>134.80000305176</ele>
        <time>2022-04-14T12:49:52Z</time>
      </trkpt>
      <trkpt lat="48.24438" lon="3.04276">
        <ele>134.80000305176</ele>
        <time>2022-04-14T12:49:57Z</time>
      </trkpt>
      <trkpt lat="48.24436" lon="3.04283">
        <ele>134.80000305176</ele>
        <time>2022-04-14T12:50:02Z</time>
      </trkpt>
      <trkpt lat="48.24433" lon="3.04288">
        <ele>134.80000305176</ele>
        <time>2022-04-14T12:50:07Z</time>
      </trkpt>
      <trkpt lat="48.24431" lon="3.04296">
        <ele>134.60000610352</ele>
        <time>2022-04-14T12:50:12Z</time>
      </trkpt>
      <trkpt lat="48.24429" lon="3.04302">
        <ele>134.60000610352</ele>
        <time>2022-04-14T12:50:17Z</time>
      </trkpt>
      <trkpt lat="48.24429" lon="3.04308">
        <ele>134.60000610352</ele>
        <time>2022-04-14T12:50:22Z</time>
      </trkpt>
      <trkpt lat="48.24426" lon="3.04313">
        <ele>134.60000610352</ele>
        <time>2022-04-14T12:50:27Z</time>
      </trkpt>
      <trkpt lat="48.24422" lon="3.04318">
        <ele>134.60000610352</ele>
        <time>2022-04-14T12:50:32Z</time>
      </trkpt>
      <trkpt lat="48.24417" lon="3.04323">
        <ele>134.60000610352</ele>
        <time>2022-04-14T12:50:37Z</time>
      </trkpt>
      <trkpt lat="48.24414" lon="3.04329">
        <ele>134.60000610352</ele>
        <time>2022-04-14T12:50:42Z</time>
      </trkpt>
      <trkpt lat="48.24412" lon="3.04334">
        <ele>134.80000305176</ele>
        <time>2022-04-14T12:50:47Z</time>
      </trkpt>
      <trkpt lat="48.24408" lon="3.0434">
        <ele>134.60000610352</ele>
        <time>2022-04-14T12:50:52Z</time>
      </trkpt>
      <trkpt lat="48.24404" lon="3.04347">
        <ele>134.60000610352</ele>
        <time>2022-04-14T12:50:57Z</time>
      </trkpt>
      <trkpt lat="48.24402" lon="3.04354">
        <ele>134.80000305176</ele>
        <time>2022-04-14T12:51:02Z</time>
      </trkpt>
      <trkpt lat="48.24398" lon="3.04359">
        <ele>134.80000305176</ele>
        <time>2022-04-14T12:51:07Z</time>
      </trkpt>
      <trkpt lat="48.24394" lon="3.04362">
        <ele>134.80000305176</ele>
        <time>2022-04-14T12:51:12Z</time>
      </trkpt>
      <trkpt lat="48.24392" lon="3.04367">
        <ele>134.80000305176</ele>
        <time>2022-04-14T12:51:17Z</time>
      </trkpt>
      <trkpt lat="48.24389" lon="3.04371">
        <ele>134.80000305176</ele>
        <time>2022-04-14T12:51:22Z</time>
      </trkpt>
      <trkpt lat="48.24387" lon="3.04376">
        <ele>134.80000305176</ele>
        <time>2022-04-14T12:51:27Z</time>
      </trkpt>
      <trkpt lat="48.24384" lon="3.04382">
        <ele>134.80000305176</ele>
        <time>2022-04-14T12:51:32Z</time>
      </trkpt>
      <trkpt lat="48.24379" lon="3.04388">
        <ele>134.80000305176</ele>
        <time>2022-04-14T12:51:37Z</time>
      </trkpt>
      <trkpt lat="48.24374" lon="3.04395">
        <ele>134.80000305176</ele>
        <time>2022-04-14T12:51:42Z</time>
      </trkpt>
      <trkpt lat="48.24369" lon="3.04402">
        <ele>134.80000305176</ele>
        <time>2022-04-14T12:51:47Z</time>
      </trkpt>
      <trkpt lat="48.24365" lon="3.04408">
        <ele>134.80000305176</ele>
        <time>2022-04-14T12:51:52Z</time>
      </trkpt>
      <trkpt lat="48.2436" lon="3.04414">
        <ele>135</ele>
        <time>2022-04-14T12:51:57Z</time>
      </trkpt>
      <trkpt lat="48.24357" lon="3.04421">
        <ele>135</ele>
        <time>2022-04-14T12:52:02Z</time>
      </trkpt>
      <trkpt lat="48.24356" lon="3.04426">
        <ele>135</ele>
        <time>2022-04-14T12:52:07Z</time>
      </trkpt>
      <trkpt lat="48.24352" lon="3.04433">
        <ele>135</ele>
        <time>2022-04-14T12:52:12Z</time>
      </trkpt>
      <trkpt lat="48.24347" lon="3.0444">
        <ele>135</ele>
        <time>2022-04-14T12:52:17Z</time>
      </trkpt>
      <trkpt lat="48.24341" lon="3.04446">
        <ele>135.39999389648</ele>
        <time>2022-04-14T12:52:22Z</time>
      </trkpt>
      <trkpt lat="48.24335" lon="3.04452">
        <ele>135.60000610352</ele>
        <time>2022-04-14T12:52:27Z</time>
      </trkpt>
      <trkpt lat="48.24329" lon="3.04458">
        <ele>135.60000610352</ele>
        <time>2022-04-14T12:52:32Z</time>
      </trkpt>
      <trkpt lat="48.24325" lon="3.04463">
        <ele>135.80000305176</ele>
        <time>2022-04-14T12:52:37Z</time>
      </trkpt>
      <trkpt lat="48.2432" lon="3.04468">
        <ele>135.80000305176</ele>
        <time>2022-04-14T12:52:42Z</time>
      </trkpt>
      <trkpt lat="48.24316" lon="3.04472">
        <ele>135.80000305176</ele>
        <time>2022-04-14T12:52:47Z</time>
      </trkpt>
      <trkpt lat="48.24311" lon="3.04475">
        <ele>136</ele>
        <time>2022-04-14T12:52:52Z</time>
      </trkpt>
      <trkpt lat="48.24307" lon="3.04482">
        <ele>136.19999694824</ele>
        <time>2022-04-14T12:52:57Z</time>
      </trkpt>
      <trkpt lat="48.24303" lon="3.04488">
        <ele>136.19999694824</ele>
        <time>2022-04-14T12:53:02Z</time>
      </trkpt>
      <trkpt lat="48.24298" lon="3.04494">
        <ele>136.19999694824</ele>
        <time>2022-04-14T12:53:07Z</time>
      </trkpt>
      <trkpt lat="48.24293" lon="3.04502">
        <ele>136.19999694824</ele>
        <time>2022-04-14T12:53:12Z</time>
      </trkpt>
      <trkpt lat="48.24288" lon="3.04509">
        <ele>136</ele>
        <time>2022-04-14T12:53:17Z</time>
      </trkpt>
      <trkpt lat="48.24284" lon="3.04516">
        <ele>135.80000305176</ele>
        <time>2022-04-14T12:53:22Z</time>
      </trkpt>
      <trkpt lat="48.2428" lon="3.04524">
        <ele>135.80000305176</ele>
        <time>2022-04-14T12:53:27Z</time>
      </trkpt>
      <trkpt lat="48.24276" lon="3.04531">
        <ele>135.60000610352</ele>
        <time>2022-04-14T12:53:32Z</time>
      </trkpt>
      <trkpt lat="48.24272" lon="3.04536">
        <ele>135.39999389648</ele>
        <time>2022-04-14T12:53:37Z</time>
      </trkpt>
      <trkpt lat="48.24269" lon="3.04541">
        <ele>135.39999389648</ele>
        <time>2022-04-14T12:53:42Z</time>
      </trkpt>
      <trkpt lat="48.24265" lon="3.04546">
        <ele>135.39999389648</ele>
        <time>2022-04-14T12:53:47Z</time>
      </trkpt>
      <trkpt lat="48.2426" lon="3.04552">
        <ele>135.39999389648</ele>
        <time>2022-04-14T12:53:52Z</time>
      </trkpt>
      <trkpt lat="48.24254" lon="3.04556">
        <ele>135.39999389648</ele>
        <time>2022-04-14T12:53:57Z</time>
      </trkpt>
      <trkpt lat="48.24249" lon="3.04561">
        <ele>135.19999694824</ele>
        <time>2022-04-14T12:54:02Z</time>
      </trkpt>
      <trkpt lat="48.24245" lon="3.04567">
        <ele>135.19999694824</ele>
        <time>2022-04-14T12:54:07Z</time>
      </trkpt>
      <trkpt lat="48.24242" lon="3.04572">
        <ele>135.19999694824</ele>
        <time>2022-04-14T12:54:12Z</time>
      </trkpt>
      <trkpt lat="48.24239" lon="3.04577">
        <ele>135.19999694824</ele>
        <time>2022-04-14T12:54:17Z</time>
      </trkpt>
      <trkpt lat="48.24234" lon="3.04583">
        <ele>135.19999694824</ele>
        <time>2022-04-14T12:54:22Z</time>
      </trkpt>
      <trkpt lat="48.2423" lon="3.04589">
        <ele>135</ele>
        <time>2022-04-14T12:54:27Z</time>
      </trkpt>
      <trkpt lat="48.24226" lon="3.04595">
        <ele>134.60000610352</ele>
        <time>2022-04-14T12:54:32Z</time>
      </trkpt>
      <trkpt lat="48.24223" lon="3.04598">
        <ele>134.39999389648</ele>
        <time>2022-04-14T12:54:37Z</time>
      </trkpt>
      <trkpt lat="48.24223" lon="3.04599">
        <ele>134.39999389648</ele>
        <time>2022-04-14T12:54:38Z</time>
      </trkpt>
      <trkpt lat="48.24165" lon="3.04656">
        <ele>134.39999389648</ele>
        <time>2022-04-14T12:56:13Z</time>
      </trkpt>
      <trkpt lat="48.24162" lon="3.04662">
        <ele>133</ele>
        <time>2022-04-14T12:56:18Z</time>
      </trkpt>
      <trkpt lat="48.24159" lon="3.04669">
        <ele>132.39999389648</ele>
        <time>2022-04-14T12:56:23Z</time>
      </trkpt>
      <trkpt lat="48.24157" lon="3.04674">
        <ele>132.39999389648</ele>
        <time>2022-04-14T12:56:28Z</time>
      </trkpt>
      <trkpt lat="48.24154" lon="3.04678">
        <ele>132.39999389648</ele>
        <time>2022-04-14T12:56:33Z</time>
      </trkpt>
      <trkpt lat="48.24153" lon="3.0468">
        <ele>132.39999389648</ele>
        <time>2022-04-14T12:56:36Z</time>
      </trkpt>
      <trkpt lat="48.24343" lon="3.04838">
        <ele>159</ele>
        <time>2022-04-14T13:02:34Z</time>
      </trkpt>
      <trkpt lat="48.24349" lon="3.04841">
        <ele>159.60000610352</ele>
        <time>2022-04-14T13:02:39Z</time>
      </trkpt>
      <trkpt lat="48.24355" lon="3.04843">
        <ele>160.19999694824</ele>
        <time>2022-04-14T13:02:44Z</time>
      </trkpt>
      <trkpt lat="48.24361" lon="3.04845">
        <ele>160.80000305176</ele>
        <time>2022-04-14T13:02:49Z</time>
      </trkpt>
      <trkpt lat="48.24368" lon="3.04848">
        <ele>161.39999389648</ele>
        <time>2022-04-14T13:02:54Z</time>
      </trkpt>
      <trkpt lat="48.24373" lon="3.04852">
        <ele>162</ele>
        <time>2022-04-14T13:02:59Z</time>
      </trkpt>
      <trkpt lat="48.24379" lon="3.04853">
        <ele>162.39999389648</ele>
        <time>2022-04-14T13:03:04Z</time>
      </trkpt>
      <trkpt lat="48.24386" lon="3.04853">
        <ele>162.60000610352</ele>
        <time>2022-04-14T13:03:09Z</time>
      </trkpt>
      <trkpt lat="48.24392" lon="3.04853">
        <ele>163</ele>
        <time>2022-04-14T13:03:14Z</time>
      </trkpt>
      <trkpt lat="48.24396" lon="3.04853">
        <ele>163.39999389648</ele>
        <time>2022-04-14T13:03:19Z</time>
      </trkpt>
      <trkpt lat="48.24404" lon="3.04852">
        <ele>164</ele>
        <time>2022-04-14T13:03:24Z</time>
      </trkpt>
      <trkpt lat="48.24411" lon="3.04852">
        <ele>164.19999694824</ele>
        <time>2022-04-14T13:03:29Z</time>
      </trkpt>
      <trkpt lat="48.24417" lon="3.04849">
        <ele>164.60000610352</ele>
        <time>2022-04-14T13:03:34Z</time>
      </trkpt>
      <trkpt lat="48.24422" lon="3.04845">
        <ele>164.60000610352</ele>
        <time>2022-04-14T13:03:39Z</time>
      </trkpt>
      <trkpt lat="48.24427" lon="3.04845">
        <ele>164.60000610352</ele>
        <time>2022-04-14T13:03:44Z</time>
      </trkpt>
      <trkpt lat="48.24431" lon="3.04844">
        <ele>165</ele>
        <time>2022-04-14T13:03:49Z</time>
      </trkpt>
      <trkpt lat="48.24437" lon="3.04844">
        <ele>165.19999694824</ele>
        <time>2022-04-14T13:03:54Z</time>
      </trkpt>
      <trkpt lat="48.24439" lon="3.04845">
        <ele>165.39999389648</ele>
        <time>2022-04-14T13:03:57Z</time>
      </trkpt>
      <trkpt lat="48.24463" lon="3.04858">
        <ele>165.39999389648</ele>
        <time>2022-04-14T13:05:44Z</time>
      </trkpt>
      <trkpt lat="48.24467" lon="3.04856">
        <ele>165.39999389648</ele>
        <time>2022-04-14T13:05:49Z</time>
      </trkpt>
      <trkpt lat="48.24471" lon="3.04853">
        <ele>165.60000610352</ele>
        <time>2022-04-14T13:05:54Z</time>
      </trkpt>
      <trkpt lat="48.24474" lon="3.0485">
        <ele>165.60000610352</ele>
        <time>2022-04-14T13:05:59Z</time>
      </trkpt>
      <trkpt lat="48.24478" lon="3.04847">
        <ele>165.80000305176</ele>
        <time>2022-04-14T13:06:04Z</time>
      </trkpt>
      <trkpt lat="48.24483" lon="3.04846">
        <ele>166</ele>
        <time>2022-04-14T13:06:09Z</time>
      </trkpt>
      <trkpt lat="48.24487" lon="3.04843">
        <ele>166</ele>
        <time>2022-04-14T13:06:14Z</time>
      </trkpt>
      <trkpt lat="48.24491" lon="3.0484">
        <ele>166.19999694824</ele>
        <time>2022-04-14T13:06:19Z</time>
      </trkpt>
      <trkpt lat="48.24495" lon="3.04839">
        <ele>166.39999389648</ele>
        <time>2022-04-14T13:06:24Z</time>
      </trkpt>
      <trkpt lat="48.24499" lon="3.04838">
        <ele>166.80000305176</ele>
        <time>2022-04-14T13:06:29Z</time>
      </trkpt>
      <trkpt lat="48.24502" lon="3.04838">
        <ele>166.80000305176</ele>
        <time>2022-04-14T13:06:34Z</time>
      </trkpt>
      <trkpt lat="48.24507" lon="3.04836">
        <ele>167</ele>
        <time>2022-04-14T13:06:39Z</time>
      </trkpt>
      <trkpt lat="48.24512" lon="3.04834">
        <ele>167.19999694824</ele>
        <time>2022-04-14T13:06:44Z</time>
      </trkpt>
      <trkpt lat="48.24516" lon="3.04831">
        <ele>167.39999389648</ele>
        <time>2022-04-14T13:06:49Z</time>
      </trkpt>
      <trkpt lat="48.24521" lon="3.04829">
        <ele>167.39999389648</ele>
        <time>2022-04-14T13:06:54Z</time>
      </trkpt>
      <trkpt lat="48.24526" lon="3.04826">
        <ele>167.19999694824</ele>
        <time>2022-04-14T13:06:59Z</time>
      </trkpt>
      <trkpt lat="48.24532" lon="3.04825">
        <ele>167</ele>
        <time>2022-04-14T13:07:04Z</time>
      </trkpt>
      <trkpt lat="48.24538" lon="3.04824">
        <ele>167</ele>
        <time>2022-04-14T13:07:09Z</time>
      </trkpt>
      <trkpt lat="48.24544" lon="3.04823">
        <ele>167</ele>
        <time>2022-04-14T13:07:14Z</time>
      </trkpt>
      <trkpt lat="48.2455" lon="3.04823">
        <ele>167</ele>
        <time>2022-04-14T13:07:19Z</time>
      </trkpt>
      <trkpt lat="48.24556" lon="3.04823">
        <ele>167</ele>
        <time>2022-04-14T13:07:24Z</time>
      </trkpt>
      <trkpt lat="48.24561" lon="3.04821">
        <ele>166.80000305176</ele>
        <time>2022-04-14T13:07:29Z</time>
      </trkpt>
      <trkpt lat="48.24566" lon="3.04821">
        <ele>166.80000305176</ele>
        <time>2022-04-14T13:07:34Z</time>
      </trkpt>
      <trkpt lat="48.2457" lon="3.0482">
        <ele>166.60000610352</ele>
        <time>2022-04-14T13:07:39Z</time>
      </trkpt>
      <trkpt lat="48.24576" lon="3.0482">
        <ele>166.39999389648</ele>
        <time>2022-04-14T13:07:44Z</time>
      </trkpt>
      <trkpt lat="48.24581" lon="3.04818">
        <ele>166.39999389648</ele>
        <time>2022-04-14T13:07:49Z</time>
      </trkpt>
      <trkpt lat="48.24587" lon="3.04818">
        <ele>166.19999694824</ele>
        <time>2022-04-14T13:07:54Z</time>
      </trkpt>
      <trkpt lat="48.24593" lon="3.04817">
        <ele>166</ele>
        <time>2022-04-14T13:07:59Z</time>
      </trkpt>
      <trkpt lat="48.24597" lon="3.04815">
        <ele>165.80000305176</ele>
        <time>2022-04-14T13:08:04Z</time>
      </trkpt>
      <trkpt lat="48.24602" lon="3.04816">
        <ele>165.60000610352</ele>
        <time>2022-04-14T13:08:09Z</time>
      </trkpt>
      <trkpt lat="48.24606" lon="3.04817">
        <ele>165.19999694824</ele>
        <time>2022-04-14T13:08:14Z</time>
      </trkpt>
      <trkpt lat="48.24611" lon="3.04815">
        <ele>165</ele>
        <time>2022-04-14T13:08:19Z</time>
      </trkpt>
      <trkpt lat="48.24617" lon="3.04814">
        <ele>164.80000305176</ele>
        <time>2022-04-14T13:08:24Z</time>
      </trkpt>
      <trkpt lat="48.24623" lon="3.04812">
        <ele>164.39999389648</ele>
        <time>2022-04-14T13:08:29Z</time>
      </trkpt>
      <trkpt lat="48.24629" lon="3.0481">
        <ele>164</ele>
        <time>2022-04-14T13:08:34Z</time>
      </trkpt>
      <trkpt lat="48.24635" lon="3.0481">
        <ele>163.39999389648</ele>
        <time>2022-04-14T13:08:39Z</time>
      </trkpt>
      <trkpt lat="48.2464" lon="3.0481">
        <ele>163</ele>
        <time>2022-04-14T13:08:44Z</time>
      </trkpt>
      <trkpt lat="48.24645" lon="3.0481">
        <ele>162.39999389648</ele>
        <time>2022-04-14T13:08:49Z</time>
      </trkpt>
      <trkpt lat="48.24651" lon="3.04808">
        <ele>161.80000305176</ele>
        <time>2022-04-14T13:08:54Z</time>
      </trkpt>
      <trkpt lat="48.24657" lon="3.04807">
        <ele>161.39999389648</ele>
        <time>2022-04-14T13:08:59Z</time>
      </trkpt>
      <trkpt lat="48.24662" lon="3.04807">
        <ele>160.60000610352</ele>
        <time>2022-04-14T13:09:04Z</time>
      </trkpt>
      <trkpt lat="48.24669" lon="3.04804">
        <ele>160.19999694824</ele>
        <time>2022-04-14T13:09:09Z</time>
      </trkpt>
      <trkpt lat="48.24675" lon="3.04802">
        <ele>159.80000305176</ele>
        <time>2022-04-14T13:09:14Z</time>
      </trkpt>
      <trkpt lat="48.24681" lon="3.048">
        <ele>159.39999389648</ele>
        <time>2022-04-14T13:09:19Z</time>
      </trkpt>
      <trkpt lat="48.24687" lon="3.04799">
        <ele>159</ele>
        <time>2022-04-14T13:09:24Z</time>
      </trkpt>
      <trkpt lat="48.24692" lon="3.04798">
        <ele>158.60000610352</ele>
        <time>2022-04-14T13:09:29Z</time>
      </trkpt>
      <trkpt lat="48.24697" lon="3.04797">
        <ele>158.19999694824</ele>
        <time>2022-04-14T13:09:34Z</time>
      </trkpt>
      <trkpt lat="48.24702" lon="3.04797">
        <ele>157.80000305176</ele>
        <time>2022-04-14T13:09:39Z</time>
      </trkpt>
      <trkpt lat="48.24707" lon="3.04797">
        <ele>157.39999389648</ele>
        <time>2022-04-14T13:09:44Z</time>
      </trkpt>
      <trkpt lat="48.24712" lon="3.04795">
        <ele>156.80000305176</ele>
        <time>2022-04-14T13:09:49Z</time>
      </trkpt>
      <trkpt lat="48.24718" lon="3.04794">
        <ele>156.39999389648</ele>
        <time>2022-04-14T13:09:54Z</time>
      </trkpt>
      <trkpt lat="48.24724" lon="3.04795">
        <ele>156</ele>
        <time>2022-04-14T13:09:59Z</time>
      </trkpt>
      <trkpt lat="48.2473" lon="3.04796">
        <ele>155.80000305176</ele>
        <time>2022-04-14T13:10:04Z</time>
      </trkpt>
      <trkpt lat="48.24737" lon="3.04796">
        <ele>155.60000610352</ele>
        <time>2022-04-14T13:10:09Z</time>
      </trkpt>
      <trkpt lat="48.24743" lon="3.04794">
        <ele>155.19999694824</ele>
        <time>2022-04-14T13:10:14Z</time>
      </trkpt>
      <trkpt lat="48.24749" lon="3.04793">
        <ele>154.39999389648</ele>
        <time>2022-04-14T13:10:19Z</time>
      </trkpt>
      <trkpt lat="48.24754" lon="3.04793">
        <ele>154.19999694824</ele>
        <time>2022-04-14T13:10:24Z</time>
      </trkpt>
      <trkpt lat="48.24758" lon="3.04794">
        <ele>154</ele>
        <time>2022-04-14T13:10:29Z</time>
      </trkpt>
      <trkpt lat="48.24762" lon="3.04793">
        <ele>153.60000610352</ele>
        <time>2022-04-14T13:10:34Z</time>
      </trkpt>
      <trkpt lat="48.24766" lon="3.04791">
        <ele>153.19999694824</ele>
        <time>2022-04-14T13:10:39Z</time>
      </trkpt>
      <trkpt lat="48.24771" lon="3.04791">
        <ele>153</ele>
        <time>2022-04-14T13:10:44Z</time>
      </trkpt>
      <trkpt lat="48.24776" lon="3.04788">
        <ele>152.80000305176</ele>
        <time>2022-04-14T13:10:49Z</time>
      </trkpt>
      <trkpt lat="48.24781" lon="3.04787">
        <ele>152.60000610352</ele>
        <time>2022-04-14T13:10:54Z</time>
      </trkpt>
      <trkpt lat="48.24787" lon="3.04786">
        <ele>152.39999389648</ele>
        <time>2022-04-14T13:10:59Z</time>
      </trkpt>
      <trkpt lat="48.24792" lon="3.04785">
        <ele>151.80000305176</ele>
        <time>2022-04-14T13:11:04Z</time>
      </trkpt>
      <trkpt lat="48.24797" lon="3.04785">
        <ele>151.80000305176</ele>
        <time>2022-04-14T13:11:09Z</time>
      </trkpt>
      <trkpt lat="48.24802" lon="3.04786">
        <ele>151.39999389648</ele>
        <time>2022-04-14T13:11:14Z</time>
      </trkpt>
      <trkpt lat="48.24807" lon="3.04787">
        <ele>151.19999694824</ele>
        <time>2022-04-14T13:11:19Z</time>
      </trkpt>
      <trkpt lat="48.24812" lon="3.04788">
        <ele>151</ele>
        <time>2022-04-14T13:11:24Z</time>
      </trkpt>
      <trkpt lat="48.24813" lon="3.04788">
        <ele>151</ele>
        <time>2022-04-14T13:11:25Z</time>
      </trkpt>
      <trkpt lat="48.24917" lon="3.0478">
        <ele>145.80000305176</ele>
        <time>2022-04-14T13:12:57Z</time>
      </trkpt>
      <trkpt lat="48.24924" lon="3.0478">
        <ele>145.60000610352</ele>
        <time>2022-04-14T13:13:02Z</time>
      </trkpt>
      <trkpt lat="48.2493" lon="3.0478">
        <ele>145.19999694824</ele>
        <time>2022-04-14T13:13:07Z</time>
      </trkpt>
      <trkpt lat="48.24936" lon="3.04779">
        <ele>144.80000305176</ele>
        <time>2022-04-14T13:13:12Z</time>
      </trkpt>
      <trkpt lat="48.24942" lon="3.04776">
        <ele>144.80000305176</ele>
        <time>2022-04-14T13:13:17Z</time>
      </trkpt>
      <trkpt lat="48.24948" lon="3.04776">
        <ele>144.60000610352</ele>
        <time>2022-04-14T13:13:22Z</time>
      </trkpt>
      <trkpt lat="48.24953" lon="3.04776">
        <ele>144.39999389648</ele>
        <time>2022-04-14T13:13:27Z</time>
      </trkpt>
      <trkpt lat="48.24958" lon="3.04775">
        <ele>144.39999389648</ele>
        <time>2022-04-14T13:13:32Z</time>
      </trkpt>
      <trkpt lat="48.24963" lon="3.04774">
        <ele>144.19999694824</ele>
        <time>2022-04-14T13:13:37Z</time>
      </trkpt>
      <trkpt lat="48.24963" lon="3.04774">
        <ele>144</ele>
        <time>2022-04-14T13:13:39Z</time>
      </trkpt>
      <trkpt lat="48.25" lon="3.04769">
        <ele>142</ele>
        <time>2022-04-14T13:14:22Z</time>
      </trkpt>
      <trkpt lat="48.25005" lon="3.04769">
        <ele>141.60000610352</ele>
        <time>2022-04-14T13:14:27Z</time>
      </trkpt>
      <trkpt lat="48.25011" lon="3.04768">
        <ele>141.39999389648</ele>
        <time>2022-04-14T13:14:32Z</time>
      </trkpt>
      <trkpt lat="48.25016" lon="3.04768">
        <ele>141.19999694824</ele>
        <time>2022-04-14T13:14:37Z</time>
      </trkpt>
      <trkpt lat="48.25021" lon="3.04767">
        <ele>141.19999694824</ele>
        <time>2022-04-14T13:14:42Z</time>
      </trkpt>
      <trkpt lat="48.25027" lon="3.04766">
        <ele>140.80000305176</ele>
        <time>2022-04-14T13:14:47Z</time>
      </trkpt>
      <trkpt lat="48.25033" lon="3.04765">
        <ele>140.60000610352</ele>
        <time>2022-04-14T13:14:52Z</time>
      </trkpt>
      <trkpt lat="48.25038" lon="3.04764">
        <ele>140.60000610352</ele>
        <time>2022-04-14T13:14:57Z</time>
      </trkpt>
      <trkpt lat="48.25043" lon="3.04763">
        <ele>140.39999389648</ele>
        <time>2022-04-14T13:15:02Z</time>
      </trkpt>
      <trkpt lat="48.25048" lon="3.04763">
        <ele>140.19999694824</ele>
        <time>2022-04-14T13:15:07Z</time>
      </trkpt>
      <trkpt lat="48.25054" lon="3.04762">
        <ele>140</ele>
        <time>2022-04-14T13:15:12Z</time>
      </trkpt>
      <trkpt lat="48.25059" lon="3.04761">
        <ele>140</ele>
        <time>2022-04-14T13:15:17Z</time>
      </trkpt>
      <trkpt lat="48.25065" lon="3.0476">
        <ele>139.80000305176</ele>
        <time>2022-04-14T13:15:22Z</time>
      </trkpt>
      <trkpt lat="48.25071" lon="3.04759">
        <ele>139.60000610352</ele>
        <time>2022-04-14T13:15:27Z</time>
      </trkpt>
      <trkpt lat="48.25077" lon="3.04758">
        <ele>139.19999694824</ele>
        <time>2022-04-14T13:15:32Z</time>
      </trkpt>
      <trkpt lat="48.25083" lon="3.04758">
        <ele>139</ele>
        <time>2022-04-14T13:15:37Z</time>
      </trkpt>
      <trkpt lat="48.25088" lon="3.04758">
        <ele>138.80000305176</ele>
        <time>2022-04-14T13:15:42Z</time>
      </trkpt>
      <trkpt lat="48.25093" lon="3.04757">
        <ele>138.39999389648</ele>
        <time>2022-04-14T13:15:47Z</time>
      </trkpt>
      <trkpt lat="48.25098" lon="3.04756">
        <ele>138.19999694824</ele>
        <time>2022-04-14T13:15:52Z</time>
      </trkpt>
      <trkpt lat="48.25103" lon="3.04755">
        <ele>138</ele>
        <time>2022-04-14T13:15:57Z</time>
      </trkpt>
      <trkpt lat="48.25109" lon="3.04754">
        <ele>137.80000305176</ele>
        <time>2022-04-14T13:16:02Z</time>
      </trkpt>
      <trkpt lat="48.25115" lon="3.04752">
        <ele>137.60000610352</ele>
        <time>2022-04-14T13:16:07Z</time>
      </trkpt>
      <trkpt lat="48.25119" lon="3.04751">
        <ele>137.60000610352</ele>
        <time>2022-04-14T13:16:12Z</time>
      </trkpt>
      <trkpt lat="48.25124" lon="3.0475">
        <ele>137.39999389648</ele>
        <time>2022-04-14T13:16:17Z</time>
      </trkpt>
      <trkpt lat="48.25128" lon="3.0475">
        <ele>137.19999694824</ele>
        <time>2022-04-14T13:16:22Z</time>
      </trkpt>
      <trkpt lat="48.25132" lon="3.0475">
        <ele>137</ele>
        <time>2022-04-14T13:16:27Z</time>
      </trkpt>
      <trkpt lat="48.25136" lon="3.0475">
        <ele>136.80000305176</ele>
        <time>2022-04-14T13:16:32Z</time>
      </trkpt>
      <trkpt lat="48.25142" lon="3.04749">
        <ele>136.60000610352</ele>
        <time>2022-04-14T13:16:37Z</time>
      </trkpt>
      <trkpt lat="48.25147" lon="3.04748">
        <ele>136.39999389648</ele>
        <time>2022-04-14T13:16:42Z</time>
      </trkpt>
      <trkpt lat="48.25153" lon="3.04746">
        <ele>136</ele>
        <time>2022-04-14T13:16:47Z</time>
      </trkpt>
      <trkpt lat="48.25158" lon="3.04746">
        <ele>135.80000305176</ele>
        <time>2022-04-14T13:16:52Z</time>
      </trkpt>
      <trkpt lat="48.25164" lon="3.04745">
        <ele>135.39999389648</ele>
        <time>2022-04-14T13:16:57Z</time>
      </trkpt>
      <trkpt lat="48.2517" lon="3.04743">
        <ele>135</ele>
        <time>2022-04-14T13:17:02Z</time>
      </trkpt>
      <trkpt lat="48.25175" lon="3.04742">
        <ele>134.80000305176</ele>
        <time>2022-04-14T13:17:07Z</time>
      </trkpt>
      <trkpt lat="48.25182" lon="3.04741">
        <ele>134.39999389648</ele>
        <time>2022-04-14T13:17:12Z</time>
      </trkpt>
      <trkpt lat="48.25187" lon="3.0474">
        <ele>134</ele>
        <time>2022-04-14T13:17:17Z</time>
      </trkpt>
      <trkpt lat="48.25191" lon="3.0474">
        <ele>134</ele>
        <time>2022-04-14T13:17:22Z</time>
      </trkpt>
      <trkpt lat="48.25195" lon="3.04737">
        <ele>133.39999389648</ele>
        <time>2022-04-14T13:17:27Z</time>
      </trkpt>
      <trkpt lat="48.25196" lon="3.04737">
        <ele>133.19999694824</ele>
        <time>2022-04-14T13:17:31Z</time>
      </trkpt>
      <trkpt lat="48.25232" lon="3.04735">
        <ele>131.39999389648</ele>
        <time>2022-04-14T13:18:21Z</time>
      </trkpt>
      <trkpt lat="48.25238" lon="3.04734">
        <ele>131.19999694824</ele>
        <time>2022-04-14T13:18:26Z</time>
      </trkpt>
      <trkpt lat="48.25241" lon="3.04733">
        <ele>131</ele>
        <time>2022-04-14T13:18:31Z</time>
      </trkpt>
      <trkpt lat="48.25243" lon="3.04732">
        <ele>130.80000305176</ele>
        <time>2022-04-14T13:18:36Z</time>
      </trkpt>
      <trkpt lat="48.25246" lon="3.04731">
        <ele>130.39999389648</ele>
        <time>2022-04-14T13:18:41Z</time>
      </trkpt>
      <trkpt lat="48.25252" lon="3.04728">
        <ele>130.39999389648</ele>
        <time>2022-04-14T13:18:46Z</time>
      </trkpt>
      <trkpt lat="48.25257" lon="3.04726">
        <ele>130.19999694824</ele>
        <time>2022-04-14T13:18:51Z</time>
      </trkpt>
      <trkpt lat="48.25259" lon="3.04729">
        <ele>130</ele>
        <time>2022-04-14T13:18:56Z</time>
      </trkpt>
      <trkpt lat="48.25262" lon="3.04725">
        <ele>130</ele>
        <time>2022-04-14T13:19:01Z</time>
      </trkpt>
      <trkpt lat="48.25267" lon="3.04717">
        <ele>129.60000610352</ele>
        <time>2022-04-14T13:19:06Z</time>
      </trkpt>
      <trkpt lat="48.25271" lon="3.04709">
        <ele>129.39999389648</ele>
        <time>2022-04-14T13:19:11Z</time>
      </trkpt>
      <trkpt lat="48.25273" lon="3.04702">
        <ele>129</ele>
        <time>2022-04-14T13:19:16Z</time>
      </trkpt>
      <trkpt lat="48.25275" lon="3.04694">
        <ele>128.80000305176</ele>
        <time>2022-04-14T13:19:21Z</time>
      </trkpt>
      <trkpt lat="48.25277" lon="3.04684">
        <ele>128.39999389648</ele>
        <time>2022-04-14T13:19:26Z</time>
      </trkpt>
      <trkpt lat="48.25279" lon="3.04674">
        <ele>128.39999389648</ele>
        <time>2022-04-14T13:19:31Z</time>
      </trkpt>
      <trkpt lat="48.2528" lon="3.04668">
        <ele>128.60000610352</ele>
        <time>2022-04-14T13:19:36Z</time>
      </trkpt>
      <trkpt lat="48.25281" lon="3.04661">
        <ele>128.39999389648</ele>
        <time>2022-04-14T13:19:41Z</time>
      </trkpt>
      <trkpt lat="48.25282" lon="3.04651">
        <ele>128.39999389648</ele>
        <time>2022-04-14T13:19:46Z</time>
      </trkpt>
      <trkpt lat="48.25282" lon="3.04646">
        <ele>128.19999694824</ele>
        <time>2022-04-14T13:19:51Z</time>
      </trkpt>
      <trkpt lat="48.25285" lon="3.04641">
        <ele>128.19999694824</ele>
        <time>2022-04-14T13:19:56Z</time>
      </trkpt>
      <trkpt lat="48.2529" lon="3.04634">
        <ele>128.19999694824</ele>
        <time>2022-04-14T13:20:01Z</time>
      </trkpt>
      <trkpt lat="48.25294" lon="3.04628">
        <ele>128.19999694824</ele>
        <time>2022-04-14T13:20:06Z</time>
      </trkpt>
      <trkpt lat="48.253" lon="3.04624">
        <ele>128</ele>
        <time>2022-04-14T13:20:11Z</time>
      </trkpt>
      <trkpt lat="48.25306" lon="3.04621">
        <ele>128</ele>
        <time>2022-04-14T13:20:16Z</time>
      </trkpt>
      <trkpt lat="48.25312" lon="3.0462">
        <ele>127.80000305176</ele>
        <time>2022-04-14T13:20:21Z</time>
      </trkpt>
      <trkpt lat="48.25318" lon="3.04619">
        <ele>127.80000305176</ele>
        <time>2022-04-14T13:20:26Z</time>
      </trkpt>
      <trkpt lat="48.25323" lon="3.04618">
        <ele>127.59999847412</ele>
        <time>2022-04-14T13:20:31Z</time>
      </trkpt>
      <trkpt lat="48.25327" lon="3.04618">
        <ele>127.59999847412</ele>
        <time>2022-04-14T13:20:36Z</time>
      </trkpt>
      <trkpt lat="48.25332" lon="3.04618">
        <ele>127.59999847412</ele>
        <time>2022-04-14T13:20:41Z</time>
      </trkpt>
      <trkpt lat="48.25337" lon="3.04617">
        <ele>127.59999847412</ele>
        <time>2022-04-14T13:20:46Z</time>
      </trkpt>
      <trkpt lat="48.25341" lon="3.04616">
        <ele>127.59999847412</ele>
        <time>2022-04-14T13:20:51Z</time>
      </trkpt>
      <trkpt lat="48.25345" lon="3.04615">
        <ele>127.59999847412</ele>
        <time>2022-04-14T13:20:56Z</time>
      </trkpt>
      <trkpt lat="48.2535" lon="3.04614">
        <ele>127.59999847412</ele>
        <time>2022-04-14T13:21:01Z</time>
      </trkpt>
      <trkpt lat="48.25355" lon="3.04612">
        <ele>127.59999847412</ele>
        <time>2022-04-14T13:21:06Z</time>
      </trkpt>
      <trkpt lat="48.25361" lon="3.0461">
        <ele>127.40000152588</ele>
        <time>2022-04-14T13:21:11Z</time>
      </trkpt>
      <trkpt lat="48.25366" lon="3.04608">
        <ele>127.40000152588</ele>
        <time>2022-04-14T13:21:16Z</time>
      </trkpt>
      <trkpt lat="48.25371" lon="3.04605">
        <ele>127.40000152588</ele>
        <time>2022-04-14T13:21:21Z</time>
      </trkpt>
      <trkpt lat="48.25374" lon="3.04604">
        <ele>127.19999694824</ele>
        <time>2022-04-14T13:21:26Z</time>
      </trkpt>
      <trkpt lat="48.25378" lon="3.04603">
        <ele>127.19999694824</ele>
        <time>2022-04-14T13:21:31Z</time>
      </trkpt>
      <trkpt lat="48.25383" lon="3.04602">
        <ele>127.40000152588</ele>
        <time>2022-04-14T13:21:36Z</time>
      </trkpt>
      <trkpt lat="48.25387" lon="3.04602">
        <ele>127.40000152588</ele>
        <time>2022-04-14T13:21:41Z</time>
      </trkpt>
      <trkpt lat="48.25387" lon="3.04603">
        <ele>127.40000152588</ele>
        <time>2022-04-14T13:21:42Z</time>
      </trkpt>
      <trkpt lat="48.255" lon="3.04648">
        <ele>130</ele>
        <time>2022-04-14T13:23:40Z</time>
      </trkpt>
      <trkpt lat="48.255" lon="3.04655">
        <ele>130.19999694824</ele>
        <time>2022-04-14T13:23:45Z</time>
      </trkpt>
      <trkpt lat="48.25502" lon="3.04663">
        <ele>130.19999694824</ele>
        <time>2022-04-14T13:23:50Z</time>
      </trkpt>
      <trkpt lat="48.25503" lon="3.04673">
        <ele>130.19999694824</ele>
        <time>2022-04-14T13:23:55Z</time>
      </trkpt>
      <trkpt lat="48.25504" lon="3.04682">
        <ele>130.39999389648</ele>
        <time>2022-04-14T13:24:00Z</time>
      </trkpt>
      <trkpt lat="48.25505" lon="3.04691">
        <ele>130.60000610352</ele>
        <time>2022-04-14T13:24:05Z</time>
      </trkpt>
      <trkpt lat="48.25506" lon="3.04701">
        <ele>130.80000305176</ele>
        <time>2022-04-14T13:24:10Z</time>
      </trkpt>
      <trkpt lat="48.25508" lon="3.04712">
        <ele>131.19999694824</ele>
        <time>2022-04-14T13:24:15Z</time>
      </trkpt>
      <trkpt lat="48.25509" lon="3.04723">
        <ele>131.39999389648</ele>
        <time>2022-04-14T13:24:20Z</time>
      </trkpt>
      <trkpt lat="48.2551" lon="3.04733">
        <ele>131.80000305176</ele>
        <time>2022-04-14T13:24:25Z</time>
      </trkpt>
      <trkpt lat="48.25511" lon="3.04741">
        <ele>132.19999694824</ele>
        <time>2022-04-14T13:24:30Z</time>
      </trkpt>
      <trkpt lat="48.25513" lon="3.04749">
        <ele>132.60000610352</ele>
        <time>2022-04-14T13:24:35Z</time>
      </trkpt>
      <trkpt lat="48.25515" lon="3.04757">
        <ele>133</ele>
        <time>2022-04-14T13:24:40Z</time>
      </trkpt>
      <trkpt lat="48.25519" lon="3.04764">
        <ele>133.19999694824</ele>
        <time>2022-04-14T13:24:45Z</time>
      </trkpt>
      <trkpt lat="48.25521" lon="3.04771">
        <ele>133.80000305176</ele>
        <time>2022-04-14T13:24:50Z</time>
      </trkpt>
      <trkpt lat="48.25524" lon="3.0478">
        <ele>134.19999694824</ele>
        <time>2022-04-14T13:24:55Z</time>
      </trkpt>
      <trkpt lat="48.25526" lon="3.0479">
        <ele>134.80000305176</ele>
        <time>2022-04-14T13:25:00Z</time>
      </trkpt>
      <trkpt lat="48.25528" lon="3.04801">
        <ele>135.19999694824</ele>
        <time>2022-04-14T13:25:05Z</time>
      </trkpt>
      <trkpt lat="48.25528" lon="3.04809">
        <ele>135.80000305176</ele>
        <time>2022-04-14T13:25:10Z</time>
      </trkpt>
      <trkpt lat="48.25528" lon="3.04818">
        <ele>136.19999694824</ele>
        <time>2022-04-14T13:25:15Z</time>
      </trkpt>
      <trkpt lat="48.25528" lon="3.04827">
        <ele>136.60000610352</ele>
        <time>2022-04-14T13:25:20Z</time>
      </trkpt>
      <trkpt lat="48.25528" lon="3.04838">
        <ele>136.60000610352</ele>
        <time>2022-04-14T13:25:25Z</time>
      </trkpt>
      <trkpt lat="48.25528" lon="3.04848">
        <ele>136.80000305176</ele>
        <time>2022-04-14T13:25:30Z</time>
      </trkpt>
      <trkpt lat="48.25528" lon="3.04857">
        <ele>137</ele>
        <time>2022-04-14T13:25:35Z</time>
      </trkpt>
      <trkpt lat="48.25527" lon="3.04866">
        <ele>137.19999694824</ele>
        <time>2022-04-14T13:25:40Z</time>
      </trkpt>
      <trkpt lat="48.25526" lon="3.04875">
        <ele>137.39999389648</ele>
        <time>2022-04-14T13:25:45Z</time>
      </trkpt>
      <trkpt lat="48.25526" lon="3.04884">
        <ele>137.39999389648</ele>
        <time>2022-04-14T13:25:50Z</time>
      </trkpt>
      <trkpt lat="48.25526" lon="3.04893">
        <ele>137.60000610352</ele>
        <time>2022-04-14T13:25:55Z</time>
      </trkpt>
      <trkpt lat="48.25526" lon="3.04902">
        <ele>138</ele>
        <time>2022-04-14T13:26:00Z</time>
      </trkpt>
      <trkpt lat="48.25525" lon="3.04911">
        <ele>138.19999694824</ele>
        <time>2022-04-14T13:26:05Z</time>
      </trkpt>
      <trkpt lat="48.25525" lon="3.04919">
        <ele>138.39999389648</ele>
        <time>2022-04-14T13:26:10Z</time>
      </trkpt>
      <trkpt lat="48.25525" lon="3.04928">
        <ele>138.80000305176</ele>
        <time>2022-04-14T13:26:15Z</time>
      </trkpt>
      <trkpt lat="48.25526" lon="3.04937">
        <ele>139</ele>
        <time>2022-04-14T13:26:20Z</time>
      </trkpt>
      <trkpt lat="48.25526" lon="3.04945">
        <ele>139.80000305176</ele>
        <time>2022-04-14T13:26:25Z</time>
      </trkpt>
      <trkpt lat="48.25527" lon="3.04952">
        <ele>140</ele>
        <time>2022-04-14T13:26:30Z</time>
      </trkpt>
      <trkpt lat="48.25527" lon="3.04959">
        <ele>140.19999694824</ele>
        <time>2022-04-14T13:26:35Z</time>
      </trkpt>
      <trkpt lat="48.25526" lon="3.04967">
        <ele>140.19999694824</ele>
        <time>2022-04-14T13:26:40Z</time>
      </trkpt>
      <trkpt lat="48.25525" lon="3.04974">
        <ele>140.19999694824</ele>
        <time>2022-04-14T13:26:45Z</time>
      </trkpt>
      <trkpt lat="48.25525" lon="3.04982">
        <ele>140.19999694824</ele>
        <time>2022-04-14T13:26:50Z</time>
      </trkpt>
      <trkpt lat="48.25524" lon="3.0499">
        <ele>140.19999694824</ele>
        <time>2022-04-14T13:26:55Z</time>
      </trkpt>
      <trkpt lat="48.25523" lon="3.04999">
        <ele>140.39999389648</ele>
        <time>2022-04-14T13:27:00Z</time>
      </trkpt>
      <trkpt lat="48.25522" lon="3.05008">
        <ele>140.60000610352</ele>
        <time>2022-04-14T13:27:05Z</time>
      </trkpt>
      <trkpt lat="48.25521" lon="3.05017">
        <ele>140.60000610352</ele>
        <time>2022-04-14T13:27:10Z</time>
      </trkpt>
      <trkpt lat="48.2552" lon="3.05025">
        <ele>140.80000305176</ele>
        <time>2022-04-14T13:27:15Z</time>
      </trkpt>
      <trkpt lat="48.2552" lon="3.05033">
        <ele>140.80000305176</ele>
        <time>2022-04-14T13:27:20Z</time>
      </trkpt>
      <trkpt lat="48.25519" lon="3.0504">
        <ele>140.80000305176</ele>
        <time>2022-04-14T13:27:25Z</time>
      </trkpt>
      <trkpt lat="48.25518" lon="3.05048">
        <ele>140.80000305176</ele>
        <time>2022-04-14T13:27:30Z</time>
      </trkpt>
      <trkpt lat="48.25517" lon="3.05056">
        <ele>140.80000305176</ele>
        <time>2022-04-14T13:27:35Z</time>
      </trkpt>
      <trkpt lat="48.25516" lon="3.05063">
        <ele>140.80000305176</ele>
        <time>2022-04-14T13:27:40Z</time>
      </trkpt>
      <trkpt lat="48.25516" lon="3.05072">
        <ele>140.80000305176</ele>
        <time>2022-04-14T13:27:45Z</time>
      </trkpt>
      <trkpt lat="48.25516" lon="3.05079">
        <ele>140.80000305176</ele>
        <time>2022-04-14T13:27:50Z</time>
      </trkpt>
      <trkpt lat="48.25516" lon="3.05088">
        <ele>140.39999389648</ele>
        <time>2022-04-14T13:27:55Z</time>
      </trkpt>
      <trkpt lat="48.25516" lon="3.05096">
        <ele>140.39999389648</ele>
        <time>2022-04-14T13:28:00Z</time>
      </trkpt>
      <trkpt lat="48.25516" lon="3.05104">
        <ele>140.39999389648</ele>
        <time>2022-04-14T13:28:05Z</time>
      </trkpt>
      <trkpt lat="48.25517" lon="3.05113">
        <ele>140.39999389648</ele>
        <time>2022-04-14T13:28:10Z</time>
      </trkpt>
      <trkpt lat="48.25517" lon="3.05122">
        <ele>140.60000610352</ele>
        <time>2022-04-14T13:28:15Z</time>
      </trkpt>
      <trkpt lat="48.25517" lon="3.05131">
        <ele>140.80000305176</ele>
        <time>2022-04-14T13:28:20Z</time>
      </trkpt>
      <trkpt lat="48.25518" lon="3.0514">
        <ele>141</ele>
        <time>2022-04-14T13:28:25Z</time>
      </trkpt>
      <trkpt lat="48.25518" lon="3.05149">
        <ele>141.19999694824</ele>
        <time>2022-04-14T13:28:30Z</time>
      </trkpt>
      <trkpt lat="48.25518" lon="3.05158">
        <ele>141.39999389648</ele>
        <time>2022-04-14T13:28:35Z</time>
      </trkpt>
      <trkpt lat="48.25517" lon="3.05166">
        <ele>141.60000610352</ele>
        <time>2022-04-14T13:28:40Z</time>
      </trkpt>
      <trkpt lat="48.25516" lon="3.05174">
        <ele>141.39999389648</ele>
        <time>2022-04-14T13:28:45Z</time>
      </trkpt>
      <trkpt lat="48.25515" lon="3.05181">
        <ele>141.60000610352</ele>
        <time>2022-04-14T13:28:50Z</time>
      </trkpt>
      <trkpt lat="48.25514" lon="3.05188">
        <ele>142</ele>
        <time>2022-04-14T13:28:55Z</time>
      </trkpt>
      <trkpt lat="48.25513" lon="3.05195">
        <ele>142.19999694824</ele>
        <time>2022-04-14T13:29:00Z</time>
      </trkpt>
      <trkpt lat="48.25512" lon="3.05203">
        <ele>142.39999389648</ele>
        <time>2022-04-14T13:29:05Z</time>
      </trkpt>
      <trkpt lat="48.25511" lon="3.0521">
        <ele>142.80000305176</ele>
        <time>2022-04-14T13:29:10Z</time>
      </trkpt>
      <trkpt lat="48.2551" lon="3.05218">
        <ele>142.80000305176</ele>
        <time>2022-04-14T13:29:15Z</time>
      </trkpt>
      <trkpt lat="48.25509" lon="3.05225">
        <ele>143</ele>
        <time>2022-04-14T13:29:20Z</time>
      </trkpt>
      <trkpt lat="48.25508" lon="3.05233">
        <ele>143</ele>
        <time>2022-04-14T13:29:25Z</time>
      </trkpt>
      <trkpt lat="48.25506" lon="3.05241">
        <ele>143.19999694824</ele>
        <time>2022-04-14T13:29:30Z</time>
      </trkpt>
      <trkpt lat="48.25505" lon="3.05248">
        <ele>143.60000610352</ele>
        <time>2022-04-14T13:29:35Z</time>
      </trkpt>
      <trkpt lat="48.25503" lon="3.05253">
        <ele>143.80000305176</ele>
        <time>2022-04-14T13:29:40Z</time>
      </trkpt>
      <trkpt lat="48.25501" lon="3.05258">
        <ele>144</ele>
        <time>2022-04-14T13:29:45Z</time>
      </trkpt>
      <trkpt lat="48.255" lon="3.05266">
        <ele>144.39999389648</ele>
        <time>2022-04-14T13:29:50Z</time>
      </trkpt>
      <trkpt lat="48.255" lon="3.05274">
        <ele>145</ele>
        <time>2022-04-14T13:29:55Z</time>
      </trkpt>
      <trkpt lat="48.25501" lon="3.05281">
        <ele>145.60000610352</ele>
        <time>2022-04-14T13:30:00Z</time>
      </trkpt>
      <trkpt lat="48.25503" lon="3.05288">
        <ele>146</ele>
        <time>2022-04-14T13:30:05Z</time>
      </trkpt>
      <trkpt lat="48.25506" lon="3.05293">
        <ele>146.60000610352</ele>
        <time>2022-04-14T13:30:10Z</time>
      </trkpt>
      <trkpt lat="48.2551" lon="3.05296">
        <ele>147.19999694824</ele>
        <time>2022-04-14T13:30:15Z</time>
      </trkpt>
      <trkpt lat="48.25515" lon="3.05297">
        <ele>147.80000305176</ele>
        <time>2022-04-14T13:30:20Z</time>
      </trkpt>
      <trkpt lat="48.25519" lon="3.05296">
        <ele>148.19999694824</ele>
        <time>2022-04-14T13:30:25Z</time>
      </trkpt>
      <trkpt lat="48.25522" lon="3.05294">
        <ele>148.60000610352</ele>
        <time>2022-04-14T13:30:30Z</time>
      </trkpt>
      <trkpt lat="48.25525" lon="3.0529">
        <ele>148.80000305176</ele>
        <time>2022-04-14T13:30:35Z</time>
      </trkpt>
      <trkpt lat="48.25528" lon="3.05287">
        <ele>149</ele>
        <time>2022-04-14T13:30:40Z</time>
      </trkpt>
      <trkpt lat="48.25532" lon="3.05283">
        <ele>149.19999694824</ele>
        <time>2022-04-14T13:30:45Z</time>
      </trkpt>
      <trkpt lat="48.25535" lon="3.05279">
        <ele>149.39999389648</ele>
        <time>2022-04-14T13:30:50Z</time>
      </trkpt>
      <trkpt lat="48.25539" lon="3.05275">
        <ele>149.60000610352</ele>
        <time>2022-04-14T13:30:55Z</time>
      </trkpt>
      <trkpt lat="48.25542" lon="3.05271">
        <ele>150</ele>
        <time>2022-04-14T13:31:00Z</time>
      </trkpt>
      <trkpt lat="48.25546" lon="3.05267">
        <ele>150.39999389648</ele>
        <time>2022-04-14T13:31:05Z</time>
      </trkpt>
      <trkpt lat="48.25551" lon="3.05263">
        <ele>150.60000610352</ele>
        <time>2022-04-14T13:31:10Z</time>
      </trkpt>
      <trkpt lat="48.25556" lon="3.0526">
        <ele>150.80000305176</ele>
        <time>2022-04-14T13:31:15Z</time>
      </trkpt>
      <trkpt lat="48.25562" lon="3.0526">
        <ele>151.60000610352</ele>
        <time>2022-04-14T13:31:20Z</time>
      </trkpt>
      <trkpt lat="48.25567" lon="3.0526">
        <ele>152.19999694824</ele>
        <time>2022-04-14T13:31:25Z</time>
      </trkpt>
      <trkpt lat="48.25571" lon="3.0526">
        <ele>153.19999694824</ele>
        <time>2022-04-14T13:31:30Z</time>
      </trkpt>
      <trkpt lat="48.25574" lon="3.05262">
        <ele>154</ele>
        <time>2022-04-14T13:31:35Z</time>
      </trkpt>
      <trkpt lat="48.25625" lon="3.05259">
        <ele>145.046875</ele>
      </trkpt>
      <trkpt lat="48.25672" lon="3.05233">
        <ele>148.12890625</ele>
      </trkpt>
      <trkpt lat="48.25742" lon="3.05188">
        <ele>150.5546875</ele>
      </trkpt>
      <trkpt lat="48.25785" lon="3.05111">
        <ele>151.0703125</ele>
      </trkpt>
      <trkpt lat="48.25817" lon="3.05027">
        <ele>149.67578125</ele>
      </trkpt>
      <trkpt lat="48.25859" lon="3.0496">
        <ele>147.2421875</ele>
      </trkpt>
      <trkpt lat="48.25903" lon="3.04918">
        <ele>144.74609375</ele>
      </trkpt>
      <trkpt lat="48.26071" lon="3.04887">
        <ele>136.2265625</ele>
      </trkpt>
      <trkpt lat="48.2615" lon="3.04892">
        <ele>134.29296875</ele>
      </trkpt>
      <trkpt lat="48.26479" lon="3.04828">
        <ele>173</ele>
        <time>2022-04-14T13:49:33Z</time>
      </trkpt>
      <trkpt lat="48.26482" lon="3.04818">
        <ele>173.60000610352</ele>
        <time>2022-04-14T13:49:38Z</time>
      </trkpt>
      <trkpt lat="48.26487" lon="3.04808">
        <ele>173.60000610352</ele>
        <time>2022-04-14T13:49:43Z</time>
      </trkpt>
      <trkpt lat="48.26494" lon="3.04802">
        <ele>173.80000305176</ele>
        <time>2022-04-14T13:49:48Z</time>
      </trkpt>
      <trkpt lat="48.26499" lon="3.04802">
        <ele>174</ele>
        <time>2022-04-14T13:49:53Z</time>
      </trkpt>
      <trkpt lat="48.265" lon="3.04802">
        <ele>174</ele>
        <time>2022-04-14T13:49:57Z</time>
      </trkpt>
      <trkpt lat="48.2651" lon="3.04808">
        <ele>174.39999389648</ele>
        <time>2022-04-14T13:51:10Z</time>
      </trkpt>
      <trkpt lat="48.26505" lon="3.04813">
        <ele>174.19999694824</ele>
        <time>2022-04-14T13:51:15Z</time>
      </trkpt>
      <trkpt lat="48.26499" lon="3.04816">
        <ele>174</ele>
        <time>2022-04-14T13:51:20Z</time>
      </trkpt>
      <trkpt lat="48.26494" lon="3.0482">
        <ele>173.60000610352</ele>
        <time>2022-04-14T13:51:25Z</time>
      </trkpt>
      <trkpt lat="48.26491" lon="3.04822">
        <ele>173.19999694824</ele>
        <time>2022-04-14T13:51:30Z</time>
      </trkpt>
      <trkpt lat="48.26524" lon="3.04771">
        <ele>172.80000305176</ele>
        <time>2022-04-14T13:56:59Z</time>
      </trkpt>
      <trkpt lat="48.26529" lon="3.04766">
        <ele>172.80000305176</ele>
        <time>2022-04-14T13:57:04Z</time>
      </trkpt>
      <trkpt lat="48.26534" lon="3.04761">
        <ele>175.19999694824</ele>
        <time>2022-04-14T13:57:09Z</time>
      </trkpt>
      <trkpt lat="48.26539" lon="3.04755">
        <ele>175.39999389648</ele>
        <time>2022-04-14T13:57:14Z</time>
      </trkpt>
      <trkpt lat="48.26544" lon="3.04748">
        <ele>175.39999389648</ele>
        <time>2022-04-14T13:57:19Z</time>
      </trkpt>
      <trkpt lat="48.26549" lon="3.04742">
        <ele>175.39999389648</ele>
        <time>2022-04-14T13:57:24Z</time>
      </trkpt>
      <trkpt lat="48.26554" lon="3.04736">
        <ele>175.60000610352</ele>
        <time>2022-04-14T13:57:29Z</time>
      </trkpt>
      <trkpt lat="48.26558" lon="3.04731">
        <ele>175.60000610352</ele>
        <time>2022-04-14T13:57:34Z</time>
      </trkpt>
      <trkpt lat="48.26563" lon="3.04725">
        <ele>175.80000305176</ele>
        <time>2022-04-14T13:57:39Z</time>
      </trkpt>
      <trkpt lat="48.26567" lon="3.04719">
        <ele>176</ele>
        <time>2022-04-14T13:57:44Z</time>
      </trkpt>
      <trkpt lat="48.2657" lon="3.04713">
        <ele>176</ele>
        <time>2022-04-14T13:57:49Z</time>
      </trkpt>
      <trkpt lat="48.26574" lon="3.04707">
        <ele>176</ele>
        <time>2022-04-14T13:57:54Z</time>
      </trkpt>
      <trkpt lat="48.26578" lon="3.04701">
        <ele>176</ele>
        <time>2022-04-14T13:57:59Z</time>
      </trkpt>
      <trkpt lat="48.26581" lon="3.04694">
        <ele>176</ele>
        <time>2022-04-14T13:58:04Z</time>
      </trkpt>
      <trkpt lat="48.26586" lon="3.04688">
        <ele>176</ele>
        <time>2022-04-14T13:58:09Z</time>
      </trkpt>
      <trkpt lat="48.2659" lon="3.04683">
        <ele>175.80000305176</ele>
        <time>2022-04-14T13:58:14Z</time>
      </trkpt>
      <trkpt lat="48.26593" lon="3.04676">
        <ele>175.60000610352</ele>
        <time>2022-04-14T13:58:19Z</time>
      </trkpt>
      <trkpt lat="48.26597" lon="3.0467">
        <ele>175.19999694824</ele>
        <time>2022-04-14T13:58:24Z</time>
      </trkpt>
      <trkpt lat="48.26601" lon="3.04664">
        <ele>175</ele>
        <time>2022-04-14T13:58:29Z</time>
      </trkpt>
      <trkpt lat="48.26605" lon="3.04659">
        <ele>175</ele>
        <time>2022-04-14T13:58:34Z</time>
      </trkpt>
      <trkpt lat="48.26609" lon="3.04653">
        <ele>174.80000305176</ele>
        <time>2022-04-14T13:58:39Z</time>
      </trkpt>
      <trkpt lat="48.26613" lon="3.04648">
        <ele>174.80000305176</ele>
        <time>2022-04-14T13:58:44Z</time>
      </trkpt>
      <trkpt lat="48.26617" lon="3.04643">
        <ele>174.60000610352</ele>
        <time>2022-04-14T13:58:49Z</time>
      </trkpt>
      <trkpt lat="48.26621" lon="3.0464">
        <ele>174.60000610352</ele>
        <time>2022-04-14T13:58:54Z</time>
      </trkpt>
      <trkpt lat="48.26627" lon="3.04637">
        <ele>174.39999389648</ele>
        <time>2022-04-14T13:58:59Z</time>
      </trkpt>
      <trkpt lat="48.26632" lon="3.04633">
        <ele>174.19999694824</ele>
        <time>2022-04-14T13:59:04Z</time>
      </trkpt>
      <trkpt lat="48.26638" lon="3.04628">
        <ele>174</ele>
        <time>2022-04-14T13:59:09Z</time>
      </trkpt>
      <trkpt lat="48.26643" lon="3.04625">
        <ele>173.80000305176</ele>
        <time>2022-04-14T13:59:14Z</time>
      </trkpt>
      <trkpt lat="48.26649" lon="3.04621">
        <ele>173.80000305176</ele>
        <time>2022-04-14T13:59:19Z</time>
      </trkpt>
      <trkpt lat="48.26655" lon="3.04618">
        <ele>173.60000610352</ele>
        <time>2022-04-14T13:59:24Z</time>
      </trkpt>
      <trkpt lat="48.2666" lon="3.04615">
        <ele>173.60000610352</ele>
        <time>2022-04-14T13:59:29Z</time>
      </trkpt>
      <trkpt lat="48.26666" lon="3.04612">
        <ele>173.60000610352</ele>
        <time>2022-04-14T13:59:34Z</time>
      </trkpt>
      <trkpt lat="48.26671" lon="3.04609">
        <ele>173.19999694824</ele>
        <time>2022-04-14T13:59:39Z</time>
      </trkpt>
      <trkpt lat="48.26677" lon="3.04606">
        <ele>173.19999694824</ele>
        <time>2022-04-14T13:59:44Z</time>
      </trkpt>
      <trkpt lat="48.26682" lon="3.04603">
        <ele>173</ele>
        <time>2022-04-14T13:59:49Z</time>
      </trkpt>
      <trkpt lat="48.26688" lon="3.046">
        <ele>172.80000305176</ele>
        <time>2022-04-14T13:59:54Z</time>
      </trkpt>
      <trkpt lat="48.26693" lon="3.04597">
        <ele>172.80000305176</ele>
        <time>2022-04-14T13:59:59Z</time>
      </trkpt>
      <trkpt lat="48.26699" lon="3.04595">
        <ele>172.80000305176</ele>
        <time>2022-04-14T14:00:04Z</time>
      </trkpt>
      <trkpt lat="48.26704" lon="3.04591">
        <ele>172.80000305176</ele>
        <time>2022-04-14T14:00:09Z</time>
      </trkpt>
      <trkpt lat="48.26708" lon="3.04587">
        <ele>172.39999389648</ele>
        <time>2022-04-14T14:00:14Z</time>
      </trkpt>
      <trkpt lat="48.26711" lon="3.04584">
        <ele>172.19999694824</ele>
        <time>2022-04-14T14:00:19Z</time>
      </trkpt>
      <trkpt lat="48.26713" lon="3.04583">
        <ele>172</ele>
        <time>2022-04-14T14:00:23Z</time>
      </trkpt>
      <trkpt lat="48.26759" lon="3.04533">
        <ele>169.80000305176</ele>
        <time>2022-04-14T14:01:23Z</time>
      </trkpt>
      <trkpt lat="48.26763" lon="3.04524">
        <ele>169.80000305176</ele>
        <time>2022-04-14T14:01:28Z</time>
      </trkpt>
      <trkpt lat="48.26767" lon="3.04515">
        <ele>169.80000305176</ele>
        <time>2022-04-14T14:01:33Z</time>
      </trkpt>
      <trkpt lat="48.26769" lon="3.04506">
        <ele>169.60000610352</ele>
        <time>2022-04-14T14:01:38Z</time>
      </trkpt>
      <trkpt lat="48.26772" lon="3.04499">
        <ele>169.39999389648</ele>
        <time>2022-04-14T14:01:43Z</time>
      </trkpt>
      <trkpt lat="48.26777" lon="3.04495">
        <ele>169.39999389648</ele>
        <time>2022-04-14T14:01:48Z</time>
      </trkpt>
      <trkpt lat="48.2678" lon="3.0449">
        <ele>169.39999389648</ele>
        <time>2022-04-14T14:01:53Z</time>
      </trkpt>
      <trkpt lat="48.26783" lon="3.04486">
        <ele>169.39999389648</ele>
        <time>2022-04-14T14:01:58Z</time>
      </trkpt>
      <trkpt lat="48.26789" lon="3.04486">
        <ele>169.39999389648</ele>
        <time>2022-04-14T14:02:03Z</time>
      </trkpt>
      <trkpt lat="48.26794" lon="3.04487">
        <ele>169.39999389648</ele>
        <time>2022-04-14T14:02:08Z</time>
      </trkpt>
      <trkpt lat="48.26801" lon="3.04488">
        <ele>169.39999389648</ele>
        <time>2022-04-14T14:02:13Z</time>
      </trkpt>
      <trkpt lat="48.26807" lon="3.04489">
        <ele>169.39999389648</ele>
        <time>2022-04-14T14:02:18Z</time>
      </trkpt>
      <trkpt lat="48.26813" lon="3.04489">
        <ele>169.39999389648</ele>
        <time>2022-04-14T14:02:23Z</time>
      </trkpt>
      <trkpt lat="48.26818" lon="3.04489">
        <ele>169.39999389648</ele>
        <time>2022-04-14T14:02:28Z</time>
      </trkpt>
      <trkpt lat="48.26824" lon="3.04489">
        <ele>169.39999389648</ele>
        <time>2022-04-14T14:02:33Z</time>
      </trkpt>
      <trkpt lat="48.26828" lon="3.04487">
        <ele>169.19999694824</ele>
        <time>2022-04-14T14:02:38Z</time>
      </trkpt>
      <trkpt lat="48.26834" lon="3.04486">
        <ele>169.19999694824</ele>
        <time>2022-04-14T14:02:43Z</time>
      </trkpt>
      <trkpt lat="48.26841" lon="3.04487">
        <ele>169</ele>
        <time>2022-04-14T14:02:48Z</time>
      </trkpt>
      <trkpt lat="48.26847" lon="3.04486">
        <ele>169</ele>
        <time>2022-04-14T14:02:53Z</time>
      </trkpt>
      <trkpt lat="48.26852" lon="3.04485">
        <ele>168.80000305176</ele>
        <time>2022-04-14T14:02:58Z</time>
      </trkpt>
      <trkpt lat="48.2686" lon="3.04485">
        <ele>168.60000610352</ele>
        <time>2022-04-14T14:03:03Z</time>
      </trkpt>
      <trkpt lat="48.26868" lon="3.04486">
        <ele>168.39999389648</ele>
        <time>2022-04-14T14:03:08Z</time>
      </trkpt>
      <trkpt lat="48.26874" lon="3.04486">
        <ele>168.19999694824</ele>
        <time>2022-04-14T14:03:13Z</time>
      </trkpt>
      <trkpt lat="48.26879" lon="3.04487">
        <ele>168</ele>
        <time>2022-04-14T14:03:18Z</time>
      </trkpt>
      <trkpt lat="48.26886" lon="3.0449">
        <ele>167.80000305176</ele>
        <time>2022-04-14T14:03:23Z</time>
      </trkpt>
      <trkpt lat="48.26892" lon="3.04491">
        <ele>167.80000305176</ele>
        <time>2022-04-14T14:03:28Z</time>
      </trkpt>
      <trkpt lat="48.26896" lon="3.0449">
        <ele>167.60000610352</ele>
        <time>2022-04-14T14:03:33Z</time>
      </trkpt>
      <trkpt lat="48.26901" lon="3.0449">
        <ele>167.60000610352</ele>
        <time>2022-04-14T14:03:38Z</time>
      </trkpt>
      <trkpt lat="48.26907" lon="3.04489">
        <ele>167.60000610352</ele>
        <time>2022-04-14T14:03:43Z</time>
      </trkpt>
      <trkpt lat="48.26911" lon="3.04485">
        <ele>167.39999389648</ele>
        <time>2022-04-14T14:03:48Z</time>
      </trkpt>
      <trkpt lat="48.26917" lon="3.04484">
        <ele>167.39999389648</ele>
        <time>2022-04-14T14:03:53Z</time>
      </trkpt>
      <trkpt lat="48.26922" lon="3.04484">
        <ele>167.39999389648</ele>
        <time>2022-04-14T14:03:58Z</time>
      </trkpt>
      <trkpt lat="48.26928" lon="3.04482">
        <ele>167.19999694824</ele>
        <time>2022-04-14T14:04:03Z</time>
      </trkpt>
      <trkpt lat="48.26933" lon="3.04483">
        <ele>167.19999694824</ele>
        <time>2022-04-14T14:04:08Z</time>
      </trkpt>
      <trkpt lat="48.26937" lon="3.04482">
        <ele>167.19999694824</ele>
        <time>2022-04-14T14:04:13Z</time>
      </trkpt>
      <trkpt lat="48.2694" lon="3.04482">
        <ele>167.19999694824</ele>
        <time>2022-04-14T14:04:18Z</time>
      </trkpt>
      <trkpt lat="48.26944" lon="3.04482">
        <ele>167</ele>
        <time>2022-04-14T14:04:23Z</time>
      </trkpt>
      <trkpt lat="48.26946" lon="3.04483">
        <ele>167</ele>
        <time>2022-04-14T14:04:28Z</time>
      </trkpt>
      <trkpt lat="48.26952" lon="3.04483">
        <ele>167</ele>
        <time>2022-04-14T14:04:33Z</time>
      </trkpt>
      <trkpt lat="48.26955" lon="3.04482">
        <ele>167</ele>
        <time>2022-04-14T14:04:37Z</time>
      </trkpt>
      <trkpt lat="48.26997" lon="3.04474">
        <ele>166.39999389648</ele>
        <time>2022-04-14T14:05:19Z</time>
      </trkpt>
      <trkpt lat="48.27002" lon="3.04476">
        <ele>166.19999694824</ele>
        <time>2022-04-14T14:05:24Z</time>
      </trkpt>
      <trkpt lat="48.27004" lon="3.04476">
        <ele>166.19999694824</ele>
        <time>2022-04-14T14:05:26Z</time>
      </trkpt>
      <trkpt lat="48.27061" lon="3.0448">
        <ele>165.60000610352</ele>
        <time>2022-04-14T14:06:10Z</time>
      </trkpt>
      <trkpt lat="48.27067" lon="3.04481">
        <ele>165.60000610352</ele>
        <time>2022-04-14T14:06:15Z</time>
      </trkpt>
      <trkpt lat="48.27074" lon="3.04481">
        <ele>165.60000610352</ele>
        <time>2022-04-14T14:06:20Z</time>
      </trkpt>
      <trkpt lat="48.2708" lon="3.04481">
        <ele>165.39999389648</ele>
        <time>2022-04-14T14:06:25Z</time>
      </trkpt>
      <trkpt lat="48.27086" lon="3.0448">
        <ele>165.39999389648</ele>
        <time>2022-04-14T14:06:30Z</time>
      </trkpt>
      <trkpt lat="48.27093" lon="3.04481">
        <ele>165.19999694824</ele>
        <time>2022-04-14T14:06:35Z</time>
      </trkpt>
      <trkpt lat="48.27099" lon="3.04481">
        <ele>165.19999694824</ele>
        <time>2022-04-14T14:06:40Z</time>
      </trkpt>
      <trkpt lat="48.27104" lon="3.04481">
        <ele>164.80000305176</ele>
        <time>2022-04-14T14:06:45Z</time>
      </trkpt>
      <trkpt lat="48.2711" lon="3.04482">
        <ele>164.60000610352</ele>
        <time>2022-04-14T14:06:50Z</time>
      </trkpt>
      <trkpt lat="48.27116" lon="3.04482">
        <ele>164.60000610352</ele>
        <time>2022-04-14T14:06:55Z</time>
      </trkpt>
      <trkpt lat="48.27122" lon="3.04482">
        <ele>164.60000610352</ele>
        <time>2022-04-14T14:07:00Z</time>
      </trkpt>
      <trkpt lat="48.27125" lon="3.04481">
        <ele>164.39999389648</ele>
        <time>2022-04-14T14:07:05Z</time>
      </trkpt>
      <trkpt lat="48.27131" lon="3.04482">
        <ele>164.19999694824</ele>
        <time>2022-04-14T14:07:10Z</time>
      </trkpt>
      <trkpt lat="48.27137" lon="3.04482">
        <ele>164.19999694824</ele>
        <time>2022-04-14T14:07:15Z</time>
      </trkpt>
      <trkpt lat="48.27143" lon="3.04481">
        <ele>164</ele>
        <time>2022-04-14T14:07:20Z</time>
      </trkpt>
      <trkpt lat="48.27148" lon="3.04478">
        <ele>163.80000305176</ele>
        <time>2022-04-14T14:07:25Z</time>
      </trkpt>
      <trkpt lat="48.27152" lon="3.04473">
        <ele>163.39999389648</ele>
        <time>2022-04-14T14:07:30Z</time>
      </trkpt>
      <trkpt lat="48.27157" lon="3.04469">
        <ele>163.19999694824</ele>
        <time>2022-04-14T14:07:35Z</time>
      </trkpt>
      <trkpt lat="48.27162" lon="3.04463">
        <ele>162.80000305176</ele>
        <time>2022-04-14T14:07:40Z</time>
      </trkpt>
      <trkpt lat="48.27166" lon="3.04458">
        <ele>162.39999389648</ele>
        <time>2022-04-14T14:07:45Z</time>
      </trkpt>
      <trkpt lat="48.27171" lon="3.04452">
        <ele>162</ele>
        <time>2022-04-14T14:07:50Z</time>
      </trkpt>
      <trkpt lat="48.27175" lon="3.04445">
        <ele>161.80000305176</ele>
        <time>2022-04-14T14:07:55Z</time>
      </trkpt>
      <trkpt lat="48.2718" lon="3.04438">
        <ele>161.80000305176</ele>
        <time>2022-04-14T14:08:00Z</time>
      </trkpt>
      <trkpt lat="48.27184" lon="3.04431">
        <ele>161.39999389648</ele>
        <time>2022-04-14T14:08:05Z</time>
      </trkpt>
      <trkpt lat="48.27187" lon="3.04423">
        <ele>161.19999694824</ele>
        <time>2022-04-14T14:08:10Z</time>
      </trkpt>
      <trkpt lat="48.27191" lon="3.04416">
        <ele>161</ele>
        <time>2022-04-14T14:08:15Z</time>
      </trkpt>
      <trkpt lat="48.27195" lon="3.04409">
        <ele>161</ele>
        <time>2022-04-14T14:08:20Z</time>
      </trkpt>
      <trkpt lat="48.27198" lon="3.04402">
        <ele>160.80000305176</ele>
        <time>2022-04-14T14:08:25Z</time>
      </trkpt>
      <trkpt lat="48.27202" lon="3.04395">
        <ele>160.80000305176</ele>
        <time>2022-04-14T14:08:30Z</time>
      </trkpt>
      <trkpt lat="48.27205" lon="3.04388">
        <ele>160.80000305176</ele>
        <time>2022-04-14T14:08:35Z</time>
      </trkpt>
      <trkpt lat="48.27207" lon="3.0438">
        <ele>160.80000305176</ele>
        <time>2022-04-14T14:08:40Z</time>
      </trkpt>
      <trkpt lat="48.2721" lon="3.04371">
        <ele>160.60000610352</ele>
        <time>2022-04-14T14:08:45Z</time>
      </trkpt>
      <trkpt lat="48.27212" lon="3.04364">
        <ele>160.60000610352</ele>
        <time>2022-04-14T14:08:50Z</time>
      </trkpt>
      <trkpt lat="48.27214" lon="3.04355">
        <ele>160.80000305176</ele>
        <time>2022-04-14T14:08:55Z</time>
      </trkpt>
      <trkpt lat="48.27215" lon="3.04347">
        <ele>160.80000305176</ele>
        <time>2022-04-14T14:09:00Z</time>
      </trkpt>
      <trkpt lat="48.27217" lon="3.04338">
        <ele>160.80000305176</ele>
        <time>2022-04-14T14:09:05Z</time>
      </trkpt>
      <trkpt lat="48.27218" lon="3.04329">
        <ele>160.60000610352</ele>
        <time>2022-04-14T14:09:10Z</time>
      </trkpt>
      <trkpt lat="48.27219" lon="3.04321">
        <ele>160.60000610352</ele>
        <time>2022-04-14T14:09:15Z</time>
      </trkpt>
      <trkpt lat="48.2722" lon="3.04313">
        <ele>160.39999389648</ele>
        <time>2022-04-14T14:09:20Z</time>
      </trkpt>
      <trkpt lat="48.27221" lon="3.04304">
        <ele>160.39999389648</ele>
        <time>2022-04-14T14:09:25Z</time>
      </trkpt>
      <trkpt lat="48.27222" lon="3.04296">
        <ele>160.39999389648</ele>
        <time>2022-04-14T14:09:30Z</time>
      </trkpt>
      <trkpt lat="48.27223" lon="3.04288">
        <ele>160.39999389648</ele>
        <time>2022-04-14T14:09:35Z</time>
      </trkpt>
      <trkpt lat="48.27224" lon="3.0428">
        <ele>160.39999389648</ele>
        <time>2022-04-14T14:09:40Z</time>
      </trkpt>
      <trkpt lat="48.27225" lon="3.04272">
        <ele>160.19999694824</ele>
        <time>2022-04-14T14:09:45Z</time>
      </trkpt>
      <trkpt lat="48.27226" lon="3.04266">
        <ele>160.39999389648</ele>
        <time>2022-04-14T14:09:50Z</time>
      </trkpt>
      <trkpt lat="48.27227" lon="3.04258">
        <ele>160</ele>
        <time>2022-04-14T14:09:55Z</time>
      </trkpt>
      <trkpt lat="48.27227" lon="3.04251">
        <ele>160</ele>
        <time>2022-04-14T14:10:00Z</time>
      </trkpt>
      <trkpt lat="48.2723" lon="3.04244">
        <ele>159.80000305176</ele>
        <time>2022-04-14T14:10:05Z</time>
      </trkpt>
      <trkpt lat="48.27232" lon="3.04236">
        <ele>159.80000305176</ele>
        <time>2022-04-14T14:10:10Z</time>
      </trkpt>
      <trkpt lat="48.27234" lon="3.04228">
        <ele>159.60000610352</ele>
        <time>2022-04-14T14:10:15Z</time>
      </trkpt>
      <trkpt lat="48.27236" lon="3.04219">
        <ele>159.19999694824</ele>
        <time>2022-04-14T14:10:20Z</time>
      </trkpt>
      <trkpt lat="48.27238" lon="3.0421">
        <ele>159.19999694824</ele>
        <time>2022-04-14T14:10:25Z</time>
      </trkpt>
      <trkpt lat="48.2724" lon="3.04201">
        <ele>159.19999694824</ele>
        <time>2022-04-14T14:10:30Z</time>
      </trkpt>
      <trkpt lat="48.27241" lon="3.04192">
        <ele>158.80000305176</ele>
        <time>2022-04-14T14:10:35Z</time>
      </trkpt>
      <trkpt lat="48.27243" lon="3.04183">
        <ele>158.60000610352</ele>
        <time>2022-04-14T14:10:40Z</time>
      </trkpt>
      <trkpt lat="48.27245" lon="3.04174">
        <ele>158.39999389648</ele>
        <time>2022-04-14T14:10:45Z</time>
      </trkpt>
      <trkpt lat="48.27247" lon="3.04165">
        <ele>157.80000305176</ele>
        <time>2022-04-14T14:10:50Z</time>
      </trkpt>
      <trkpt lat="48.27249" lon="3.04157">
        <ele>157.60000610352</ele>
        <time>2022-04-14T14:10:55Z</time>
      </trkpt>
      <trkpt lat="48.27251" lon="3.04148">
        <ele>157.19999694824</ele>
        <time>2022-04-14T14:11:00Z</time>
      </trkpt>
      <trkpt lat="48.27254" lon="3.0414">
        <ele>156.80000305176</ele>
        <time>2022-04-14T14:11:05Z</time>
      </trkpt>
      <trkpt lat="48.27255" lon="3.04132">
        <ele>156.60000610352</ele>
        <time>2022-04-14T14:11:10Z</time>
      </trkpt>
      <trkpt lat="48.27257" lon="3.04123">
        <ele>156.39999389648</ele>
        <time>2022-04-14T14:11:15Z</time>
      </trkpt>
      <trkpt lat="48.27258" lon="3.04115">
        <ele>156</ele>
        <time>2022-04-14T14:11:20Z</time>
      </trkpt>
      <trkpt lat="48.2726" lon="3.04107">
        <ele>155.60000610352</ele>
        <time>2022-04-14T14:11:25Z</time>
      </trkpt>
      <trkpt lat="48.27261" lon="3.04099">
        <ele>155.39999389648</ele>
        <time>2022-04-14T14:11:30Z</time>
      </trkpt>
      <trkpt lat="48.27263" lon="3.04091">
        <ele>155</ele>
        <time>2022-04-14T14:11:35Z</time>
      </trkpt>
      <trkpt lat="48.27265" lon="3.04084">
        <ele>155</ele>
        <time>2022-04-14T14:11:40Z</time>
      </trkpt>
      <trkpt lat="48.27267" lon="3.04075">
        <ele>154.39999389648</ele>
        <time>2022-04-14T14:11:45Z</time>
      </trkpt>
      <trkpt lat="48.27269" lon="3.04068">
        <ele>154</ele>
        <time>2022-04-14T14:11:50Z</time>
      </trkpt>
      <trkpt lat="48.27272" lon="3.04059">
        <ele>153.80000305176</ele>
        <time>2022-04-14T14:11:55Z</time>
      </trkpt>
      <trkpt lat="48.27273" lon="3.04051">
        <ele>153.60000610352</ele>
        <time>2022-04-14T14:12:00Z</time>
      </trkpt>
      <trkpt lat="48.27276" lon="3.04042">
        <ele>153.60000610352</ele>
        <time>2022-04-14T14:12:05Z</time>
      </trkpt>
      <trkpt lat="48.27277" lon="3.04034">
        <ele>153.19999694824</ele>
        <time>2022-04-14T14:12:10Z</time>
      </trkpt>
      <trkpt lat="48.27279" lon="3.04025">
        <ele>153</ele>
        <time>2022-04-14T14:12:15Z</time>
      </trkpt>
      <trkpt lat="48.27281" lon="3.04018">
        <ele>152.80000305176</ele>
        <time>2022-04-14T14:12:20Z</time>
      </trkpt>
      <trkpt lat="48.27281" lon="3.04012">
        <ele>152.80000305176</ele>
        <time>2022-04-14T14:12:25Z</time>
      </trkpt>
      <trkpt lat="48.27282" lon="3.04006">
        <ele>152.60000610352</ele>
        <time>2022-04-14T14:12:30Z</time>
      </trkpt>
      <trkpt lat="48.27282" lon="3.04">
        <ele>152.19999694824</ele>
        <time>2022-04-14T14:12:35Z</time>
      </trkpt>
      <trkpt lat="48.27283" lon="3.03994">
        <ele>152.19999694824</ele>
        <time>2022-04-14T14:12:40Z</time>
      </trkpt>
      <trkpt lat="48.27283" lon="3.03987">
        <ele>152</ele>
        <time>2022-04-14T14:12:45Z</time>
      </trkpt>
      <trkpt lat="48.27281" lon="3.0398">
        <ele>151.80000305176</ele>
        <time>2022-04-14T14:12:50Z</time>
      </trkpt>
      <trkpt lat="48.27283" lon="3.03973">
        <ele>151.60000610352</ele>
        <time>2022-04-14T14:12:55Z</time>
      </trkpt>
      <trkpt lat="48.27285" lon="3.03965">
        <ele>151.39999389648</ele>
        <time>2022-04-14T14:13:00Z</time>
      </trkpt>
      <trkpt lat="48.27287" lon="3.03958">
        <ele>151.19999694824</ele>
        <time>2022-04-14T14:13:05Z</time>
      </trkpt>
      <trkpt lat="48.27289" lon="3.03951">
        <ele>151.19999694824</ele>
        <time>2022-04-14T14:13:10Z</time>
      </trkpt>
      <trkpt lat="48.27291" lon="3.03943">
        <ele>151.39999389648</ele>
        <time>2022-04-14T14:13:15Z</time>
      </trkpt>
      <trkpt lat="48.27293" lon="3.03936">
        <ele>151.60000610352</ele>
        <time>2022-04-14T14:13:20Z</time>
      </trkpt>
      <trkpt lat="48.27295" lon="3.03929">
        <ele>151.60000610352</ele>
        <time>2022-04-14T14:13:25Z</time>
      </trkpt>
      <trkpt lat="48.27299" lon="3.03921">
        <ele>152</ele>
        <time>2022-04-14T14:13:30Z</time>
      </trkpt>
      <trkpt lat="48.27302" lon="3.03913">
        <ele>152</ele>
        <time>2022-04-14T14:13:35Z</time>
      </trkpt>
      <trkpt lat="48.27307" lon="3.03906">
        <ele>152.19999694824</ele>
        <time>2022-04-14T14:13:40Z</time>
      </trkpt>
      <trkpt lat="48.27312" lon="3.03899">
        <ele>152.60000610352</ele>
        <time>2022-04-14T14:13:45Z</time>
      </trkpt>
      <trkpt lat="48.27316" lon="3.03891">
        <ele>152.60000610352</ele>
        <time>2022-04-14T14:13:50Z</time>
      </trkpt>
      <trkpt lat="48.2732" lon="3.03884">
        <ele>152.60000610352</ele>
        <time>2022-04-14T14:13:55Z</time>
      </trkpt>
      <trkpt lat="48.27323" lon="3.03875">
        <ele>152.39999389648</ele>
        <time>2022-04-14T14:14:00Z</time>
      </trkpt>
      <trkpt lat="48.27326" lon="3.03866">
        <ele>152.60000610352</ele>
        <time>2022-04-14T14:14:05Z</time>
      </trkpt>
      <trkpt lat="48.27328" lon="3.03858">
        <ele>152.39999389648</ele>
        <time>2022-04-14T14:14:10Z</time>
      </trkpt>
      <trkpt lat="48.27331" lon="3.0385">
        <ele>152.39999389648</ele>
        <time>2022-04-14T14:14:15Z</time>
      </trkpt>
      <trkpt lat="48.27333" lon="3.03842">
        <ele>152.39999389648</ele>
        <time>2022-04-14T14:14:20Z</time>
      </trkpt>
      <trkpt lat="48.27336" lon="3.03833">
        <ele>152.39999389648</ele>
        <time>2022-04-14T14:14:25Z</time>
      </trkpt>
      <trkpt lat="48.27339" lon="3.03824">
        <ele>152.60000610352</ele>
        <time>2022-04-14T14:14:30Z</time>
      </trkpt>
      <trkpt lat="48.27341" lon="3.03816">
        <ele>152.19999694824</ele>
        <time>2022-04-14T14:14:35Z</time>
      </trkpt>
      <trkpt lat="48.27343" lon="3.03807">
        <ele>152</ele>
        <time>2022-04-14T14:14:40Z</time>
      </trkpt>
      <trkpt lat="48.27344" lon="3.03798">
        <ele>152</ele>
        <time>2022-04-14T14:14:45Z</time>
      </trkpt>
      <trkpt lat="48.27346" lon="3.0379">
        <ele>151.80000305176</ele>
        <time>2022-04-14T14:14:50Z</time>
      </trkpt>
      <trkpt lat="48.27348" lon="3.03781">
        <ele>151.60000610352</ele>
        <time>2022-04-14T14:14:55Z</time>
      </trkpt>
      <trkpt lat="48.27349" lon="3.03773">
        <ele>151.19999694824</ele>
        <time>2022-04-14T14:15:00Z</time>
      </trkpt>
      <trkpt lat="48.2735" lon="3.03765">
        <ele>151</ele>
        <time>2022-04-14T14:15:05Z</time>
      </trkpt>
      <trkpt lat="48.27351" lon="3.03758">
        <ele>150.80000305176</ele>
        <time>2022-04-14T14:15:10Z</time>
      </trkpt>
      <trkpt lat="48.27352" lon="3.0375">
        <ele>150.60000610352</ele>
        <time>2022-04-14T14:15:15Z</time>
      </trkpt>
      <trkpt lat="48.27353" lon="3.03741">
        <ele>150.39999389648</ele>
        <time>2022-04-14T14:15:20Z</time>
      </trkpt>
      <trkpt lat="48.27354" lon="3.03733">
        <ele>150.39999389648</ele>
        <time>2022-04-14T14:15:25Z</time>
      </trkpt>
      <trkpt lat="48.27355" lon="3.03724">
        <ele>150.39999389648</ele>
        <time>2022-04-14T14:15:30Z</time>
      </trkpt>
      <trkpt lat="48.27356" lon="3.03716">
        <ele>150.39999389648</ele>
        <time>2022-04-14T14:15:35Z</time>
      </trkpt>
      <trkpt lat="48.27356" lon="3.03708">
        <ele>150.19999694824</ele>
        <time>2022-04-14T14:15:40Z</time>
      </trkpt>
      <trkpt lat="48.27357" lon="3.03699">
        <ele>150.19999694824</ele>
        <time>2022-04-14T14:15:45Z</time>
      </trkpt>
      <trkpt lat="48.27358" lon="3.03691">
        <ele>150.19999694824</ele>
        <time>2022-04-14T14:15:50Z</time>
      </trkpt>
      <trkpt lat="48.27358" lon="3.03682">
        <ele>150.19999694824</ele>
        <time>2022-04-14T14:15:55Z</time>
      </trkpt>
      <trkpt lat="48.27359" lon="3.03675">
        <ele>150</ele>
        <time>2022-04-14T14:16:00Z</time>
      </trkpt>
      <trkpt lat="48.2736" lon="3.03666">
        <ele>150</ele>
        <time>2022-04-14T14:16:05Z</time>
      </trkpt>
      <trkpt lat="48.27361" lon="3.03658">
        <ele>150</ele>
        <time>2022-04-14T14:16:10Z</time>
      </trkpt>
      <trkpt lat="48.27361" lon="3.0365">
        <ele>150</ele>
        <time>2022-04-14T14:16:15Z</time>
      </trkpt>
      <trkpt lat="48.27362" lon="3.03642">
        <ele>150</ele>
        <time>2022-04-14T14:16:20Z</time>
      </trkpt>
      <trkpt lat="48.27363" lon="3.03634">
        <ele>150</ele>
        <time>2022-04-14T14:16:25Z</time>
      </trkpt>
      <trkpt lat="48.27364" lon="3.03626">
        <ele>150</ele>
        <time>2022-04-14T14:16:30Z</time>
      </trkpt>
      <trkpt lat="48.27364" lon="3.03618">
        <ele>150</ele>
        <time>2022-04-14T14:16:35Z</time>
      </trkpt>
      <trkpt lat="48.27365" lon="3.0361">
        <ele>150</ele>
        <time>2022-04-14T14:16:40Z</time>
      </trkpt>
      <trkpt lat="48.27365" lon="3.03602">
        <ele>150.19999694824</ele>
        <time>2022-04-14T14:16:45Z</time>
      </trkpt>
      <trkpt lat="48.27366" lon="3.03594">
        <ele>150.39999389648</ele>
        <time>2022-04-14T14:16:50Z</time>
      </trkpt>
      <trkpt lat="48.27366" lon="3.03586">
        <ele>150.39999389648</ele>
        <time>2022-04-14T14:16:55Z</time>
      </trkpt>
      <trkpt lat="48.27367" lon="3.03578">
        <ele>150.60000610352</ele>
        <time>2022-04-14T14:17:00Z</time>
      </trkpt>
      <trkpt lat="48.27367" lon="3.0357">
        <ele>150.80000305176</ele>
        <time>2022-04-14T14:17:05Z</time>
      </trkpt>
      <trkpt lat="48.27367" lon="3.03562">
        <ele>151</ele>
        <time>2022-04-14T14:17:10Z</time>
      </trkpt>
      <trkpt lat="48.27367" lon="3.03554">
        <ele>151.19999694824</ele>
        <time>2022-04-14T14:17:15Z</time>
      </trkpt>
      <trkpt lat="48.27367" lon="3.03546">
        <ele>151.19999694824</ele>
        <time>2022-04-14T14:17:20Z</time>
      </trkpt>
      <trkpt lat="48.27368" lon="3.03538">
        <ele>151</ele>
        <time>2022-04-14T14:17:25Z</time>
      </trkpt>
      <trkpt lat="48.27368" lon="3.0353">
        <ele>151</ele>
        <time>2022-04-14T14:17:30Z</time>
      </trkpt>
      <trkpt lat="48.27369" lon="3.03522">
        <ele>150.80000305176</ele>
        <time>2022-04-14T14:17:35Z</time>
      </trkpt>
      <trkpt lat="48.27369" lon="3.03513">
        <ele>150.80000305176</ele>
        <time>2022-04-14T14:17:40Z</time>
      </trkpt>
      <trkpt lat="48.27369" lon="3.03505">
        <ele>150.60000610352</ele>
        <time>2022-04-14T14:17:45Z</time>
      </trkpt>
      <trkpt lat="48.27369" lon="3.03497">
        <ele>150.60000610352</ele>
        <time>2022-04-14T14:17:50Z</time>
      </trkpt>
      <trkpt lat="48.2737" lon="3.03489">
        <ele>150.60000610352</ele>
        <time>2022-04-14T14:17:55Z</time>
      </trkpt>
      <trkpt lat="48.2737" lon="3.03481">
        <ele>150.60000610352</ele>
        <time>2022-04-14T14:18:00Z</time>
      </trkpt>
      <trkpt lat="48.27371" lon="3.03473">
        <ele>150.39999389648</ele>
        <time>2022-04-14T14:18:05Z</time>
      </trkpt>
      <trkpt lat="48.27371" lon="3.03465">
        <ele>150.39999389648</ele>
        <time>2022-04-14T14:18:10Z</time>
      </trkpt>
      <trkpt lat="48.27371" lon="3.03457">
        <ele>150.39999389648</ele>
        <time>2022-04-14T14:18:15Z</time>
      </trkpt>
      <trkpt lat="48.27371" lon="3.03449">
        <ele>150.19999694824</ele>
        <time>2022-04-14T14:18:20Z</time>
      </trkpt>
      <trkpt lat="48.27371" lon="3.03441">
        <ele>150.19999694824</ele>
        <time>2022-04-14T14:18:25Z</time>
      </trkpt>
      <trkpt lat="48.27371" lon="3.03433">
        <ele>150</ele>
        <time>2022-04-14T14:18:30Z</time>
      </trkpt>
      <trkpt lat="48.27372" lon="3.03426">
        <ele>149.80000305176</ele>
        <time>2022-04-14T14:18:35Z</time>
      </trkpt>
      <trkpt lat="48.27372" lon="3.03418">
        <ele>149.80000305176</ele>
        <time>2022-04-14T14:18:40Z</time>
      </trkpt>
      <trkpt lat="48.27373" lon="3.0341">
        <ele>149.60000610352</ele>
        <time>2022-04-14T14:18:45Z</time>
      </trkpt>
      <trkpt lat="48.27373" lon="3.03402">
        <ele>149.39999389648</ele>
        <time>2022-04-14T14:18:50Z</time>
      </trkpt>
      <trkpt lat="48.27373" lon="3.03394">
        <ele>149.39999389648</ele>
        <time>2022-04-14T14:18:55Z</time>
      </trkpt>
      <trkpt lat="48.27373" lon="3.03385">
        <ele>149</ele>
        <time>2022-04-14T14:19:00Z</time>
      </trkpt>
      <trkpt lat="48.27373" lon="3.03377">
        <ele>148.80000305176</ele>
        <time>2022-04-14T14:19:05Z</time>
      </trkpt>
      <trkpt lat="48.27373" lon="3.0337">
        <ele>148.80000305176</ele>
        <time>2022-04-14T14:19:10Z</time>
      </trkpt>
      <trkpt lat="48.27373" lon="3.03361">
        <ele>148.60000610352</ele>
        <time>2022-04-14T14:19:15Z</time>
      </trkpt>
      <trkpt lat="48.27374" lon="3.03354">
        <ele>148.19999694824</ele>
        <time>2022-04-14T14:19:20Z</time>
      </trkpt>
      <trkpt lat="48.27374" lon="3.03346">
        <ele>148</ele>
        <time>2022-04-14T14:19:25Z</time>
      </trkpt>
      <trkpt lat="48.27374" lon="3.03338">
        <ele>147.80000305176</ele>
        <time>2022-04-14T14:19:30Z</time>
      </trkpt>
      <trkpt lat="48.27374" lon="3.0333">
        <ele>147.80000305176</ele>
        <time>2022-04-14T14:19:35Z</time>
      </trkpt>
      <trkpt lat="48.27375" lon="3.03321">
        <ele>147.60000610352</ele>
        <time>2022-04-14T14:19:40Z</time>
      </trkpt>
      <trkpt lat="48.27375" lon="3.03314">
        <ele>147.39999389648</ele>
        <time>2022-04-14T14:19:45Z</time>
      </trkpt>
      <trkpt lat="48.27375" lon="3.03306">
        <ele>147.19999694824</ele>
        <time>2022-04-14T14:19:50Z</time>
      </trkpt>
      <trkpt lat="48.27375" lon="3.03298">
        <ele>147</ele>
        <time>2022-04-14T14:19:55Z</time>
      </trkpt>
      <trkpt lat="48.27375" lon="3.0329">
        <ele>147</ele>
        <time>2022-04-14T14:20:00Z</time>
      </trkpt>
      <trkpt lat="48.27376" lon="3.03281">
        <ele>146.60000610352</ele>
        <time>2022-04-14T14:20:05Z</time>
      </trkpt>
      <trkpt lat="48.27376" lon="3.03273">
        <ele>146.39999389648</ele>
        <time>2022-04-14T14:20:10Z</time>
      </trkpt>
      <trkpt lat="48.27376" lon="3.03265">
        <ele>146.19999694824</ele>
        <time>2022-04-14T14:20:15Z</time>
      </trkpt>
      <trkpt lat="48.27376" lon="3.03258">
        <ele>146</ele>
        <time>2022-04-14T14:20:20Z</time>
      </trkpt>
      <trkpt lat="48.27376" lon="3.03249">
        <ele>145.80000305176</ele>
        <time>2022-04-14T14:20:25Z</time>
      </trkpt>
      <trkpt lat="48.27377" lon="3.03241">
        <ele>145.39999389648</ele>
        <time>2022-04-14T14:20:30Z</time>
      </trkpt>
      <trkpt lat="48.27377" lon="3.03234">
        <ele>145.39999389648</ele>
        <time>2022-04-14T14:20:35Z</time>
      </trkpt>
      <trkpt lat="48.27377" lon="3.03226">
        <ele>145.60000610352</ele>
        <time>2022-04-14T14:20:40Z</time>
      </trkpt>
      <trkpt lat="48.27377" lon="3.03217">
        <ele>145.39999389648</ele>
        <time>2022-04-14T14:20:45Z</time>
      </trkpt>
      <trkpt lat="48.27378" lon="3.03209">
        <ele>145.39999389648</ele>
        <time>2022-04-14T14:20:50Z</time>
      </trkpt>
      <trkpt lat="48.27378" lon="3.03201">
        <ele>145.39999389648</ele>
        <time>2022-04-14T14:20:55Z</time>
      </trkpt>
      <trkpt lat="48.27378" lon="3.03192">
        <ele>145.39999389648</ele>
        <time>2022-04-14T14:21:00Z</time>
      </trkpt>
      <trkpt lat="48.27378" lon="3.03185">
        <ele>145.19999694824</ele>
        <time>2022-04-14T14:21:05Z</time>
      </trkpt>
      <trkpt lat="48.27378" lon="3.03177">
        <ele>145.19999694824</ele>
        <time>2022-04-14T14:21:10Z</time>
      </trkpt>
      <trkpt lat="48.27379" lon="3.03169">
        <ele>145.19999694824</ele>
        <time>2022-04-14T14:21:15Z</time>
      </trkpt>
      <trkpt lat="48.27379" lon="3.03161">
        <ele>145.19999694824</ele>
        <time>2022-04-14T14:21:20Z</time>
      </trkpt>
      <trkpt lat="48.27379" lon="3.03153">
        <ele>145</ele>
        <time>2022-04-14T14:21:25Z</time>
      </trkpt>
      <trkpt lat="48.27379" lon="3.03145">
        <ele>145</ele>
        <time>2022-04-14T14:21:30Z</time>
      </trkpt>
      <trkpt lat="48.2738" lon="3.03138">
        <ele>145</ele>
        <time>2022-04-14T14:21:35Z</time>
      </trkpt>
      <trkpt lat="48.27379" lon="3.0313">
        <ele>145.19999694824</ele>
        <time>2022-04-14T14:21:40Z</time>
      </trkpt>
      <trkpt lat="48.2738" lon="3.03123">
        <ele>145.19999694824</ele>
        <time>2022-04-14T14:21:45Z</time>
      </trkpt>
      <trkpt lat="48.2738" lon="3.03114">
        <ele>145.39999389648</ele>
        <time>2022-04-14T14:21:50Z</time>
      </trkpt>
      <trkpt lat="48.2738" lon="3.03106">
        <ele>145.39999389648</ele>
        <time>2022-04-14T14:21:55Z</time>
      </trkpt>
      <trkpt lat="48.2738" lon="3.03097">
        <ele>145.60000610352</ele>
        <time>2022-04-14T14:22:00Z</time>
      </trkpt>
      <trkpt lat="48.2738" lon="3.03088">
        <ele>145.80000305176</ele>
        <time>2022-04-14T14:22:05Z</time>
      </trkpt>
      <trkpt lat="48.2738" lon="3.03079">
        <ele>146</ele>
        <time>2022-04-14T14:22:10Z</time>
      </trkpt>
      <trkpt lat="48.27381" lon="3.03071">
        <ele>146</ele>
        <time>2022-04-14T14:22:15Z</time>
      </trkpt>
      <trkpt lat="48.27381" lon="3.03063">
        <ele>146.19999694824</ele>
        <time>2022-04-14T14:22:20Z</time>
      </trkpt>
      <trkpt lat="48.27381" lon="3.03054">
        <ele>146</ele>
        <time>2022-04-14T14:22:25Z</time>
      </trkpt>
      <trkpt lat="48.27381" lon="3.03046">
        <ele>146</ele>
        <time>2022-04-14T14:22:30Z</time>
      </trkpt>
      <trkpt lat="48.27381" lon="3.03037">
        <ele>146.19999694824</ele>
        <time>2022-04-14T14:22:35Z</time>
      </trkpt>
      <trkpt lat="48.27381" lon="3.03029">
        <ele>146.39999389648</ele>
        <time>2022-04-14T14:22:40Z</time>
      </trkpt>
      <trkpt lat="48.27382" lon="3.0302">
        <ele>146.39999389648</ele>
        <time>2022-04-14T14:22:45Z</time>
      </trkpt>
      <trkpt lat="48.27382" lon="3.03012">
        <ele>146.19999694824</ele>
        <time>2022-04-14T14:22:50Z</time>
      </trkpt>
      <trkpt lat="48.27382" lon="3.03004">
        <ele>146.19999694824</ele>
        <time>2022-04-14T14:22:55Z</time>
      </trkpt>
      <trkpt lat="48.27383" lon="3.02995">
        <ele>146.19999694824</ele>
        <time>2022-04-14T14:23:00Z</time>
      </trkpt>
      <trkpt lat="48.27383" lon="3.02987">
        <ele>146.39999389648</ele>
        <time>2022-04-14T14:23:05Z</time>
      </trkpt>
      <trkpt lat="48.27383" lon="3.02979">
        <ele>146.60000610352</ele>
        <time>2022-04-14T14:23:10Z</time>
      </trkpt>
      <trkpt lat="48.27384" lon="3.0297">
        <ele>146.60000610352</ele>
        <time>2022-04-14T14:23:15Z</time>
      </trkpt>
      <trkpt lat="48.27384" lon="3.02963">
        <ele>146.80000305176</ele>
        <time>2022-04-14T14:23:20Z</time>
      </trkpt>
      <trkpt lat="48.27385" lon="3.02955">
        <ele>147.19999694824</ele>
        <time>2022-04-14T14:23:25Z</time>
      </trkpt>
      <trkpt lat="48.27385" lon="3.02946">
        <ele>147.19999694824</ele>
        <time>2022-04-14T14:23:30Z</time>
      </trkpt>
      <trkpt lat="48.27386" lon="3.02938">
        <ele>147.60000610352</ele>
        <time>2022-04-14T14:23:35Z</time>
      </trkpt>
      <trkpt lat="48.27386" lon="3.0293">
        <ele>147.80000305176</ele>
        <time>2022-04-14T14:23:40Z</time>
      </trkpt>
      <trkpt lat="48.27387" lon="3.02922">
        <ele>148.19999694824</ele>
        <time>2022-04-14T14:23:45Z</time>
      </trkpt>
      <trkpt lat="48.27388" lon="3.02915">
        <ele>148.39999389648</ele>
        <time>2022-04-14T14:23:50Z</time>
      </trkpt>
      <trkpt lat="48.27389" lon="3.02907">
        <ele>148.60000610352</ele>
        <time>2022-04-14T14:23:55Z</time>
      </trkpt>
      <trkpt lat="48.27392" lon="3.02898">
        <ele>148.80000305176</ele>
        <time>2022-04-14T14:24:00Z</time>
      </trkpt>
      <trkpt lat="48.27394" lon="3.02893">
        <ele>148.80000305176</ele>
        <time>2022-04-14T14:24:05Z</time>
      </trkpt>
      <trkpt lat="48.27396" lon="3.02891">
        <ele>149</ele>
        <time>2022-04-14T14:24:10Z</time>
      </trkpt>
      <trkpt lat="48.27398" lon="3.02889">
        <ele>149.19999694824</ele>
        <time>2022-04-14T14:24:15Z</time>
      </trkpt>
      <trkpt lat="48.27398" lon="3.02889">
        <ele>149.19999694824</ele>
        <time>2022-04-14T14:24:17Z</time>
      </trkpt>
      <trkpt lat="48.27454" lon="3.02581">
        <ele>144.60000610352</ele>
        <time>2022-04-14T14:31:02Z</time>
      </trkpt>
      <trkpt lat="48.27456" lon="3.02575">
        <ele>144.19999694824</ele>
        <time>2022-04-14T14:31:07Z</time>
      </trkpt>
      <trkpt lat="48.27458" lon="3.02566">
        <ele>144.19999694824</ele>
        <time>2022-04-14T14:31:12Z</time>
      </trkpt>
      <trkpt lat="48.2746" lon="3.02557">
        <ele>144</ele>
        <time>2022-04-14T14:31:17Z</time>
      </trkpt>
      <trkpt lat="48.27461" lon="3.02548">
        <ele>143.80000305176</ele>
        <time>2022-04-14T14:31:22Z</time>
      </trkpt>
      <trkpt lat="48.27463" lon="3.0254">
        <ele>143.60000610352</ele>
        <time>2022-04-14T14:31:27Z</time>
      </trkpt>
      <trkpt lat="48.27465" lon="3.02531">
        <ele>143.60000610352</ele>
        <time>2022-04-14T14:31:32Z</time>
      </trkpt>
      <trkpt lat="48.27466" lon="3.02522">
        <ele>143.39999389648</ele>
        <time>2022-04-14T14:31:37Z</time>
      </trkpt>
      <trkpt lat="48.27467" lon="3.02513">
        <ele>143.19999694824</ele>
        <time>2022-04-14T14:31:42Z</time>
      </trkpt>
      <trkpt lat="48.27469" lon="3.02505">
        <ele>143.19999694824</ele>
        <time>2022-04-14T14:31:47Z</time>
      </trkpt>
      <trkpt lat="48.2747" lon="3.02497">
        <ele>143.19999694824</ele>
        <time>2022-04-14T14:31:52Z</time>
      </trkpt>
      <trkpt lat="48.2747" lon="3.02489">
        <ele>142.80000305176</ele>
        <time>2022-04-14T14:31:57Z</time>
      </trkpt>
      <trkpt lat="48.27469" lon="3.02482">
        <ele>143</ele>
        <time>2022-04-14T14:32:02Z</time>
      </trkpt>
      <trkpt lat="48.27468" lon="3.02478">
        <ele>143.19999694824</ele>
        <time>2022-04-14T14:32:07Z</time>
      </trkpt>
      <trkpt lat="48.27467" lon="3.02473">
        <ele>143.60000610352</ele>
        <time>2022-04-14T14:32:12Z</time>
      </trkpt>
      <trkpt lat="48.27467" lon="3.02468">
        <ele>143.80000305176</ele>
        <time>2022-04-14T14:32:17Z</time>
      </trkpt>
      <trkpt lat="48.27463" lon="3.02465">
        <ele>144.19999694824</ele>
        <time>2022-04-14T14:32:22Z</time>
      </trkpt>
      <trkpt lat="48.27457" lon="3.02462">
        <ele>144.60000610352</ele>
        <time>2022-04-14T14:32:27Z</time>
      </trkpt>
      <trkpt lat="48.27451" lon="3.0246">
        <ele>145</ele>
        <time>2022-04-14T14:32:32Z</time>
      </trkpt>
      <trkpt lat="48.27445" lon="3.02457">
        <ele>145.19999694824</ele>
        <time>2022-04-14T14:32:37Z</time>
      </trkpt>
      <trkpt lat="48.27438" lon="3.02455">
        <ele>145.60000610352</ele>
        <time>2022-04-14T14:32:42Z</time>
      </trkpt>
      <trkpt lat="48.27433" lon="3.02452">
        <ele>146</ele>
        <time>2022-04-14T14:32:47Z</time>
      </trkpt>
      <trkpt lat="48.27428" lon="3.0245">
        <ele>146.60000610352</ele>
        <time>2022-04-14T14:32:52Z</time>
      </trkpt>
      <trkpt lat="48.27423" lon="3.02448">
        <ele>147</ele>
        <time>2022-04-14T14:32:57Z</time>
      </trkpt>
      <trkpt lat="48.27419" lon="3.02446">
        <ele>147.39999389648</ele>
        <time>2022-04-14T14:33:02Z</time>
      </trkpt>
      <trkpt lat="48.27415" lon="3.02445">
        <ele>147.80000305176</ele>
        <time>2022-04-14T14:33:07Z</time>
      </trkpt>
      <trkpt lat="48.27411" lon="3.02444">
        <ele>148</ele>
        <time>2022-04-14T14:33:12Z</time>
      </trkpt>
      <trkpt lat="48.27408" lon="3.02442">
        <ele>148.39999389648</ele>
        <time>2022-04-14T14:33:17Z</time>
      </trkpt>
      <trkpt lat="48.27404" lon="3.0244">
        <ele>148.80000305176</ele>
        <time>2022-04-14T14:33:22Z</time>
      </trkpt>
      <trkpt lat="48.27403" lon="3.0244">
        <ele>149</ele>
        <time>2022-04-14T14:33:24Z</time>
      </trkpt>
      <trkpt lat="48.27118" lon="3.02419">
        <ele>151.60000610352</ele>
        <time>2022-04-14T14:37:25Z</time>
      </trkpt>
      <trkpt lat="48.27111" lon="3.02419">
        <ele>151.60000610352</ele>
        <time>2022-04-14T14:37:30Z</time>
      </trkpt>
      <trkpt lat="48.27104" lon="3.0242">
        <ele>151.60000610352</ele>
        <time>2022-04-14T14:37:35Z</time>
      </trkpt>
      <trkpt lat="48.27097" lon="3.02419">
        <ele>151.39999389648</ele>
        <time>2022-04-14T14:37:40Z</time>
      </trkpt>
      <trkpt lat="48.2709" lon="3.02419">
        <ele>151.39999389648</ele>
        <time>2022-04-14T14:37:45Z</time>
      </trkpt>
      <trkpt lat="48.27085" lon="3.02419">
        <ele>151.19999694824</ele>
        <time>2022-04-14T14:37:50Z</time>
      </trkpt>
      <trkpt lat="48.27079" lon="3.02419">
        <ele>151</ele>
        <time>2022-04-14T14:37:55Z</time>
      </trkpt>
      <trkpt lat="48.27073" lon="3.02419">
        <ele>150.80000305176</ele>
        <time>2022-04-14T14:38:00Z</time>
      </trkpt>
      <trkpt lat="48.27066" lon="3.0242">
        <ele>150.60000610352</ele>
        <time>2022-04-14T14:38:05Z</time>
      </trkpt>
      <trkpt lat="48.2706" lon="3.02419">
        <ele>150.39999389648</ele>
        <time>2022-04-14T14:38:10Z</time>
      </trkpt>
      <trkpt lat="48.27053" lon="3.02419">
        <ele>150.39999389648</ele>
        <time>2022-04-14T14:38:15Z</time>
      </trkpt>
      <trkpt lat="48.27047" lon="3.02418">
        <ele>150.39999389648</ele>
        <time>2022-04-14T14:38:20Z</time>
      </trkpt>
      <trkpt lat="48.2704" lon="3.02418">
        <ele>150.39999389648</ele>
        <time>2022-04-14T14:38:25Z</time>
      </trkpt>
      <trkpt lat="48.27034" lon="3.02417">
        <ele>150.39999389648</ele>
        <time>2022-04-14T14:38:30Z</time>
      </trkpt>
      <trkpt lat="48.27027" lon="3.02416">
        <ele>150.39999389648</ele>
        <time>2022-04-14T14:38:35Z</time>
      </trkpt>
      <trkpt lat="48.27021" lon="3.02414">
        <ele>150.60000610352</ele>
        <time>2022-04-14T14:38:40Z</time>
      </trkpt>
      <trkpt lat="48.27015" lon="3.02412">
        <ele>150.80000305176</ele>
        <time>2022-04-14T14:38:45Z</time>
      </trkpt>
      <trkpt lat="48.27008" lon="3.02411">
        <ele>150.80000305176</ele>
        <time>2022-04-14T14:38:50Z</time>
      </trkpt>
      <trkpt lat="48.27003" lon="3.02408">
        <ele>150.80000305176</ele>
        <time>2022-04-14T14:38:55Z</time>
      </trkpt>
      <trkpt lat="48.26997" lon="3.02406">
        <ele>150.80000305176</ele>
        <time>2022-04-14T14:39:00Z</time>
      </trkpt>
      <trkpt lat="48.2699" lon="3.02403">
        <ele>151</ele>
        <time>2022-04-14T14:39:05Z</time>
      </trkpt>
      <trkpt lat="48.26984" lon="3.02402">
        <ele>150.80000305176</ele>
        <time>2022-04-14T14:39:10Z</time>
      </trkpt>
      <trkpt lat="48.26978" lon="3.024">
        <ele>150.80000305176</ele>
        <time>2022-04-14T14:39:15Z</time>
      </trkpt>
      <trkpt lat="48.26973" lon="3.02398">
        <ele>150.80000305176</ele>
        <time>2022-04-14T14:39:20Z</time>
      </trkpt>
      <trkpt lat="48.26966" lon="3.02397">
        <ele>150.80000305176</ele>
        <time>2022-04-14T14:39:25Z</time>
      </trkpt>
      <trkpt lat="48.26961" lon="3.02395">
        <ele>150.80000305176</ele>
        <time>2022-04-14T14:39:30Z</time>
      </trkpt>
      <trkpt lat="48.26955" lon="3.02393">
        <ele>150.80000305176</ele>
        <time>2022-04-14T14:39:35Z</time>
      </trkpt>
      <trkpt lat="48.26949" lon="3.02391">
        <ele>151</ele>
        <time>2022-04-14T14:39:40Z</time>
      </trkpt>
      <trkpt lat="48.26943" lon="3.02388">
        <ele>151.19999694824</ele>
        <time>2022-04-14T14:39:45Z</time>
      </trkpt>
      <trkpt lat="48.26937" lon="3.02386">
        <ele>151.19999694824</ele>
        <time>2022-04-14T14:39:50Z</time>
      </trkpt>
      <trkpt lat="48.26932" lon="3.02385">
        <ele>151.19999694824</ele>
        <time>2022-04-14T14:39:55Z</time>
      </trkpt>
      <trkpt lat="48.26926" lon="3.02383">
        <ele>151.39999389648</ele>
        <time>2022-04-14T14:40:00Z</time>
      </trkpt>
      <trkpt lat="48.2692" lon="3.02381">
        <ele>151.60000610352</ele>
        <time>2022-04-14T14:40:05Z</time>
      </trkpt>
      <trkpt lat="48.26914" lon="3.02378">
        <ele>151.80000305176</ele>
        <time>2022-04-14T14:40:10Z</time>
      </trkpt>
      <trkpt lat="48.26908" lon="3.02376">
        <ele>151.80000305176</ele>
        <time>2022-04-14T14:40:15Z</time>
      </trkpt>
      <trkpt lat="48.26902" lon="3.02374">
        <ele>152</ele>
        <time>2022-04-14T14:40:20Z</time>
      </trkpt>
      <trkpt lat="48.26896" lon="3.02373">
        <ele>152.19999694824</ele>
        <time>2022-04-14T14:40:25Z</time>
      </trkpt>
      <trkpt lat="48.2689" lon="3.0237">
        <ele>152.39999389648</ele>
        <time>2022-04-14T14:40:30Z</time>
      </trkpt>
      <trkpt lat="48.26885" lon="3.02368">
        <ele>152.39999389648</ele>
        <time>2022-04-14T14:40:35Z</time>
      </trkpt>
      <trkpt lat="48.26879" lon="3.02367">
        <ele>152.60000610352</ele>
        <time>2022-04-14T14:40:40Z</time>
      </trkpt>
      <trkpt lat="48.26873" lon="3.02365">
        <ele>152.60000610352</ele>
        <time>2022-04-14T14:40:45Z</time>
      </trkpt>
      <trkpt lat="48.26868" lon="3.02363">
        <ele>152.80000305176</ele>
        <time>2022-04-14T14:40:50Z</time>
      </trkpt>
      <trkpt lat="48.26862" lon="3.02362">
        <ele>152.80000305176</ele>
        <time>2022-04-14T14:40:55Z</time>
      </trkpt>
      <trkpt lat="48.26856" lon="3.0236">
        <ele>153</ele>
        <time>2022-04-14T14:41:00Z</time>
      </trkpt>
      <trkpt lat="48.2685" lon="3.02359">
        <ele>153</ele>
        <time>2022-04-14T14:41:05Z</time>
      </trkpt>
      <trkpt lat="48.26844" lon="3.02358">
        <ele>153.19999694824</ele>
        <time>2022-04-14T14:41:10Z</time>
      </trkpt>
      <trkpt lat="48.26838" lon="3.02357">
        <ele>153.19999694824</ele>
        <time>2022-04-14T14:41:15Z</time>
      </trkpt>
      <trkpt lat="48.26832" lon="3.02357">
        <ele>153.19999694824</ele>
        <time>2022-04-14T14:41:20Z</time>
      </trkpt>
      <trkpt lat="48.26827" lon="3.02355">
        <ele>153</ele>
        <time>2022-04-14T14:41:25Z</time>
      </trkpt>
      <trkpt lat="48.26821" lon="3.02354">
        <ele>153</ele>
        <time>2022-04-14T14:41:30Z</time>
      </trkpt>
      <trkpt lat="48.26815" lon="3.02353">
        <ele>153</ele>
        <time>2022-04-14T14:41:35Z</time>
      </trkpt>
      <trkpt lat="48.26809" lon="3.02353">
        <ele>152.80000305176</ele>
        <time>2022-04-14T14:41:40Z</time>
      </trkpt>
      <trkpt lat="48.26803" lon="3.02353">
        <ele>152.60000610352</ele>
        <time>2022-04-14T14:41:45Z</time>
      </trkpt>
      <trkpt lat="48.26797" lon="3.02353">
        <ele>152.60000610352</ele>
        <time>2022-04-14T14:41:50Z</time>
      </trkpt>
      <trkpt lat="48.26791" lon="3.02352">
        <ele>152.39999389648</ele>
        <time>2022-04-14T14:41:55Z</time>
      </trkpt>
      <trkpt lat="48.26785" lon="3.02353">
        <ele>152.39999389648</ele>
        <time>2022-04-14T14:42:00Z</time>
      </trkpt>
      <trkpt lat="48.26779" lon="3.02353">
        <ele>152.19999694824</ele>
        <time>2022-04-14T14:42:05Z</time>
      </trkpt>
      <trkpt lat="48.26774" lon="3.02354">
        <ele>152</ele>
        <time>2022-04-14T14:42:10Z</time>
      </trkpt>
      <trkpt lat="48.26768" lon="3.02354">
        <ele>152</ele>
        <time>2022-04-14T14:42:15Z</time>
      </trkpt>
      <trkpt lat="48.26762" lon="3.02355">
        <ele>152</ele>
        <time>2022-04-14T14:42:20Z</time>
      </trkpt>
      <trkpt lat="48.26757" lon="3.02357">
        <ele>151.80000305176</ele>
        <time>2022-04-14T14:42:25Z</time>
      </trkpt>
      <trkpt lat="48.26751" lon="3.02358">
        <ele>151.60000610352</ele>
        <time>2022-04-14T14:42:30Z</time>
      </trkpt>
      <trkpt lat="48.26746" lon="3.02359">
        <ele>151.39999389648</ele>
        <time>2022-04-14T14:42:35Z</time>
      </trkpt>
      <trkpt lat="48.26745" lon="3.02359">
        <ele>151.19999694824</ele>
        <time>2022-04-14T14:42:40Z</time>
      </trkpt>
      <trkpt lat="48.26735" lon="3.02364">
        <ele>151.19999694824</ele>
        <time>2022-04-14T14:45:40Z</time>
      </trkpt>
      <trkpt lat="48.26729" lon="3.02364">
        <ele>150.60000610352</ele>
        <time>2022-04-14T14:45:45Z</time>
      </trkpt>
      <trkpt lat="48.26725" lon="3.02365">
        <ele>150.19999694824</ele>
        <time>2022-04-14T14:45:50Z</time>
      </trkpt>
      <trkpt lat="48.2672" lon="3.02366">
        <ele>150</ele>
        <time>2022-04-14T14:45:55Z</time>
      </trkpt>
      <trkpt lat="48.26718" lon="3.02364">
        <ele>149.60000610352</ele>
        <time>2022-04-14T14:46:00Z</time>
      </trkpt>
      <trkpt lat="48.26718" lon="3.02364">
        <ele>149.60000610352</ele>
        <time>2022-04-14T14:46:01Z</time>
      </trkpt>
      <trkpt lat="48.26674" lon="3.02374">
        <ele>148.39999389648</ele>
        <time>2022-04-14T14:46:45Z</time>
      </trkpt>
      <trkpt lat="48.26666" lon="3.02375">
        <ele>148.39999389648</ele>
        <time>2022-04-14T14:46:50Z</time>
      </trkpt>
      <trkpt lat="48.26658" lon="3.02376">
        <ele>148.39999389648</ele>
        <time>2022-04-14T14:46:55Z</time>
      </trkpt>
      <trkpt lat="48.26649" lon="3.02377">
        <ele>148.60000610352</ele>
        <time>2022-04-14T14:47:00Z</time>
      </trkpt>
      <trkpt lat="48.26642" lon="3.02378">
        <ele>148.80000305176</ele>
        <time>2022-04-14T14:47:05Z</time>
      </trkpt>
      <trkpt lat="48.26634" lon="3.0238">
        <ele>148.60000610352</ele>
        <time>2022-04-14T14:47:10Z</time>
      </trkpt>
      <trkpt lat="48.26625" lon="3.0238">
        <ele>148.80000305176</ele>
        <time>2022-04-14T14:47:15Z</time>
      </trkpt>
      <trkpt lat="48.26618" lon="3.02381">
        <ele>148.80000305176</ele>
        <time>2022-04-14T14:47:20Z</time>
      </trkpt>
      <trkpt lat="48.26611" lon="3.02383">
        <ele>148.80000305176</ele>
        <time>2022-04-14T14:47:25Z</time>
      </trkpt>
      <trkpt lat="48.26604" lon="3.02383">
        <ele>149.19999694824</ele>
        <time>2022-04-14T14:47:30Z</time>
      </trkpt>
      <trkpt lat="48.26598" lon="3.02383">
        <ele>149.39999389648</ele>
        <time>2022-04-14T14:47:35Z</time>
      </trkpt>
      <trkpt lat="48.26591" lon="3.02383">
        <ele>149.60000610352</ele>
        <time>2022-04-14T14:47:40Z</time>
      </trkpt>
      <trkpt lat="48.26585" lon="3.02384">
        <ele>149.80000305176</ele>
        <time>2022-04-14T14:47:45Z</time>
      </trkpt>
      <trkpt lat="48.26579" lon="3.02385">
        <ele>150</ele>
        <time>2022-04-14T14:47:50Z</time>
      </trkpt>
      <trkpt lat="48.26573" lon="3.02385">
        <ele>150.39999389648</ele>
        <time>2022-04-14T14:47:55Z</time>
      </trkpt>
      <trkpt lat="48.26567" lon="3.02385">
        <ele>150.80000305176</ele>
        <time>2022-04-14T14:48:00Z</time>
      </trkpt>
      <trkpt lat="48.26562" lon="3.02385">
        <ele>151.19999694824</ele>
        <time>2022-04-14T14:48:05Z</time>
      </trkpt>
      <trkpt lat="48.26556" lon="3.02385">
        <ele>151.39999389648</ele>
        <time>2022-04-14T14:48:10Z</time>
      </trkpt>
      <trkpt lat="48.2655" lon="3.02385">
        <ele>151.60000610352</ele>
        <time>2022-04-14T14:48:15Z</time>
      </trkpt>
      <trkpt lat="48.26544" lon="3.02385">
        <ele>151.80000305176</ele>
        <time>2022-04-14T14:48:20Z</time>
      </trkpt>
      <trkpt lat="48.26537" lon="3.02384">
        <ele>152</ele>
        <time>2022-04-14T14:48:25Z</time>
      </trkpt>
      <trkpt lat="48.26533" lon="3.02385">
        <ele>152.19999694824</ele>
        <time>2022-04-14T14:48:30Z</time>
      </trkpt>
      <trkpt lat="48.26526" lon="3.02384">
        <ele>152.39999389648</ele>
        <time>2022-04-14T14:48:35Z</time>
      </trkpt>
      <trkpt lat="48.2652" lon="3.02384">
        <ele>152.80000305176</ele>
        <time>2022-04-14T14:48:40Z</time>
      </trkpt>
      <trkpt lat="48.26513" lon="3.02384">
        <ele>153</ele>
        <time>2022-04-14T14:48:45Z</time>
      </trkpt>
      <trkpt lat="48.26507" lon="3.02384">
        <ele>153.19999694824</ele>
        <time>2022-04-14T14:48:50Z</time>
      </trkpt>
      <trkpt lat="48.26501" lon="3.02383">
        <ele>153.39999389648</ele>
        <time>2022-04-14T14:48:55Z</time>
      </trkpt>
      <trkpt lat="48.26495" lon="3.02383">
        <ele>153.80000305176</ele>
        <time>2022-04-14T14:49:00Z</time>
      </trkpt>
      <trkpt lat="48.26489" lon="3.02383">
        <ele>154.19999694824</ele>
        <time>2022-04-14T14:49:05Z</time>
      </trkpt>
      <trkpt lat="48.26482" lon="3.02382">
        <ele>154.39999389648</ele>
        <time>2022-04-14T14:49:10Z</time>
      </trkpt>
      <trkpt lat="48.26476" lon="3.02381">
        <ele>154.39999389648</ele>
        <time>2022-04-14T14:49:15Z</time>
      </trkpt>
      <trkpt lat="48.2647" lon="3.02381">
        <ele>154.80000305176</ele>
        <time>2022-04-14T14:49:20Z</time>
      </trkpt>
      <trkpt lat="48.26464" lon="3.0238">
        <ele>155.19999694824</ele>
        <time>2022-04-14T14:49:25Z</time>
      </trkpt>
      <trkpt lat="48.26458" lon="3.0238">
        <ele>155.39999389648</ele>
        <time>2022-04-14T14:49:30Z</time>
      </trkpt>
      <trkpt lat="48.26452" lon="3.02379">
        <ele>155.60000610352</ele>
        <time>2022-04-14T14:49:35Z</time>
      </trkpt>
      <trkpt lat="48.26445" lon="3.02378">
        <ele>155.80000305176</ele>
        <time>2022-04-14T14:49:40Z</time>
      </trkpt>
      <trkpt lat="48.26439" lon="3.02377">
        <ele>155.80000305176</ele>
        <time>2022-04-14T14:49:45Z</time>
      </trkpt>
      <trkpt lat="48.26433" lon="3.02376">
        <ele>156</ele>
        <time>2022-04-14T14:49:50Z</time>
      </trkpt>
      <trkpt lat="48.26426" lon="3.02373">
        <ele>156.19999694824</ele>
        <time>2022-04-14T14:49:55Z</time>
      </trkpt>
      <trkpt lat="48.2642" lon="3.02373">
        <ele>156.39999389648</ele>
        <time>2022-04-14T14:50:00Z</time>
      </trkpt>
      <trkpt lat="48.26415" lon="3.02372">
        <ele>156.60000610352</ele>
        <time>2022-04-14T14:50:05Z</time>
      </trkpt>
      <trkpt lat="48.26409" lon="3.02371">
        <ele>156.60000610352</ele>
        <time>2022-04-14T14:50:10Z</time>
      </trkpt>
      <trkpt lat="48.26403" lon="3.02371">
        <ele>156.80000305176</ele>
        <time>2022-04-14T14:50:15Z</time>
      </trkpt>
      <trkpt lat="48.26397" lon="3.0237">
        <ele>157</ele>
        <time>2022-04-14T14:50:20Z</time>
      </trkpt>
      <trkpt lat="48.26391" lon="3.02369">
        <ele>157.19999694824</ele>
        <time>2022-04-14T14:50:25Z</time>
      </trkpt>
      <trkpt lat="48.26385" lon="3.02368">
        <ele>157.19999694824</ele>
        <time>2022-04-14T14:50:30Z</time>
      </trkpt>
      <trkpt lat="48.26379" lon="3.02366">
        <ele>157.19999694824</ele>
        <time>2022-04-14T14:50:35Z</time>
      </trkpt>
      <trkpt lat="48.26373" lon="3.02365">
        <ele>157.39999389648</ele>
        <time>2022-04-14T14:50:40Z</time>
      </trkpt>
      <trkpt lat="48.26367" lon="3.02364">
        <ele>157.60000610352</ele>
        <time>2022-04-14T14:50:45Z</time>
      </trkpt>
      <trkpt lat="48.26361" lon="3.02362">
        <ele>157.80000305176</ele>
        <time>2022-04-14T14:50:50Z</time>
      </trkpt>
      <trkpt lat="48.26355" lon="3.02363">
        <ele>158.19999694824</ele>
        <time>2022-04-14T14:50:55Z</time>
      </trkpt>
      <trkpt lat="48.26349" lon="3.02363">
        <ele>158.19999694824</ele>
        <time>2022-04-14T14:51:00Z</time>
      </trkpt>
      <trkpt lat="48.26343" lon="3.02363">
        <ele>158.19999694824</ele>
        <time>2022-04-14T14:51:05Z</time>
      </trkpt>
      <trkpt lat="48.26337" lon="3.02363">
        <ele>158.39999389648</ele>
        <time>2022-04-14T14:51:10Z</time>
      </trkpt>
      <trkpt lat="48.26332" lon="3.02364">
        <ele>158.60000610352</ele>
        <time>2022-04-14T14:51:15Z</time>
      </trkpt>
      <trkpt lat="48.26326" lon="3.02365">
        <ele>158.80000305176</ele>
        <time>2022-04-14T14:51:20Z</time>
      </trkpt>
      <trkpt lat="48.2632" lon="3.02365">
        <ele>159</ele>
        <time>2022-04-14T14:51:25Z</time>
      </trkpt>
      <trkpt lat="48.26315" lon="3.02368">
        <ele>159.19999694824</ele>
        <time>2022-04-14T14:51:30Z</time>
      </trkpt>
      <trkpt lat="48.2631" lon="3.02369">
        <ele>159.39999389648</ele>
        <time>2022-04-14T14:51:35Z</time>
      </trkpt>
      <trkpt lat="48.26303" lon="3.02371">
        <ele>159.60000610352</ele>
        <time>2022-04-14T14:51:40Z</time>
      </trkpt>
      <trkpt lat="48.26297" lon="3.02373">
        <ele>159.80000305176</ele>
        <time>2022-04-14T14:51:45Z</time>
      </trkpt>
      <trkpt lat="48.26291" lon="3.02375">
        <ele>160</ele>
        <time>2022-04-14T14:51:50Z</time>
      </trkpt>
      <trkpt lat="48.26285" lon="3.02377">
        <ele>160.19999694824</ele>
        <time>2022-04-14T14:51:55Z</time>
      </trkpt>
      <trkpt lat="48.26279" lon="3.02379">
        <ele>160.39999389648</ele>
        <time>2022-04-14T14:52:00Z</time>
      </trkpt>
      <trkpt lat="48.26274" lon="3.02381">
        <ele>160.60000610352</ele>
        <time>2022-04-14T14:52:05Z</time>
      </trkpt>
      <trkpt lat="48.26268" lon="3.02383">
        <ele>160.60000610352</ele>
        <time>2022-04-14T14:52:10Z</time>
      </trkpt>
      <trkpt lat="48.26261" lon="3.02384">
        <ele>160.80000305176</ele>
        <time>2022-04-14T14:52:15Z</time>
      </trkpt>
      <trkpt lat="48.26255" lon="3.02385">
        <ele>161</ele>
        <time>2022-04-14T14:52:20Z</time>
      </trkpt>
      <trkpt lat="48.26249" lon="3.02386">
        <ele>161.19999694824</ele>
        <time>2022-04-14T14:52:25Z</time>
      </trkpt>
      <trkpt lat="48.26242" lon="3.02387">
        <ele>161.39999389648</ele>
        <time>2022-04-14T14:52:30Z</time>
      </trkpt>
      <trkpt lat="48.26236" lon="3.02387">
        <ele>161.60000610352</ele>
        <time>2022-04-14T14:52:35Z</time>
      </trkpt>
      <trkpt lat="48.26231" lon="3.02387">
        <ele>161.60000610352</ele>
        <time>2022-04-14T14:52:40Z</time>
      </trkpt>
      <trkpt lat="48.26224" lon="3.02388">
        <ele>162</ele>
        <time>2022-04-14T14:52:45Z</time>
      </trkpt>
      <trkpt lat="48.26218" lon="3.02388">
        <ele>162</ele>
        <time>2022-04-14T14:52:50Z</time>
      </trkpt>
      <trkpt lat="48.26212" lon="3.0239">
        <ele>162.19999694824</ele>
        <time>2022-04-14T14:52:55Z</time>
      </trkpt>
      <trkpt lat="48.26208" lon="3.02396">
        <ele>162.19999694824</ele>
        <time>2022-04-14T14:53:00Z</time>
      </trkpt>
      <trkpt lat="48.26206" lon="3.02404">
        <ele>162.39999389648</ele>
        <time>2022-04-14T14:53:05Z</time>
      </trkpt>
      <trkpt lat="48.26203" lon="3.02413">
        <ele>162.60000610352</ele>
        <time>2022-04-14T14:53:10Z</time>
      </trkpt>
      <trkpt lat="48.262" lon="3.02421">
        <ele>162.60000610352</ele>
        <time>2022-04-14T14:53:15Z</time>
      </trkpt>
      <trkpt lat="48.26198" lon="3.0243">
        <ele>162.80000305176</ele>
        <time>2022-04-14T14:53:20Z</time>
      </trkpt>
      <trkpt lat="48.26196" lon="3.02439">
        <ele>162.80000305176</ele>
        <time>2022-04-14T14:53:25Z</time>
      </trkpt>
      <trkpt lat="48.26194" lon="3.02447">
        <ele>162.80000305176</ele>
        <time>2022-04-14T14:53:30Z</time>
      </trkpt>
      <trkpt lat="48.26192" lon="3.02455">
        <ele>163</ele>
        <time>2022-04-14T14:53:35Z</time>
      </trkpt>
      <trkpt lat="48.2619" lon="3.02463">
        <ele>163</ele>
        <time>2022-04-14T14:53:40Z</time>
      </trkpt>
      <trkpt lat="48.26188" lon="3.02471">
        <ele>163.19999694824</ele>
        <time>2022-04-14T14:53:45Z</time>
      </trkpt>
      <trkpt lat="48.26186" lon="3.02479">
        <ele>163.39999389648</ele>
        <time>2022-04-14T14:53:50Z</time>
      </trkpt>
      <trkpt lat="48.26184" lon="3.02489">
        <ele>163.39999389648</ele>
        <time>2022-04-14T14:53:55Z</time>
      </trkpt>
      <trkpt lat="48.26182" lon="3.02497">
        <ele>163.60000610352</ele>
        <time>2022-04-14T14:54:00Z</time>
      </trkpt>
      <trkpt lat="48.2618" lon="3.02505">
        <ele>163.80000305176</ele>
        <time>2022-04-14T14:54:05Z</time>
      </trkpt>
      <trkpt lat="48.26178" lon="3.02513">
        <ele>163.80000305176</ele>
        <time>2022-04-14T14:54:10Z</time>
      </trkpt>
      <trkpt lat="48.26176" lon="3.02522">
        <ele>163.80000305176</ele>
        <time>2022-04-14T14:54:15Z</time>
      </trkpt>
      <trkpt lat="48.26175" lon="3.0253">
        <ele>163.80000305176</ele>
        <time>2022-04-14T14:54:20Z</time>
      </trkpt>
      <trkpt lat="48.26173" lon="3.02539">
        <ele>163.80000305176</ele>
        <time>2022-04-14T14:54:25Z</time>
      </trkpt>
      <trkpt lat="48.26171" lon="3.02548">
        <ele>163.80000305176</ele>
        <time>2022-04-14T14:54:30Z</time>
      </trkpt>
      <trkpt lat="48.26169" lon="3.02556">
        <ele>163.80000305176</ele>
        <time>2022-04-14T14:54:35Z</time>
      </trkpt>
      <trkpt lat="48.26167" lon="3.02565">
        <ele>163.60000610352</ele>
        <time>2022-04-14T14:54:40Z</time>
      </trkpt>
      <trkpt lat="48.26165" lon="3.02573">
        <ele>163.60000610352</ele>
        <time>2022-04-14T14:54:45Z</time>
      </trkpt>
      <trkpt lat="48.26162" lon="3.02579">
        <ele>163.60000610352</ele>
        <time>2022-04-14T14:54:50Z</time>
      </trkpt>
      <trkpt lat="48.26157" lon="3.02577">
        <ele>163.80000305176</ele>
        <time>2022-04-14T14:54:55Z</time>
      </trkpt>
      <trkpt lat="48.26151" lon="3.02572">
        <ele>163.80000305176</ele>
        <time>2022-04-14T14:55:00Z</time>
      </trkpt>
      <trkpt lat="48.26146" lon="3.02567">
        <ele>163.80000305176</ele>
        <time>2022-04-14T14:55:05Z</time>
      </trkpt>
      <trkpt lat="48.26141" lon="3.02562">
        <ele>163.80000305176</ele>
        <time>2022-04-14T14:55:10Z</time>
      </trkpt>
      <trkpt lat="48.26135" lon="3.02558">
        <ele>163.60000610352</ele>
        <time>2022-04-14T14:55:15Z</time>
      </trkpt>
      <trkpt lat="48.2613" lon="3.02552">
        <ele>163.60000610352</ele>
        <time>2022-04-14T14:55:20Z</time>
      </trkpt>
      <trkpt lat="48.26125" lon="3.02546">
        <ele>163.39999389648</ele>
        <time>2022-04-14T14:55:25Z</time>
      </trkpt>
      <trkpt lat="48.26121" lon="3.0254">
        <ele>163.39999389648</ele>
        <time>2022-04-14T14:55:30Z</time>
      </trkpt>
      <trkpt lat="48.26116" lon="3.02535">
        <ele>163.39999389648</ele>
        <time>2022-04-14T14:55:35Z</time>
      </trkpt>
      <trkpt lat="48.26111" lon="3.02528">
        <ele>163</ele>
        <time>2022-04-14T14:55:40Z</time>
      </trkpt>
      <trkpt lat="48.26107" lon="3.02523">
        <ele>163</ele>
        <time>2022-04-14T14:55:45Z</time>
      </trkpt>
      <trkpt lat="48.26102" lon="3.02517">
        <ele>163</ele>
        <time>2022-04-14T14:55:50Z</time>
      </trkpt>
      <trkpt lat="48.26098" lon="3.02512">
        <ele>162.80000305176</ele>
        <time>2022-04-14T14:55:55Z</time>
      </trkpt>
      <trkpt lat="48.26094" lon="3.02507">
        <ele>162.80000305176</ele>
        <time>2022-04-14T14:56:00Z</time>
      </trkpt>
      <trkpt lat="48.26093" lon="3.02506">
        <ele>162.39999389648</ele>
        <time>2022-04-14T14:56:05Z</time>
      </trkpt>
      <trkpt lat="48.26081" lon="3.02487">
        <ele>161.60000610352</ele>
        <time>2022-04-14T14:57:53Z</time>
      </trkpt>
      <trkpt lat="48.26076" lon="3.02482">
        <ele>161.60000610352</ele>
        <time>2022-04-14T14:57:58Z</time>
      </trkpt>
      <trkpt lat="48.26072" lon="3.02476">
        <ele>161.39999389648</ele>
        <time>2022-04-14T14:58:03Z</time>
      </trkpt>
      <trkpt lat="48.26068" lon="3.0247">
        <ele>161.39999389648</ele>
        <time>2022-04-14T14:58:08Z</time>
      </trkpt>
      <trkpt lat="48.26064" lon="3.02464">
        <ele>161.39999389648</ele>
        <time>2022-04-14T14:58:13Z</time>
      </trkpt>
      <trkpt lat="48.26059" lon="3.02459">
        <ele>161</ele>
        <time>2022-04-14T14:58:18Z</time>
      </trkpt>
      <trkpt lat="48.26055" lon="3.02453">
        <ele>160.80000305176</ele>
        <time>2022-04-14T14:58:23Z</time>
      </trkpt>
      <trkpt lat="48.26051" lon="3.02446">
        <ele>160.60000610352</ele>
        <time>2022-04-14T14:58:28Z</time>
      </trkpt>
      <trkpt lat="48.26047" lon="3.02439">
        <ele>160.60000610352</ele>
        <time>2022-04-14T14:58:33Z</time>
      </trkpt>
      <trkpt lat="48.26042" lon="3.02432">
        <ele>160.60000610352</ele>
        <time>2022-04-14T14:58:38Z</time>
      </trkpt>
      <trkpt lat="48.26038" lon="3.02425">
        <ele>160.60000610352</ele>
        <time>2022-04-14T14:58:43Z</time>
      </trkpt>
      <trkpt lat="48.26034" lon="3.02419">
        <ele>160.19999694824</ele>
        <time>2022-04-14T14:58:48Z</time>
      </trkpt>
      <trkpt lat="48.2603" lon="3.02412">
        <ele>160</ele>
        <time>2022-04-14T14:58:53Z</time>
      </trkpt>
      <trkpt lat="48.26026" lon="3.02405">
        <ele>159.39999389648</ele>
        <time>2022-04-14T14:58:58Z</time>
      </trkpt>
      <trkpt lat="48.26022" lon="3.024">
        <ele>159</ele>
        <time>2022-04-14T14:59:03Z</time>
      </trkpt>
      <trkpt lat="48.26018" lon="3.02396">
        <ele>158.39999389648</ele>
        <time>2022-04-14T14:59:08Z</time>
      </trkpt>
      <trkpt lat="48.26014" lon="3.02391">
        <ele>157.80000305176</ele>
        <time>2022-04-14T14:59:13Z</time>
      </trkpt>
      <trkpt lat="48.26009" lon="3.02386">
        <ele>157.39999389648</ele>
        <time>2022-04-14T14:59:18Z</time>
      </trkpt>
      <trkpt lat="48.26004" lon="3.02382">
        <ele>157.39999389648</ele>
        <time>2022-04-14T14:59:23Z</time>
      </trkpt>
      <trkpt lat="48.26" lon="3.0238">
        <ele>157.39999389648</ele>
        <time>2022-04-14T14:59:28Z</time>
      </trkpt>
      <trkpt lat="48.25996" lon="3.02382">
        <ele>157.19999694824</ele>
        <time>2022-04-14T14:59:33Z</time>
      </trkpt>
      <trkpt lat="48.25992" lon="3.02386">
        <ele>157</ele>
        <time>2022-04-14T14:59:38Z</time>
      </trkpt>
      <trkpt lat="48.25989" lon="3.0239">
        <ele>156.80000305176</ele>
        <time>2022-04-14T14:59:43Z</time>
      </trkpt>
      <trkpt lat="48.25986" lon="3.02395">
        <ele>156.60000610352</ele>
        <time>2022-04-14T14:59:48Z</time>
      </trkpt>
      <trkpt lat="48.25982" lon="3.02402">
        <ele>156.60000610352</ele>
        <time>2022-04-14T14:59:53Z</time>
      </trkpt>
      <trkpt lat="48.25977" lon="3.02408">
        <ele>156.60000610352</ele>
        <time>2022-04-14T14:59:58Z</time>
      </trkpt>
      <trkpt lat="48.25973" lon="3.02415">
        <ele>156.60000610352</ele>
        <time>2022-04-14T15:00:03Z</time>
      </trkpt>
      <trkpt lat="48.25969" lon="3.02422">
        <ele>156.60000610352</ele>
        <time>2022-04-14T15:00:08Z</time>
      </trkpt>
      <trkpt lat="48.25965" lon="3.02428">
        <ele>156.39999389648</ele>
        <time>2022-04-14T15:00:13Z</time>
      </trkpt>
      <trkpt lat="48.2596" lon="3.02435">
        <ele>156.19999694824</ele>
        <time>2022-04-14T15:00:18Z</time>
      </trkpt>
      <trkpt lat="48.25956" lon="3.02443">
        <ele>156.19999694824</ele>
        <time>2022-04-14T15:00:23Z</time>
      </trkpt>
      <trkpt lat="48.25952" lon="3.02452">
        <ele>156.39999389648</ele>
        <time>2022-04-14T15:00:28Z</time>
      </trkpt>
      <trkpt lat="48.25948" lon="3.02459">
        <ele>156.60000610352</ele>
        <time>2022-04-14T15:00:33Z</time>
      </trkpt>
      <trkpt lat="48.25944" lon="3.02465">
        <ele>156.60000610352</ele>
        <time>2022-04-14T15:00:38Z</time>
      </trkpt>
      <trkpt lat="48.2594" lon="3.02472">
        <ele>156.80000305176</ele>
        <time>2022-04-14T15:00:43Z</time>
      </trkpt>
      <trkpt lat="48.25936" lon="3.02479">
        <ele>156.80000305176</ele>
        <time>2022-04-14T15:00:48Z</time>
      </trkpt>
      <trkpt lat="48.25931" lon="3.02483">
        <ele>156.80000305176</ele>
        <time>2022-04-14T15:00:53Z</time>
      </trkpt>
      <trkpt lat="48.25926" lon="3.02482">
        <ele>156.80000305176</ele>
        <time>2022-04-14T15:00:58Z</time>
      </trkpt>
      <trkpt lat="48.25921" lon="3.02477">
        <ele>156.60000610352</ele>
        <time>2022-04-14T15:01:03Z</time>
      </trkpt>
      <trkpt lat="48.25916" lon="3.02472">
        <ele>156.39999389648</ele>
        <time>2022-04-14T15:01:08Z</time>
      </trkpt>
      <trkpt lat="48.2591" lon="3.02467">
        <ele>156.39999389648</ele>
        <time>2022-04-14T15:01:13Z</time>
      </trkpt>
      <trkpt lat="48.25905" lon="3.02462">
        <ele>156</ele>
        <time>2022-04-14T15:01:18Z</time>
      </trkpt>
      <trkpt lat="48.259" lon="3.02458">
        <ele>155.39999389648</ele>
        <time>2022-04-14T15:01:23Z</time>
      </trkpt>
      <trkpt lat="48.25894" lon="3.02455">
        <ele>154.80000305176</ele>
        <time>2022-04-14T15:01:28Z</time>
      </trkpt>
      <trkpt lat="48.25888" lon="3.02459">
        <ele>154.39999389648</ele>
        <time>2022-04-14T15:01:33Z</time>
      </trkpt>
      <trkpt lat="48.25884" lon="3.02466">
        <ele>154.39999389648</ele>
        <time>2022-04-14T15:01:38Z</time>
      </trkpt>
      <trkpt lat="48.25881" lon="3.02473">
        <ele>154.39999389648</ele>
        <time>2022-04-14T15:01:43Z</time>
      </trkpt>
      <trkpt lat="48.25878" lon="3.02482">
        <ele>154.39999389648</ele>
        <time>2022-04-14T15:01:48Z</time>
      </trkpt>
      <trkpt lat="48.25876" lon="3.0249">
        <ele>154.39999389648</ele>
        <time>2022-04-14T15:01:53Z</time>
      </trkpt>
      <trkpt lat="48.25874" lon="3.02499">
        <ele>154.19999694824</ele>
        <time>2022-04-14T15:01:58Z</time>
      </trkpt>
      <trkpt lat="48.25872" lon="3.02507">
        <ele>154</ele>
        <time>2022-04-14T15:02:03Z</time>
      </trkpt>
      <trkpt lat="48.2587" lon="3.02515">
        <ele>154</ele>
        <time>2022-04-14T15:02:08Z</time>
      </trkpt>
      <trkpt lat="48.25868" lon="3.02524">
        <ele>154</ele>
        <time>2022-04-14T15:02:13Z</time>
      </trkpt>
      <trkpt lat="48.25866" lon="3.02532">
        <ele>154</ele>
        <time>2022-04-14T15:02:18Z</time>
      </trkpt>
      <trkpt lat="48.25865" lon="3.0254">
        <ele>153.60000610352</ele>
        <time>2022-04-14T15:02:23Z</time>
      </trkpt>
      <trkpt lat="48.25863" lon="3.02547">
        <ele>153.60000610352</ele>
        <time>2022-04-14T15:02:28Z</time>
      </trkpt>
      <trkpt lat="48.25861" lon="3.02555">
        <ele>153.39999389648</ele>
        <time>2022-04-14T15:02:33Z</time>
      </trkpt>
      <trkpt lat="48.25859" lon="3.02563">
        <ele>152.80000305176</ele>
        <time>2022-04-14T15:02:38Z</time>
      </trkpt>
      <trkpt lat="48.25858" lon="3.0257">
        <ele>152.39999389648</ele>
        <time>2022-04-14T15:02:43Z</time>
      </trkpt>
      <trkpt lat="48.25856" lon="3.02577">
        <ele>152.19999694824</ele>
        <time>2022-04-14T15:02:48Z</time>
      </trkpt>
      <trkpt lat="48.25854" lon="3.02584">
        <ele>151.80000305176</ele>
        <time>2022-04-14T15:02:53Z</time>
      </trkpt>
      <trkpt lat="48.25852" lon="3.02592">
        <ele>151</ele>
        <time>2022-04-14T15:02:58Z</time>
      </trkpt>
      <trkpt lat="48.25851" lon="3.026">
        <ele>150.39999389648</ele>
        <time>2022-04-14T15:03:03Z</time>
      </trkpt>
      <trkpt lat="48.2585" lon="3.02608">
        <ele>149.80000305176</ele>
        <time>2022-04-14T15:03:08Z</time>
      </trkpt>
      <trkpt lat="48.25849" lon="3.02616">
        <ele>149.19999694824</ele>
        <time>2022-04-14T15:03:13Z</time>
      </trkpt>
      <trkpt lat="48.25847" lon="3.02623">
        <ele>149</ele>
        <time>2022-04-14T15:03:18Z</time>
      </trkpt>
      <trkpt lat="48.25845" lon="3.02631">
        <ele>148.60000610352</ele>
        <time>2022-04-14T15:03:23Z</time>
      </trkpt>
      <trkpt lat="48.25844" lon="3.02639">
        <ele>148</ele>
        <time>2022-04-14T15:03:28Z</time>
      </trkpt>
      <trkpt lat="48.25843" lon="3.02647">
        <ele>147.60000610352</ele>
        <time>2022-04-14T15:03:33Z</time>
      </trkpt>
      <trkpt lat="48.25841" lon="3.02656">
        <ele>147.39999389648</ele>
        <time>2022-04-14T15:03:38Z</time>
      </trkpt>
      <trkpt lat="48.2584" lon="3.02663">
        <ele>147.19999694824</ele>
        <time>2022-04-14T15:03:43Z</time>
      </trkpt>
      <trkpt lat="48.25839" lon="3.02671">
        <ele>147</ele>
        <time>2022-04-14T15:03:48Z</time>
      </trkpt>
      <trkpt lat="48.25837" lon="3.02678">
        <ele>146.80000305176</ele>
        <time>2022-04-14T15:03:53Z</time>
      </trkpt>
      <trkpt lat="48.25833" lon="3.02679">
        <ele>146.60000610352</ele>
        <time>2022-04-14T15:03:58Z</time>
      </trkpt>
      <trkpt lat="48.25828" lon="3.02677">
        <ele>146</ele>
        <time>2022-04-14T15:04:03Z</time>
      </trkpt>
      <trkpt lat="48.25822" lon="3.02674">
        <ele>145.19999694824</ele>
        <time>2022-04-14T15:04:08Z</time>
      </trkpt>
      <trkpt lat="48.25816" lon="3.02672">
        <ele>144.39999389648</ele>
        <time>2022-04-14T15:04:13Z</time>
      </trkpt>
      <trkpt lat="48.25811" lon="3.0267">
        <ele>143.80000305176</ele>
        <time>2022-04-14T15:04:18Z</time>
      </trkpt>
      <trkpt lat="48.25806" lon="3.02666">
        <ele>143</ele>
        <time>2022-04-14T15:04:23Z</time>
      </trkpt>
      <trkpt lat="48.25801" lon="3.02664">
        <ele>142.19999694824</ele>
        <time>2022-04-14T15:04:28Z</time>
      </trkpt>
      <trkpt lat="48.25797" lon="3.02663">
        <ele>141.60000610352</ele>
        <time>2022-04-14T15:04:33Z</time>
      </trkpt>
      <trkpt lat="48.25792" lon="3.02661">
        <ele>141</ele>
        <time>2022-04-14T15:04:38Z</time>
      </trkpt>
      <trkpt lat="48.25787" lon="3.02659">
        <ele>140.19999694824</ele>
        <time>2022-04-14T15:04:43Z</time>
      </trkpt>
      <trkpt lat="48.25782" lon="3.02657">
        <ele>139.80000305176</ele>
        <time>2022-04-14T15:04:48Z</time>
      </trkpt>
      <trkpt lat="48.25778" lon="3.02655">
        <ele>139.19999694824</ele>
        <time>2022-04-14T15:04:53Z</time>
      </trkpt>
      <trkpt lat="48.25776" lon="3.02655">
        <ele>138.80000305176</ele>
        <time>2022-04-14T15:04:58Z</time>
      </trkpt>
      <trkpt lat="48.25776" lon="3.02655">
        <ele>138.60000610352</ele>
        <time>2022-04-14T15:04:59Z</time>
      </trkpt>
      <trkpt lat="48.25756" lon="3.02606">
        <ele>138.39999389648</ele>
        <time>2022-04-14T15:06:52Z</time>
      </trkpt>
      <trkpt lat="48.25755" lon="3.02597">
        <ele>137.80000305176</ele>
        <time>2022-04-14T15:06:57Z</time>
      </trkpt>
      <trkpt lat="48.25753" lon="3.02591">
        <ele>136.60000610352</ele>
        <time>2022-04-14T15:07:02Z</time>
      </trkpt>
      <trkpt lat="48.25752" lon="3.02584">
        <ele>136.19999694824</ele>
        <time>2022-04-14T15:07:07Z</time>
      </trkpt>
      <trkpt lat="48.2575" lon="3.02576">
        <ele>136</ele>
        <time>2022-04-14T15:07:12Z</time>
      </trkpt>
      <trkpt lat="48.25749" lon="3.02569">
        <ele>135.60000610352</ele>
        <time>2022-04-14T15:07:17Z</time>
      </trkpt>
      <trkpt lat="48.25748" lon="3.02563">
        <ele>135.19999694824</ele>
        <time>2022-04-14T15:07:22Z</time>
      </trkpt>
      <trkpt lat="48.25746" lon="3.02558">
        <ele>134.60000610352</ele>
        <time>2022-04-14T15:07:27Z</time>
      </trkpt>
      <trkpt lat="48.25744" lon="3.02554">
        <ele>134.39999389648</ele>
        <time>2022-04-14T15:07:32Z</time>
      </trkpt>
      <trkpt lat="48.25742" lon="3.02547">
        <ele>134</ele>
        <time>2022-04-14T15:07:37Z</time>
      </trkpt>
      <trkpt lat="48.25741" lon="3.02539">
        <ele>133.80000305176</ele>
        <time>2022-04-14T15:07:42Z</time>
      </trkpt>
      <trkpt lat="48.25741" lon="3.02531">
        <ele>133.39999389648</ele>
        <time>2022-04-14T15:07:47Z</time>
      </trkpt>
      <trkpt lat="48.25739" lon="3.02522">
        <ele>133.19999694824</ele>
        <time>2022-04-14T15:07:52Z</time>
      </trkpt>
      <trkpt lat="48.25738" lon="3.02514">
        <ele>132.60000610352</ele>
        <time>2022-04-14T15:07:57Z</time>
      </trkpt>
      <trkpt lat="48.25737" lon="3.02506">
        <ele>132.19999694824</ele>
        <time>2022-04-14T15:08:02Z</time>
      </trkpt>
      <trkpt lat="48.25735" lon="3.02497">
        <ele>131.80000305176</ele>
        <time>2022-04-14T15:08:07Z</time>
      </trkpt>
      <trkpt lat="48.25734" lon="3.02489">
        <ele>131.60000610352</ele>
        <time>2022-04-14T15:08:12Z</time>
      </trkpt>
      <trkpt lat="48.25733" lon="3.02482">
        <ele>131.19999694824</ele>
        <time>2022-04-14T15:08:17Z</time>
      </trkpt>
      <trkpt lat="48.25731" lon="3.02474">
        <ele>130.80000305176</ele>
        <time>2022-04-14T15:08:22Z</time>
      </trkpt>
      <trkpt lat="48.25731" lon="3.02466">
        <ele>130.60000610352</ele>
        <time>2022-04-14T15:08:27Z</time>
      </trkpt>
      <trkpt lat="48.2573" lon="3.02457">
        <ele>130.19999694824</ele>
        <time>2022-04-14T15:08:32Z</time>
      </trkpt>
      <trkpt lat="48.25731" lon="3.02448">
        <ele>129.80000305176</ele>
        <time>2022-04-14T15:08:37Z</time>
      </trkpt>
      <trkpt lat="48.25731" lon="3.02439">
        <ele>129.60000610352</ele>
        <time>2022-04-14T15:08:42Z</time>
      </trkpt>
      <trkpt lat="48.25731" lon="3.02432">
        <ele>129</ele>
        <time>2022-04-14T15:08:47Z</time>
      </trkpt>
      <trkpt lat="48.2573" lon="3.02422">
        <ele>128.60000610352</ele>
        <time>2022-04-14T15:08:52Z</time>
      </trkpt>
      <trkpt lat="48.25728" lon="3.02417">
        <ele>128.19999694824</ele>
        <time>2022-04-14T15:08:57Z</time>
      </trkpt>
      <trkpt lat="48.25726" lon="3.02412">
        <ele>127.80000305176</ele>
        <time>2022-04-14T15:09:02Z</time>
      </trkpt>
      <trkpt lat="48.25724" lon="3.02407">
        <ele>127.59999847412</ele>
        <time>2022-04-14T15:09:07Z</time>
      </trkpt>
      <trkpt lat="48.25724" lon="3.02406">
        <ele>127.40000152588</ele>
        <time>2022-04-14T15:09:08Z</time>
      </trkpt>
    </trkseg>
  </trk>
</gpx>